<?xml version='1.0' encoding='UTF-8'?><gpx version="1.1" creator="JPX - https://github.com/jenetics/jpx" xmlns="http://www.topografix.com/GPX/1/1"><trk><trkseg><trkpt lat="52.45796285423709" lon="-3.2151810887346013"><ele>390.99999999999994</ele><time>2026-04-12T09:28:04Z</time></trkpt><trkpt lat="52.45791699034286" lon="-3.215297029325938"><ele>390.0</ele><time>2026-04-12T09:28:07Z</time></trkpt><trkpt lat="52.457839349151605" lon="-3.215277608098842"><ele>389.0</ele><time>2026-04-12T09:28:10Z</time></trkpt><trkpt lat="52.457771941284705" lon="-3.215234229045616"><ele>388.0</ele><time>2026-04-12T09:28:28Z</time></trkpt><trkpt lat="52.45770361888754" lon="-3.215195031228004"><ele>386.99999999999994</ele><time>2026-04-12T09:31:01Z</time></trkpt><trkpt lat="52.4575998081603" lon="-3.215139021721747"><ele>386.0</ele><time>2026-04-12T09:31:03Z</time></trkpt><trkpt lat="52.45750148899981" lon="-3.2150566331982486"><ele>386.00000000000006</ele><time>2026-04-12T09:31:05Z</time></trkpt><trkpt lat="52.45744492984419" lon="-3.2150051123260885"><ele>386.0</ele><time>2026-04-12T09:31:06Z</time></trkpt><trkpt lat="52.457391178686684" lon="-3.214945703284729"><ele>386.0</ele><time>2026-04-12T09:31:07Z</time></trkpt><trkpt lat="52.45733796895525" lon="-3.21488570811796"><ele>386.0</ele><time>2026-04-12T09:31:08Z</time></trkpt><trkpt lat="52.45727691704585" lon="-3.214810220506431"><ele>386.0</ele><time>2026-04-12T09:31:09Z</time></trkpt><trkpt lat="52.4571968544382" lon="-3.214774068269896"><ele>386.00000000000006</ele><time>2026-04-12T09:31:10Z</time></trkpt><trkpt lat="52.45712251344242" lon="-3.214725417720184"><ele>386.0</ele><time>2026-04-12T09:31:11Z</time></trkpt><trkpt lat="52.45702515874714" lon="-3.214680637884734"><ele>385.6</ele><time>2026-04-12T09:31:12Z</time></trkpt><trkpt lat="52.4569242476766" lon="-3.214645651801583"><ele>385.20000000000005</ele><time>2026-04-12T09:31:13Z</time></trkpt><trkpt lat="52.45681991176566" lon="-3.2146277764700835"><ele>384.79999999999995</ele><time>2026-04-12T09:31:14Z</time></trkpt><trkpt lat="52.456723523330695" lon="-3.2146009717588693"><ele>384.4</ele><time>2026-04-12T09:31:15Z</time></trkpt><trkpt lat="52.456618462119025" lon="-3.214577028490335"><ele>384.0</ele><time>2026-04-12T09:31:16Z</time></trkpt><trkpt lat="52.45650686036308" lon="-3.214536597875209"><ele>384.0</ele><time>2026-04-12T09:31:17Z</time></trkpt><trkpt lat="52.456388762693415" lon="-3.2144917395249974"><ele>384.0</ele><time>2026-04-12T09:31:18Z</time></trkpt><trkpt lat="52.45627342356957" lon="-3.2144525355388023"><ele>384.0</ele><time>2026-04-12T09:31:19Z</time></trkpt><trkpt lat="52.45614268393823" lon="-3.2144263494910783"><ele>384.0</ele><time>2026-04-12T09:31:20Z</time></trkpt><trkpt lat="52.45600838307782" lon="-3.2143950333774067"><ele>384.25</ele><time>2026-04-12T09:31:21Z</time></trkpt><trkpt lat="52.45586846780372" lon="-3.214355893713579"><ele>384.5</ele><time>2026-04-12T09:31:22Z</time></trkpt><trkpt lat="52.45572740785154" lon="-3.214314127758445"><ele>384.75</ele><time>2026-04-12T09:31:23Z</time></trkpt><trkpt lat="52.45558827155023" lon="-3.2142757556074533"><ele>385.0</ele><time>2026-04-12T09:31:24Z</time></trkpt><trkpt lat="52.455450637337535" lon="-3.2142463062925883"><ele>386.0</ele><time>2026-04-12T09:31:25Z</time></trkpt><trkpt lat="52.45531663948208" lon="-3.214230193893583"><ele>387.0</ele><time>2026-04-12T09:31:26Z</time></trkpt><trkpt lat="52.45517724093789" lon="-3.2142362520534404"><ele>388.0</ele><time>2026-04-12T09:31:27Z</time></trkpt><trkpt lat="52.45504452511161" lon="-3.214257753291459"><ele>389.0</ele><time>2026-04-12T09:31:28Z</time></trkpt><trkpt lat="52.454909183264455" lon="-3.214289469628315"><ele>389.0</ele><time>2026-04-12T09:31:29Z</time></trkpt><trkpt lat="52.45477257580946" lon="-3.214320018857678"><ele>389.0</ele><time>2026-04-12T09:31:30Z</time></trkpt><trkpt lat="52.45463677566611" lon="-3.214354394993538"><ele>389.0</ele><time>2026-04-12T09:31:31Z</time></trkpt><trkpt lat="52.45450160666277" lon="-3.2143891484971165"><ele>389.0</ele><time>2026-04-12T09:31:32Z</time></trkpt><trkpt lat="52.454369653722466" lon="-3.21442122233297"><ele>390.2</ele><time>2026-04-12T09:31:33Z</time></trkpt><trkpt lat="52.45426202450905" lon="-3.214456389843883"><ele>391.4</ele><time>2026-04-12T09:31:34Z</time></trkpt><trkpt lat="52.454177375896755" lon="-3.2144754509815683"><ele>392.6</ele><time>2026-04-12T09:31:35Z</time></trkpt><trkpt lat="52.45409839142417" lon="-3.2144936278713345"><ele>393.8</ele><time>2026-04-12T09:31:36Z</time></trkpt><trkpt lat="52.45401541381499" lon="-3.214518454947663"><ele>395.0</ele><time>2026-04-12T09:31:37Z</time></trkpt><trkpt lat="52.453922867919154" lon="-3.21454546372081"><ele>395.0</ele><time>2026-04-12T09:31:38Z</time></trkpt><trkpt lat="52.453821491904996" lon="-3.2145687254132915"><ele>395.0</ele><time>2026-04-12T09:31:39Z</time></trkpt><trkpt lat="52.45371899837365" lon="-3.214561369590533"><ele>395.0</ele><time>2026-04-12T09:31:40Z</time></trkpt><trkpt lat="52.453626982611" lon="-3.2145340404294527"><ele>395.0</ele><time>2026-04-12T09:31:41Z</time></trkpt><trkpt lat="52.45353711538115" lon="-3.214483338366232"><ele>395.0</ele><time>2026-04-12T09:31:42Z</time></trkpt><trkpt lat="52.45345437621561" lon="-3.2144054940400006"><ele>397.8</ele><time>2026-04-12T09:31:43Z</time></trkpt><trkpt lat="52.45338514384169" lon="-3.2142924774773043"><ele>400.6</ele><time>2026-04-12T09:31:44Z</time></trkpt><trkpt lat="52.453330873193046" lon="-3.2141698713641977"><ele>403.4</ele><time>2026-04-12T09:31:45Z</time></trkpt><trkpt lat="52.45328450165566" lon="-3.214032326324416"><ele>406.2</ele><time>2026-04-12T09:31:46Z</time></trkpt><trkpt lat="52.4532560925213" lon="-3.213873066792959"><ele>409.0</ele><time>2026-04-12T09:31:47Z</time></trkpt><trkpt lat="52.45323759580588" lon="-3.213700172535619"><ele>409.0</ele><time>2026-04-12T09:31:48Z</time></trkpt><trkpt lat="52.45321914422253" lon="-3.2135207090430224"><ele>409.0</ele><time>2026-04-12T09:31:49Z</time></trkpt><trkpt lat="52.453204684008895" lon="-3.2133249332166653"><ele>409.0</ele><time>2026-04-12T09:31:50Z</time></trkpt><trkpt lat="52.45318831433524" lon="-3.21312252223973"><ele>409.0</ele><time>2026-04-12T09:31:51Z</time></trkpt><trkpt lat="52.45317641745937" lon="-3.212907999762104"><ele>409.0</ele><time>2026-04-12T09:31:52Z</time></trkpt><trkpt lat="52.45316479553673" lon="-3.212686375221728"><ele>409.0</ele><time>2026-04-12T09:31:53Z</time></trkpt><trkpt lat="52.453155645228875" lon="-3.2124655187201867"><ele>409.0</ele><time>2026-04-12T09:31:54Z</time></trkpt><trkpt lat="52.45314909967985" lon="-3.212247488151015"><ele>409.0</ele><time>2026-04-12T09:31:55Z</time></trkpt><trkpt lat="52.45313184498537" lon="-3.2120483815410807"><ele>408.79999999999995</ele><time>2026-04-12T09:31:56Z</time></trkpt><trkpt lat="52.45309852190548" lon="-3.211889200839405"><ele>408.59999999999997</ele><time>2026-04-12T09:31:57Z</time></trkpt><trkpt lat="52.453046358805416" lon="-3.21175271358097"><ele>408.4</ele><time>2026-04-12T09:31:58Z</time></trkpt><trkpt lat="52.45296723707361" lon="-3.2116375105009793"><ele>408.2</ele><time>2026-04-12T09:31:59Z</time></trkpt><trkpt lat="52.45288291159771" lon="-3.2115430068771236"><ele>408.0</ele><time>2026-04-12T09:32:00Z</time></trkpt><trkpt lat="52.452774715605265" lon="-3.2114660261517862"><ele>410.75</ele><time>2026-04-12T09:32:01Z</time></trkpt><trkpt lat="52.452664670019814" lon="-3.2114212398437894"><ele>413.5</ele><time>2026-04-12T09:32:02Z</time></trkpt><trkpt lat="52.45254336226207" lon="-3.211393160757554"><ele>416.25</ele><time>2026-04-12T09:32:03Z</time></trkpt><trkpt lat="52.45240989712815" lon="-3.211378753028626"><ele>419.0</ele><time>2026-04-12T09:32:04Z</time></trkpt><trkpt lat="52.45227078717573" lon="-3.2113544085763754"><ele>419.0</ele><time>2026-04-12T09:32:05Z</time></trkpt><trkpt lat="52.45212499019799" lon="-3.2113222678925597"><ele>419.0</ele><time>2026-04-12T09:32:06Z</time></trkpt><trkpt lat="52.451971064362446" lon="-3.2112908999618437"><ele>419.0</ele><time>2026-04-12T09:32:07Z</time></trkpt><trkpt lat="52.451813741523594" lon="-3.2112560225897986"><ele>420.3333333333333</ele><time>2026-04-12T09:32:08Z</time></trkpt><trkpt lat="52.451656334471686" lon="-3.2112239177560347"><ele>421.66666666666663</ele><time>2026-04-12T09:32:09Z</time></trkpt><trkpt lat="52.45150809242662" lon="-3.211197581067968"><ele>423.0</ele><time>2026-04-12T09:32:10Z</time></trkpt><trkpt lat="52.45135986402578" lon="-3.2111711755109953"><ele>423.5</ele><time>2026-04-12T09:32:11Z</time></trkpt><trkpt lat="52.45121433049064" lon="-3.2111394096864396"><ele>424.0</ele><time>2026-04-12T09:32:12Z</time></trkpt><trkpt lat="52.45107157135241" lon="-3.211110863311583"><ele>424.5</ele><time>2026-04-12T09:32:13Z</time></trkpt><trkpt lat="52.45092924374542" lon="-3.2110874806306673"><ele>425.0</ele><time>2026-04-12T09:32:14Z</time></trkpt><trkpt lat="52.450789562493384" lon="-3.211038246296982"><ele>425.0</ele><time>2026-04-12T09:32:15Z</time></trkpt><trkpt lat="52.45064784476579" lon="-3.21100786835122"><ele>425.0</ele><time>2026-04-12T09:32:16Z</time></trkpt><trkpt lat="52.45050656237899" lon="-3.2109775815453494"><ele>425.0</ele><time>2026-04-12T09:32:17Z</time></trkpt><trkpt lat="52.45036296363421" lon="-3.210946977552789"><ele>425.0</ele><time>2026-04-12T09:32:18Z</time></trkpt><trkpt lat="52.450221866775024" lon="-3.210916906764031"><ele>424.5</ele><time>2026-04-12T09:32:19Z</time></trkpt><trkpt lat="52.45008359194773" lon="-3.2109137483562544"><ele>424.0</ele><time>2026-04-12T09:32:20Z</time></trkpt><trkpt lat="52.44994444302313" lon="-3.2108710131555864"><ele>423.5</ele><time>2026-04-12T09:32:21Z</time></trkpt><trkpt lat="52.449805240159044" lon="-3.2108329815840384"><ele>423.0</ele><time>2026-04-12T09:32:22Z</time></trkpt><trkpt lat="52.44967238109659" lon="-3.2107761341026593"><ele>422.0</ele><time>2026-04-12T09:32:23Z</time></trkpt><trkpt lat="52.44953011124774" lon="-3.2106875040561893"><ele>421.0</ele><time>2026-04-12T09:32:24Z</time></trkpt><trkpt lat="52.44938589421275" lon="-3.210582245543956"><ele>420.0</ele><time>2026-04-12T09:32:25Z</time></trkpt><trkpt lat="52.449247293466584" lon="-3.2104623680789435"><ele>419.0</ele><time>2026-04-12T09:32:26Z</time></trkpt><trkpt lat="52.44911148336405" lon="-3.210337433387631"><ele>418.0</ele><time>2026-04-12T09:32:27Z</time></trkpt><trkpt lat="52.44897620186693" lon="-3.2102138294158147"><ele>417.0</ele><time>2026-04-12T09:32:28Z</time></trkpt><trkpt lat="52.448842420726734" lon="-3.2100961031850623"><ele>416.33333333333337</ele><time>2026-04-12T09:32:29Z</time></trkpt><trkpt lat="52.448706384877674" lon="-3.2099813695629154"><ele>415.6666666666667</ele><time>2026-04-12T09:32:30Z</time></trkpt><trkpt lat="52.44858124322397" lon="-3.209836757019401"><ele>415.0</ele><time>2026-04-12T09:32:31Z</time></trkpt><trkpt lat="52.44843533217353" lon="-3.2097339814997756"><ele>414.0</ele><time>2026-04-12T09:32:32Z</time></trkpt><trkpt lat="52.44829469403734" lon="-3.2096093076104104"><ele>413.0</ele><time>2026-04-12T09:32:33Z</time></trkpt><trkpt lat="52.4481599530498" lon="-3.20945959110278"><ele>412.0</ele><time>2026-04-12T09:32:34Z</time></trkpt><trkpt lat="52.448006740429285" lon="-3.209355088101403"><ele>412.6666666666667</ele><time>2026-04-12T09:32:35Z</time></trkpt><trkpt lat="52.447860298512495" lon="-3.209225716452243"><ele>413.33333333333337</ele><time>2026-04-12T09:32:36Z</time></trkpt><trkpt lat="52.44771374808564" lon="-3.209089676364247"><ele>414.0</ele><time>2026-04-12T09:32:37Z</time></trkpt><trkpt lat="52.44756763955021" lon="-3.2089556194084596"><ele>414.0</ele><time>2026-04-12T09:32:38Z</time></trkpt><trkpt lat="52.44742067223377" lon="-3.20882352982993"><ele>414.0</ele><time>2026-04-12T09:32:39Z</time></trkpt><trkpt lat="52.44727402653121" lon="-3.208690063371216"><ele>414.0</ele><time>2026-04-12T09:32:40Z</time></trkpt><trkpt lat="52.447128402476736" lon="-3.208560481922322"><ele>415.33333333333337</ele><time>2026-04-12T09:32:41Z</time></trkpt><trkpt lat="52.44698544808333" lon="-3.2084320801336985"><ele>416.6666666666667</ele><time>2026-04-12T09:32:42Z</time></trkpt><trkpt lat="52.446843965388496" lon="-3.208302143017039"><ele>418.0</ele><time>2026-04-12T09:32:43Z</time></trkpt><trkpt lat="52.44669822925791" lon="-3.208174431653248"><ele>417.6666666666667</ele><time>2026-04-12T09:32:44Z</time></trkpt><trkpt lat="52.44654962631579" lon="-3.208044456220046"><ele>417.33333333333337</ele><time>2026-04-12T09:32:45Z</time></trkpt><trkpt lat="52.44640163891707" lon="-3.2079178769709458"><ele>417.0</ele><time>2026-04-12T09:32:46Z</time></trkpt><trkpt lat="52.44625629556459" lon="-3.207792471289732"><ele>418.0</ele><time>2026-04-12T09:32:47Z</time></trkpt><trkpt lat="52.446109959773224" lon="-3.2076705685866953"><ele>419.0</ele><time>2026-04-12T09:32:48Z</time></trkpt><trkpt lat="52.44596326384852" lon="-3.207542000628175"><ele>420.0</ele><time>2026-04-12T09:32:49Z</time></trkpt><trkpt lat="52.44581590400658" lon="-3.2074107677280654"><ele>420.0</ele><time>2026-04-12T09:32:50Z</time></trkpt><trkpt lat="52.445670070580604" lon="-3.207278432826873"><ele>420.0</ele><time>2026-04-12T09:32:51Z</time></trkpt><trkpt lat="52.445519545770765" lon="-3.207141390771258"><ele>420.0</ele><time>2026-04-12T09:32:52Z</time></trkpt><trkpt lat="52.445366299830866" lon="-3.207003593021022"><ele>420.0</ele><time>2026-04-12T09:32:53Z</time></trkpt><trkpt lat="52.44521275548042" lon="-3.206865347346142"><ele>420.0</ele><time>2026-04-12T09:32:54Z</time></trkpt><trkpt lat="52.445061195310295" lon="-3.206732587573883"><ele>420.0</ele><time>2026-04-12T09:32:55Z</time></trkpt><trkpt lat="52.44491126490126" lon="-3.206601093072895"><ele>420.33333333333337</ele><time>2026-04-12T09:32:56Z</time></trkpt><trkpt lat="52.444761244093954" lon="-3.206473041632768"><ele>420.6666666666667</ele><time>2026-04-12T09:32:57Z</time></trkpt><trkpt lat="52.4446146142997" lon="-3.2063456526434595"><ele>421.0</ele><time>2026-04-12T09:32:58Z</time></trkpt><trkpt lat="52.44447380308955" lon="-3.206214764164188"><ele>421.25</ele><time>2026-04-12T09:32:59Z</time></trkpt><trkpt lat="52.44434112281431" lon="-3.2060990057572245"><ele>421.5</ele><time>2026-04-12T09:33:00Z</time></trkpt><trkpt lat="52.444216749014586" lon="-3.206005027879753"><ele>421.75</ele><time>2026-04-12T09:33:01Z</time></trkpt><trkpt lat="52.44409427376978" lon="-3.205928725802194"><ele>422.0</ele><time>2026-04-12T09:33:02Z</time></trkpt><trkpt lat="52.44398131785083" lon="-3.2058066862507957"><ele>422.0</ele><time>2026-04-12T09:33:03Z</time></trkpt><trkpt lat="52.443848941193025" lon="-3.2057634541323305"><ele>422.0</ele><time>2026-04-12T09:33:04Z</time></trkpt><trkpt lat="52.44371400733045" lon="-3.20569454061581"><ele>422.0</ele><time>2026-04-12T09:33:05Z</time></trkpt><trkpt lat="52.44358163043939" lon="-3.205625545834517"><ele>422.0</ele><time>2026-04-12T09:33:06Z</time></trkpt><trkpt lat="52.44344891905868" lon="-3.2055622018658387"><ele>423.0</ele><time>2026-04-12T09:33:07Z</time></trkpt><trkpt lat="52.44331534581609" lon="-3.2054813028230456"><ele>424.0</ele><time>2026-04-12T09:33:08Z</time></trkpt><trkpt lat="52.44318303556455" lon="-3.2053817271180627"><ele>425.0</ele><time>2026-04-12T09:33:09Z</time></trkpt><trkpt lat="52.4430512592945" lon="-3.20527421681912"><ele>426.0</ele><time>2026-04-12T09:33:10Z</time></trkpt><trkpt lat="52.44292770026768" lon="-3.2051773694709667"><ele>426.0</ele><time>2026-04-12T09:33:11Z</time></trkpt><trkpt lat="52.4428022945327" lon="-3.2051067589818985"><ele>426.0</ele><time>2026-04-12T09:33:12Z</time></trkpt><trkpt lat="52.44267085398535" lon="-3.2050605062898367"><ele>426.0</ele><time>2026-04-12T09:33:13Z</time></trkpt><trkpt lat="52.44253481990211" lon="-3.205044410444829"><ele>426.0</ele><time>2026-04-12T09:33:14Z</time></trkpt><trkpt lat="52.442398345929284" lon="-3.205065718065814"><ele>426.0</ele><time>2026-04-12T09:33:15Z</time></trkpt><trkpt lat="52.44226533795371" lon="-3.2051137190257246"><ele>426.0</ele><time>2026-04-12T09:33:16Z</time></trkpt><trkpt lat="52.44212163636952" lon="-3.205191479053078"><ele>426.0</ele><time>2026-04-12T09:33:17Z</time></trkpt><trkpt lat="52.44197549218067" lon="-3.205261792770333"><ele>426.0</ele><time>2026-04-12T09:33:18Z</time></trkpt><trkpt lat="52.44182633951685" lon="-3.205329929854014"><ele>426.0</ele><time>2026-04-12T09:33:19Z</time></trkpt><trkpt lat="52.44167487180848" lon="-3.2054067519776255"><ele>426.0</ele><time>2026-04-12T09:33:20Z</time></trkpt><trkpt lat="52.441523976454306" lon="-3.2054747622662636"><ele>426.0</ele><time>2026-04-12T09:33:21Z</time></trkpt><trkpt lat="52.441367587217215" lon="-3.205542745228984"><ele>425.66666666666663</ele><time>2026-04-12T09:33:22Z</time></trkpt><trkpt lat="52.44121496090225" lon="-3.2056148446500567"><ele>425.3333333333333</ele><time>2026-04-12T09:33:23Z</time></trkpt><trkpt lat="52.44106027455152" lon="-3.205690910522853"><ele>425.0</ele><time>2026-04-12T09:33:24Z</time></trkpt><trkpt lat="52.44090036472008" lon="-3.2057526212179766"><ele>425.0</ele><time>2026-04-12T09:33:25Z</time></trkpt><trkpt lat="52.44073491505707" lon="-3.2058154266347447"><ele>425.0</ele><time>2026-04-12T09:33:26Z</time></trkpt><trkpt lat="52.440575268255735" lon="-3.205884669786242"><ele>425.0</ele><time>2026-04-12T09:33:27Z</time></trkpt><trkpt lat="52.440424441941886" lon="-3.2059499797258786"><ele>426.0</ele><time>2026-04-12T09:33:28Z</time></trkpt><trkpt lat="52.44027880651445" lon="-3.206015013356315"><ele>427.0</ele><time>2026-04-12T09:33:29Z</time></trkpt><trkpt lat="52.44013825297361" lon="-3.2060749295993523"><ele>428.0</ele><time>2026-04-12T09:33:30Z</time></trkpt><trkpt lat="52.439996808353726" lon="-3.2061306692087164"><ele>429.0</ele><time>2026-04-12T09:33:31Z</time></trkpt><trkpt lat="52.43986321930965" lon="-3.206204642116575"><ele>429.0</ele><time>2026-04-12T09:33:32Z</time></trkpt><trkpt lat="52.43973328260792" lon="-3.206313363628555"><ele>429.0</ele><time>2026-04-12T09:33:33Z</time></trkpt><trkpt lat="52.43960967681442" lon="-3.206467889816164"><ele>429.0</ele><time>2026-04-12T09:33:34Z</time></trkpt><trkpt lat="52.439483653519" lon="-3.206626798511383"><ele>430.0</ele><time>2026-04-12T09:33:35Z</time></trkpt><trkpt lat="52.43936403027422" lon="-3.2067900537729908"><ele>431.0</ele><time>2026-04-12T09:33:36Z</time></trkpt><trkpt lat="52.439240420179495" lon="-3.206958680030539"><ele>432.0</ele><time>2026-04-12T09:33:37Z</time></trkpt><trkpt lat="52.4391220737806" lon="-3.207112082869837"><ele>432.0</ele><time>2026-04-12T09:33:38Z</time></trkpt><trkpt lat="52.43900503824944" lon="-3.2072471968346066"><ele>432.0</ele><time>2026-04-12T09:33:39Z</time></trkpt><trkpt lat="52.438879894950446" lon="-3.207370935711784"><ele>432.0</ele><time>2026-04-12T09:33:40Z</time></trkpt><trkpt lat="52.43874977550618" lon="-3.207478601719807"><ele>432.0</ele><time>2026-04-12T09:33:41Z</time></trkpt><trkpt lat="52.43862105815919" lon="-3.207576659307561"><ele>432.25</ele><time>2026-04-12T09:33:42Z</time></trkpt><trkpt lat="52.43848769333032" lon="-3.207671313101422"><ele>432.5</ele><time>2026-04-12T09:33:43Z</time></trkpt><trkpt lat="52.43834989591078" lon="-3.207767579997676"><ele>432.75</ele><time>2026-04-12T09:33:44Z</time></trkpt><trkpt lat="52.43821235970082" lon="-3.2078631416395536"><ele>433.0</ele><time>2026-04-12T09:33:45Z</time></trkpt><trkpt lat="52.43807081003731" lon="-3.2079618335873104"><ele>432.25</ele><time>2026-04-12T09:33:46Z</time></trkpt><trkpt lat="52.437931575133724" lon="-3.2080621464587398"><ele>431.5</ele><time>2026-04-12T09:33:47Z</time></trkpt><trkpt lat="52.43779605896758" lon="-3.208164845020606"><ele>430.75</ele><time>2026-04-12T09:33:48Z</time></trkpt><trkpt lat="52.43766209570668" lon="-3.208265211415228"><ele>430.0</ele><time>2026-04-12T09:33:49Z</time></trkpt><trkpt lat="52.43752999530496" lon="-3.2083642022710035"><ele>430.0</ele><time>2026-04-12T09:33:50Z</time></trkpt><trkpt lat="52.43739398138635" lon="-3.208463904437122"><ele>430.0</ele><time>2026-04-12T09:33:51Z</time></trkpt><trkpt lat="52.437257211276034" lon="-3.208560489963443"><ele>430.0</ele><time>2026-04-12T09:33:52Z</time></trkpt><trkpt lat="52.43711874246333" lon="-3.2086600105566547"><ele>430.0</ele><time>2026-04-12T09:33:53Z</time></trkpt><trkpt lat="52.43698149250512" lon="-3.2087617674872617"><ele>429.0</ele><time>2026-04-12T09:33:54Z</time></trkpt><trkpt lat="52.43684497883729" lon="-3.20885907560578"><ele>428.0</ele><time>2026-04-12T09:33:55Z</time></trkpt><trkpt lat="52.43671275420769" lon="-3.2089564205893715"><ele>427.0</ele><time>2026-04-12T09:33:56Z</time></trkpt><trkpt lat="52.43658051792556" lon="-3.20905557364941"><ele>426.0</ele><time>2026-04-12T09:33:57Z</time></trkpt><trkpt lat="52.436456646017945" lon="-3.2091476298717745"><ele>425.75</ele><time>2026-04-12T09:33:58Z</time></trkpt><trkpt lat="52.43633435323646" lon="-3.2092345019649593"><ele>425.5</ele><time>2026-04-12T09:33:59Z</time></trkpt><trkpt lat="52.43621257336541" lon="-3.209316883623646"><ele>425.25</ele><time>2026-04-12T09:34:00Z</time></trkpt><trkpt lat="52.43609818611223" lon="-3.209393081058157"><ele>425.0</ele><time>2026-04-12T09:34:01Z</time></trkpt><trkpt lat="52.435979849055414" lon="-3.2094421418052366"><ele>423.5</ele><time>2026-04-12T09:34:02Z</time></trkpt><trkpt lat="52.435847414297506" lon="-3.20946713824681"><ele>422.0</ele><time>2026-04-12T09:34:03Z</time></trkpt><trkpt lat="52.43569529069236" lon="-3.209474960977686"><ele>420.5</ele><time>2026-04-12T09:34:04Z</time></trkpt><trkpt lat="52.43553782504378" lon="-3.2094811515308552"><ele>419.0</ele><time>2026-04-12T09:34:05Z</time></trkpt><trkpt lat="52.43537899032234" lon="-3.2094944073232123"><ele>417.0</ele><time>2026-04-12T09:34:06Z</time></trkpt><trkpt lat="52.43521998683931" lon="-3.209509434656522"><ele>415.0</ele><time>2026-04-12T09:34:07Z</time></trkpt><trkpt lat="52.435059916392184" lon="-3.2095216176367085"><ele>413.0</ele><time>2026-04-12T09:34:08Z</time></trkpt><trkpt lat="52.43489870206192" lon="-3.209536431698907"><ele>413.0</ele><time>2026-04-12T09:34:09Z</time></trkpt><trkpt lat="52.43474039949521" lon="-3.209554494044103"><ele>413.0</ele><time>2026-04-12T09:34:10Z</time></trkpt><trkpt lat="52.4345839251725" lon="-3.2095696668673717"><ele>413.0</ele><time>2026-04-12T09:34:11Z</time></trkpt><trkpt lat="52.434430039338054" lon="-3.2095830321549927"><ele>410.3333333333333</ele><time>2026-04-12T09:34:12Z</time></trkpt><trkpt lat="52.43427649516811" lon="-3.209595807945701"><ele>407.66666666666663</ele><time>2026-04-12T09:34:13Z</time></trkpt><trkpt lat="52.4341229755667" lon="-3.209608572161726"><ele>405.0</ele><time>2026-04-12T09:34:14Z</time></trkpt><trkpt lat="52.433973535068404" lon="-3.2096222169857187"><ele>405.0</ele><time>2026-04-12T09:34:15Z</time></trkpt><trkpt lat="52.43381839422295" lon="-3.2096364060887344"><ele>405.0</ele><time>2026-04-12T09:34:16Z</time></trkpt><trkpt lat="52.433664338497465" lon="-3.2096497624834948"><ele>405.0</ele><time>2026-04-12T09:34:17Z</time></trkpt><trkpt lat="52.43351258557179" lon="-3.2096652984068283"><ele>402.0</ele><time>2026-04-12T09:34:18Z</time></trkpt><trkpt lat="52.4333648546551" lon="-3.2096814035372847"><ele>399.0</ele><time>2026-04-12T09:34:19Z</time></trkpt><trkpt lat="52.43321994807653" lon="-3.209695444189842"><ele>396.0</ele><time>2026-04-12T09:34:20Z</time></trkpt><trkpt lat="52.43307310439728" lon="-3.2097078787295175"><ele>393.0</ele><time>2026-04-12T09:34:21Z</time></trkpt><trkpt lat="52.432925096704" lon="-3.2097186572088385"><ele>391.33333333333337</ele><time>2026-04-12T09:34:22Z</time></trkpt><trkpt lat="52.43277359957819" lon="-3.2097292754556297"><ele>389.6666666666667</ele><time>2026-04-12T09:34:23Z</time></trkpt><trkpt lat="52.43262152276172" lon="-3.20974378450457"><ele>388.0</ele><time>2026-04-12T09:34:24Z</time></trkpt><trkpt lat="52.432470300026374" lon="-3.209761912101503"><ele>388.0</ele><time>2026-04-12T09:34:25Z</time></trkpt><trkpt lat="52.43232425345508" lon="-3.209778103902223"><ele>388.0</ele><time>2026-04-12T09:34:26Z</time></trkpt><trkpt lat="52.432184330912186" lon="-3.2097929535269007"><ele>388.0</ele><time>2026-04-12T09:34:27Z</time></trkpt><trkpt lat="52.432046067707674" lon="-3.209805473827289"><ele>388.0</ele><time>2026-04-12T09:34:28Z</time></trkpt><trkpt lat="52.4319021113382" lon="-3.209822215004422"><ele>386.25</ele><time>2026-04-12T09:34:29Z</time></trkpt><trkpt lat="52.43176253449755" lon="-3.2098381997232495"><ele>384.5</ele><time>2026-04-12T09:34:30Z</time></trkpt><trkpt lat="52.43162151747432" lon="-3.2098524772141532"><ele>382.75</ele><time>2026-04-12T09:34:31Z</time></trkpt><trkpt lat="52.43147729429864" lon="-3.2098631290581903"><ele>381.0</ele><time>2026-04-12T09:34:32Z</time></trkpt><trkpt lat="52.431332654742704" lon="-3.209875279199148"><ele>380.0</ele><time>2026-04-12T09:34:33Z</time></trkpt><trkpt lat="52.43118934949689" lon="-3.209880775607598"><ele>379.0</ele><time>2026-04-12T09:34:34Z</time></trkpt><trkpt lat="52.431041121092136" lon="-3.2098692876493544"><ele>378.0</ele><time>2026-04-12T09:34:35Z</time></trkpt><trkpt lat="52.430892972565076" lon="-3.209834238969119"><ele>377.0</ele><time>2026-04-12T09:34:36Z</time></trkpt><trkpt lat="52.430750769678546" lon="-3.2097760469617835"><ele>376.75</ele><time>2026-04-12T09:34:37Z</time></trkpt><trkpt lat="52.43061253450337" lon="-3.209705649825762"><ele>376.5</ele><time>2026-04-12T09:34:38Z</time></trkpt><trkpt lat="52.43048203579321" lon="-3.209638211083851"><ele>376.25</ele><time>2026-04-12T09:34:39Z</time></trkpt><trkpt lat="52.430356315915894" lon="-3.20959446909882"><ele>376.0</ele><time>2026-04-12T09:34:40Z</time></trkpt><trkpt lat="52.43023521932544" lon="-3.2095547583005457"><ele>376.0</ele><time>2026-04-12T09:34:41Z</time></trkpt><trkpt lat="52.43011716251673" lon="-3.209509592558763"><ele>376.0</ele><time>2026-04-12T09:34:42Z</time></trkpt><trkpt lat="52.43000504184517" lon="-3.2094717745996997"><ele>376.0</ele><time>2026-04-12T09:34:43Z</time></trkpt><trkpt lat="52.42991098758117" lon="-3.209418273601379"><ele>376.0</ele><time>2026-04-12T09:34:44Z</time></trkpt><trkpt lat="52.42981420435401" lon="-3.2094507406139416"><ele>376.0</ele><time>2026-04-12T09:34:45Z</time></trkpt><trkpt lat="52.4297282172155" lon="-3.2094593168536223"><ele>376.0</ele><time>2026-04-12T09:34:46Z</time></trkpt><trkpt lat="52.42964755428653" lon="-3.209458925693154"><ele>376.0</ele><time>2026-04-12T09:34:47Z</time></trkpt><trkpt lat="52.429568024359654" lon="-3.209458081161777"><ele>376.0</ele><time>2026-04-12T09:34:48Z</time></trkpt><trkpt lat="52.42950043396168" lon="-3.2094533887231487"><ele>376.0</ele><time>2026-04-12T09:34:49Z</time></trkpt><trkpt lat="52.42935782421986" lon="-3.209445468577368"><ele>376.0</ele><time>2026-04-12T09:34:51Z</time></trkpt><trkpt lat="52.42926902570919" lon="-3.2094373883007217"><ele>375.8</ele><time>2026-04-12T09:34:52Z</time></trkpt><trkpt lat="52.429170276801166" lon="-3.2094554968350386"><ele>375.6</ele><time>2026-04-12T09:34:53Z</time></trkpt><trkpt lat="52.42907566453152" lon="-3.209490311444155"><ele>375.4</ele><time>2026-04-12T09:34:54Z</time></trkpt><trkpt lat="52.428979797696044" lon="-3.209527778815355"><ele>375.2</ele><time>2026-04-12T09:34:55Z</time></trkpt><trkpt lat="52.42888106886358" lon="-3.2095509227236763"><ele>375.0</ele><time>2026-04-12T09:34:56Z</time></trkpt><trkpt lat="52.428781529152204" lon="-3.209597714227804"><ele>373.8</ele><time>2026-04-12T09:34:57Z</time></trkpt><trkpt lat="52.42868460481035" lon="-3.2096418887678864"><ele>372.6</ele><time>2026-04-12T09:34:58Z</time></trkpt><trkpt lat="52.428586012291866" lon="-3.2096913626107857"><ele>371.4</ele><time>2026-04-12T09:34:59Z</time></trkpt><trkpt lat="52.428485814288614" lon="-3.2097447944092177"><ele>370.2</ele><time>2026-04-12T09:35:00Z</time></trkpt><trkpt lat="52.42838232474775" lon="-3.2098116375382935"><ele>369.0</ele><time>2026-04-12T09:35:01Z</time></trkpt><trkpt lat="52.4282795419569" lon="-3.2098722962882626"><ele>369.0</ele><time>2026-04-12T09:35:02Z</time></trkpt><trkpt lat="52.42818279282625" lon="-3.2099402712324627"><ele>369.0</ele><time>2026-04-12T09:35:03Z</time></trkpt><trkpt lat="52.4280900077603" lon="-3.210022770369762"><ele>369.0</ele><time>2026-04-12T09:35:04Z</time></trkpt><trkpt lat="52.42800098983044" lon="-3.21010487775298"><ele>369.0</ele><time>2026-04-12T09:35:05Z</time></trkpt><trkpt lat="52.427922184781686" lon="-3.2101914661093987"><ele>369.0</ele><time>2026-04-12T09:35:06Z</time></trkpt><trkpt lat="52.427852053422455" lon="-3.2102806501292873"><ele>367.6</ele><time>2026-04-12T09:35:07Z</time></trkpt><trkpt lat="52.42778820514038" lon="-3.2103761436764624"><ele>366.2</ele><time>2026-04-12T09:35:08Z</time></trkpt><trkpt lat="52.427725631875084" lon="-3.2104962582133822"><ele>364.8</ele><time>2026-04-12T09:35:09Z</time></trkpt><trkpt lat="52.42766785018478" lon="-3.210638337114787"><ele>363.40000000000003</ele><time>2026-04-12T09:35:10Z</time></trkpt><trkpt lat="52.427609406953806" lon="-3.2107823211502295"><ele>362.0</ele><time>2026-04-12T09:35:11Z</time></trkpt><trkpt lat="52.42756413068569" lon="-3.2109436357859966"><ele>362.0</ele><time>2026-04-12T09:35:12Z</time></trkpt><trkpt lat="52.42751544699963" lon="-3.2111018272810066"><ele>362.0</ele><time>2026-04-12T09:35:13Z</time></trkpt><trkpt lat="52.427466880730286" lon="-3.211255600844145"><ele>362.0</ele><time>2026-04-12T09:35:14Z</time></trkpt><trkpt lat="52.4274175956219" lon="-3.211411157071066"><ele>362.0</ele><time>2026-04-12T09:35:15Z</time></trkpt><trkpt lat="52.42736688581592" lon="-3.2115628458745196"><ele>362.0</ele><time>2026-04-12T09:35:16Z</time></trkpt><trkpt lat="52.427324799319955" lon="-3.2117185426041814"><ele>361.40000000000003</ele><time>2026-04-12T09:35:17Z</time></trkpt><trkpt lat="52.427274373796585" lon="-3.2118759401531842"><ele>360.8</ele><time>2026-04-12T09:35:18Z</time></trkpt><trkpt lat="52.42721983627269" lon="-3.2120288309329452"><ele>360.2</ele><time>2026-04-12T09:35:19Z</time></trkpt><trkpt lat="52.42715043373644" lon="-3.2121721223534108"><ele>359.6</ele><time>2026-04-12T09:35:20Z</time></trkpt><trkpt lat="52.42707093801747" lon="-3.212292447501441"><ele>359.0</ele><time>2026-04-12T09:35:21Z</time></trkpt><trkpt lat="52.42698942882704" lon="-3.212397302825092"><ele>356.4</ele><time>2026-04-12T09:35:22Z</time></trkpt><trkpt lat="52.426906942159626" lon="-3.212499142247743"><ele>353.79999999999995</ele><time>2026-04-12T09:35:23Z</time></trkpt><trkpt lat="52.426826075424366" lon="-3.2126015109792885"><ele>351.20000000000005</ele><time>2026-04-12T09:35:24Z</time></trkpt><trkpt lat="52.42674906111162" lon="-3.212711270123965"><ele>348.6</ele><time>2026-04-12T09:35:25Z</time></trkpt><trkpt lat="52.42667954377033" lon="-3.212812148477456"><ele>346.0</ele><time>2026-04-12T09:35:26Z</time></trkpt><trkpt lat="52.42662370553386" lon="-3.2129110140353956"><ele>346.0</ele><time>2026-04-12T09:35:27Z</time></trkpt><trkpt lat="52.426576757947075" lon="-3.213023869109076"><ele>346.0</ele><time>2026-04-12T09:35:28Z</time></trkpt><trkpt lat="52.426544457919015" lon="-3.2131672331157595"><ele>346.0</ele><time>2026-04-12T09:35:29Z</time></trkpt><trkpt lat="52.426519900652764" lon="-3.213340895306622"><ele>346.0</ele><time>2026-04-12T09:35:30Z</time></trkpt><trkpt lat="52.42650191726737" lon="-3.213527446078278"><ele>346.0</ele><time>2026-04-12T09:35:31Z</time></trkpt><trkpt lat="52.4264820581194" lon="-3.213707095064217"><ele>345.16666666666663</ele><time>2026-04-12T09:35:32Z</time></trkpt><trkpt lat="52.42647825441492" lon="-3.213872859897683"><ele>344.3333333333333</ele><time>2026-04-12T09:35:33Z</time></trkpt><trkpt lat="52.42648137633839" lon="-3.214014994699485"><ele>343.5</ele><time>2026-04-12T09:35:34Z</time></trkpt><trkpt lat="52.42649491672717" lon="-3.214144694402313"><ele>342.6666666666667</ele><time>2026-04-12T09:35:35Z</time></trkpt><trkpt lat="52.426505314531106" lon="-3.214278530912657"><ele>341.83333333333337</ele><time>2026-04-12T09:35:36Z</time></trkpt><trkpt lat="52.42656075000144" lon="-3.2144029205826095"><ele>341.0</ele><time>2026-04-12T09:35:37Z</time></trkpt><trkpt lat="52.426593983696335" lon="-3.214528313530525"><ele>339.20000000000005</ele><time>2026-04-12T09:35:38Z</time></trkpt><trkpt lat="52.426650687031504" lon="-3.2146337848417335"><ele>337.40000000000003</ele><time>2026-04-12T09:35:39Z</time></trkpt><trkpt lat="52.426723461365924" lon="-3.214731053836509"><ele>335.6</ele><time>2026-04-12T09:35:40Z</time></trkpt><trkpt lat="52.426792644524795" lon="-3.214829400914135"><ele>333.8</ele><time>2026-04-12T09:35:41Z</time></trkpt><trkpt lat="52.42686739267567" lon="-3.2149379909520897"><ele>332.0</ele><time>2026-04-12T09:35:42Z</time></trkpt><trkpt lat="52.426919397400084" lon="-3.215086302054636"><ele>329.6</ele><time>2026-04-12T09:35:43Z</time></trkpt><trkpt lat="52.42697536031438" lon="-3.215231051749718"><ele>327.20000000000005</ele><time>2026-04-12T09:35:44Z</time></trkpt><trkpt lat="52.42703108384736" lon="-3.215386770497684"><ele>324.8</ele><time>2026-04-12T09:35:45Z</time></trkpt><trkpt lat="52.42706894245521" lon="-3.2155356961308414"><ele>322.4</ele><time>2026-04-12T09:35:46Z</time></trkpt><trkpt lat="52.42710099602917" lon="-3.2156807659971745"><ele>320.0</ele><time>2026-04-12T09:35:47Z</time></trkpt><trkpt lat="52.42714840711264" lon="-3.2157886281786756"><ele>317.6</ele><time>2026-04-12T09:35:48Z</time></trkpt><trkpt lat="52.42717863850913" lon="-3.2158974533833913"><ele>315.2</ele><time>2026-04-12T09:35:49Z</time></trkpt><trkpt lat="52.427230804281244" lon="-3.216009688511007"><ele>312.8</ele><time>2026-04-12T09:35:50Z</time></trkpt><trkpt lat="52.42729617274236" lon="-3.216122413947464"><ele>310.4</ele><time>2026-04-12T09:35:51Z</time></trkpt><trkpt lat="52.42736701167437" lon="-3.2162351337969866"><ele>308.0</ele><time>2026-04-12T09:35:52Z</time></trkpt><trkpt lat="52.427436270403085" lon="-3.2163472045782693"><ele>308.0</ele><time>2026-04-12T09:35:53Z</time></trkpt><trkpt lat="52.427489910395096" lon="-3.2164452135539965"><ele>308.0</ele><time>2026-04-12T09:35:54Z</time></trkpt><trkpt lat="52.42752711480092" lon="-3.2166172516824103"><ele>308.0</ele><time>2026-04-12T09:35:56Z</time></trkpt><trkpt lat="52.42755589273097" lon="-3.216717878766005"><ele>308.0</ele><time>2026-04-12T09:35:58Z</time></trkpt><trkpt lat="52.4275660999593" lon="-3.216898363244932"><ele>308.0</ele><time>2026-04-12T09:36:00Z</time></trkpt><trkpt lat="52.42756861120225" lon="-3.2170204172988806"><ele>308.0</ele><time>2026-04-12T09:36:01Z</time></trkpt><trkpt lat="52.427569041904995" lon="-3.217150644900621"><ele>306.5</ele><time>2026-04-12T09:36:02Z</time></trkpt><trkpt lat="52.42759044402107" lon="-3.2172738346905922"><ele>305.0</ele><time>2026-04-12T09:36:03Z</time></trkpt><trkpt lat="52.427610447000106" lon="-3.2173876989083925"><ele>303.5</ele><time>2026-04-12T09:36:04Z</time></trkpt><trkpt lat="52.427630730356796" lon="-3.21757805214294"><ele>302.0</ele><time>2026-04-12T09:36:06Z</time></trkpt><trkpt lat="52.427606930181696" lon="-3.2176896540901416"><ele>300.5</ele><time>2026-04-12T09:36:07Z</time></trkpt><trkpt lat="52.42758780130404" lon="-3.2178111539261054"><ele>299.0</ele><time>2026-04-12T09:36:08Z</time></trkpt><trkpt lat="52.427562418598065" lon="-3.2179590718950877"><ele>297.83333333333337</ele><time>2026-04-12T09:36:10Z</time></trkpt><trkpt lat="52.427522932203956" lon="-3.218048789991772"><ele>296.6666666666667</ele><time>2026-04-12T09:36:30Z</time></trkpt><trkpt lat="52.427509065927396" lon="-3.2181693555975603"><ele>295.5</ele><time>2026-04-12T09:36:32Z</time></trkpt><trkpt lat="52.427439487806254" lon="-3.2183173537644523"><ele>294.3333333333333</ele><time>2026-04-12T09:36:34Z</time></trkpt><trkpt lat="52.427396198406505" lon="-3.2183951557352914"><ele>293.16666666666663</ele><time>2026-04-12T09:36:35Z</time></trkpt><trkpt lat="52.42735031798732" lon="-3.218490220738616"><ele>292.0</ele><time>2026-04-12T09:36:36Z</time></trkpt><trkpt lat="52.42729799147027" lon="-3.21860399484478"><ele>290.8</ele><time>2026-04-12T09:36:37Z</time></trkpt><trkpt lat="52.427229482897964" lon="-3.2187142485324363"><ele>289.6</ele><time>2026-04-12T09:36:38Z</time></trkpt><trkpt lat="52.42715018611117" lon="-3.218819920426964"><ele>288.40000000000003</ele><time>2026-04-12T09:36:39Z</time></trkpt><trkpt lat="52.427069886345535" lon="-3.2189306345779887"><ele>287.2</ele><time>2026-04-12T09:36:40Z</time></trkpt><trkpt lat="52.426992291134624" lon="-3.2190417759335057"><ele>286.0</ele><time>2026-04-12T09:36:41Z</time></trkpt><trkpt lat="52.42691444894915" lon="-3.2191549432480686"><ele>284.0</ele><time>2026-04-12T09:36:42Z</time></trkpt><trkpt lat="52.4268346012715" lon="-3.219263814759269"><ele>282.0</ele><time>2026-04-12T09:36:43Z</time></trkpt><trkpt lat="52.426754162532355" lon="-3.21937007519074"><ele>280.0</ele><time>2026-04-12T09:36:44Z</time></trkpt><trkpt lat="52.42667959195257" lon="-3.219485356025014"><ele>278.0</ele><time>2026-04-12T09:36:45Z</time></trkpt><trkpt lat="52.42660119962029" lon="-3.2195963537178005"><ele>276.0</ele><time>2026-04-12T09:36:46Z</time></trkpt><trkpt lat="52.42652429602667" lon="-3.219695006712533"><ele>276.0</ele><time>2026-04-12T09:36:47Z</time></trkpt><trkpt lat="52.42644465551748" lon="-3.219794221586627"><ele>276.0</ele><time>2026-04-12T09:36:48Z</time></trkpt><trkpt lat="52.42636791937337" lon="-3.2198955335714685"><ele>276.0</ele><time>2026-04-12T09:36:49Z</time></trkpt><trkpt lat="52.426291941686635" lon="-3.220001941490602"><ele>276.0</ele><time>2026-04-12T09:36:50Z</time></trkpt><trkpt lat="52.42621637064469" lon="-3.2201071323263983"><ele>276.0</ele><time>2026-04-12T09:36:51Z</time></trkpt><trkpt lat="52.426146303440916" lon="-3.220210064740997"><ele>275.2</ele><time>2026-04-12T09:36:52Z</time></trkpt><trkpt lat="52.42608318619706" lon="-3.220311064245524"><ele>274.40000000000003</ele><time>2026-04-12T09:36:53Z</time></trkpt><trkpt lat="52.42602135216504" lon="-3.2204119084167093"><ele>273.6</ele><time>2026-04-12T09:36:54Z</time></trkpt><trkpt lat="52.42595038887419" lon="-3.220518607547948"><ele>272.8</ele><time>2026-04-12T09:36:55Z</time></trkpt><trkpt lat="52.425881104856714" lon="-3.22062443858543"><ele>272.0</ele><time>2026-04-12T09:36:56Z</time></trkpt><trkpt lat="52.42582137735738" lon="-3.220732063394925"><ele>271.6</ele><time>2026-04-12T09:36:57Z</time></trkpt><trkpt lat="52.425773790989176" lon="-3.220844429281712"><ele>271.2</ele><time>2026-04-12T09:36:58Z</time></trkpt><trkpt lat="52.42573695052687" lon="-3.2209714530002542"><ele>270.8</ele><time>2026-04-12T09:36:59Z</time></trkpt><trkpt lat="52.42570381435716" lon="-3.2211204959846915"><ele>270.4</ele><time>2026-04-12T09:37:00Z</time></trkpt><trkpt lat="52.425675891042665" lon="-3.2212814011601987"><ele>270.0</ele><time>2026-04-12T09:37:01Z</time></trkpt><trkpt lat="52.42564438008527" lon="-3.221446692145708"><ele>270.0</ele><time>2026-04-12T09:37:02Z</time></trkpt><trkpt lat="52.42560317296867" lon="-3.2216086705460607"><ele>270.0</ele><time>2026-04-12T09:37:03Z</time></trkpt><trkpt lat="52.42556737902696" lon="-3.2217637781674937"><ele>270.0</ele><time>2026-04-12T09:37:04Z</time></trkpt><trkpt lat="52.42552189474677" lon="-3.221906113536848"><ele>270.0</ele><time>2026-04-12T09:37:05Z</time></trkpt><trkpt lat="52.42546971668123" lon="-3.2220597752931264"><ele>270.0</ele><time>2026-04-12T09:37:06Z</time></trkpt><trkpt lat="52.42540377343858" lon="-3.222214444371095"><ele>269.5</ele><time>2026-04-12T09:37:07Z</time></trkpt><trkpt lat="52.42532139421406" lon="-3.222362836306553"><ele>269.0</ele><time>2026-04-12T09:37:08Z</time></trkpt><trkpt lat="52.4252341997551" lon="-3.2224984491362205"><ele>268.5</ele><time>2026-04-12T09:37:09Z</time></trkpt><trkpt lat="52.42514727963489" lon="-3.2226292030267074"><ele>268.0</ele><time>2026-04-12T09:37:10Z</time></trkpt><trkpt lat="52.42506229712873" lon="-3.2227561384943932"><ele>268.0</ele><time>2026-04-12T09:37:11Z</time></trkpt><trkpt lat="52.424972745549475" lon="-3.2228747497531653"><ele>268.0</ele><time>2026-04-12T09:37:12Z</time></trkpt><trkpt lat="52.424877291174695" lon="-3.2229836799670917"><ele>268.0</ele><time>2026-04-12T09:37:13Z</time></trkpt><trkpt lat="52.424787231390866" lon="-3.2230874549195216"><ele>268.0</ele><time>2026-04-12T09:37:14Z</time></trkpt><trkpt lat="52.424699829860906" lon="-3.2231878622581993"><ele>268.0</ele><time>2026-04-12T09:37:15Z</time></trkpt><trkpt lat="52.424620185487214" lon="-3.2232916027523366"><ele>268.6</ele><time>2026-04-12T09:37:16Z</time></trkpt><trkpt lat="52.42454063266345" lon="-3.2233889479566926"><ele>269.20000000000005</ele><time>2026-04-12T09:37:17Z</time></trkpt><trkpt lat="52.42446310743926" lon="-3.2234897845148134"><ele>269.8</ele><time>2026-04-12T09:37:18Z</time></trkpt><trkpt lat="52.424398299182045" lon="-3.2235895845998663"><ele>270.40000000000003</ele><time>2026-04-12T09:37:19Z</time></trkpt><trkpt lat="52.42434175061442" lon="-3.223679756686978"><ele>271.0</ele><time>2026-04-12T09:37:20Z</time></trkpt><trkpt lat="52.424268423885856" lon="-3.223808332956066"><ele>271.0</ele><time>2026-04-12T09:37:22Z</time></trkpt><trkpt lat="52.42423500765638" lon="-3.2239117296827398"><ele>271.0</ele><time>2026-04-12T09:37:30Z</time></trkpt><trkpt lat="52.42432955949791" lon="-3.2240790036038485"><ele>271.0</ele><time>2026-04-12T09:38:29Z</time></trkpt><trkpt lat="52.424396531154315" lon="-3.2241348030791492"><ele>271.0</ele><time>2026-04-12T09:38:30Z</time></trkpt><trkpt lat="52.424460765843186" lon="-3.224177965753428"><ele>271.0</ele><time>2026-04-12T09:38:31Z</time></trkpt><trkpt lat="52.42455498832166" lon="-3.2242575670442135"><ele>272.0</ele><time>2026-04-12T09:38:32Z</time></trkpt><trkpt lat="52.42466651024166" lon="-3.2243491253508227"><ele>273.0</ele><time>2026-04-12T09:38:33Z</time></trkpt><trkpt lat="52.424781297437924" lon="-3.2244456850918075"><ele>274.0</ele><time>2026-04-12T09:38:34Z</time></trkpt><trkpt lat="52.42491094922534" lon="-3.224557060319898"><ele>275.0</ele><time>2026-04-12T09:38:35Z</time></trkpt><trkpt lat="52.425048973379894" lon="-3.224676262721299"><ele>275.0</ele><time>2026-04-12T09:38:36Z</time></trkpt><trkpt lat="52.425192089987206" lon="-3.2248092153906933"><ele>275.0</ele><time>2026-04-12T09:38:37Z</time></trkpt><trkpt lat="52.42533685858695" lon="-3.2249418207076066"><ele>275.0</ele><time>2026-04-12T09:38:38Z</time></trkpt><trkpt lat="52.42548185526987" lon="-3.2250705390525254"><ele>277.0</ele><time>2026-04-12T09:38:39Z</time></trkpt><trkpt lat="52.42562473264192" lon="-3.225197611063377"><ele>279.0</ele><time>2026-04-12T09:38:40Z</time></trkpt><trkpt lat="52.42575641635474" lon="-3.2253139724239595"><ele>281.0</ele><time>2026-04-12T09:38:41Z</time></trkpt><trkpt lat="52.425881651091416" lon="-3.225423151195079"><ele>281.0</ele><time>2026-04-12T09:38:42Z</time></trkpt><trkpt lat="52.42600813198856" lon="-3.225521236430327"><ele>281.0</ele><time>2026-04-12T09:38:43Z</time></trkpt><trkpt lat="52.42614499583308" lon="-3.225608219321301"><ele>281.0</ele><time>2026-04-12T09:38:44Z</time></trkpt><trkpt lat="52.42628810158922" lon="-3.2256754562700203"><ele>281.0</ele><time>2026-04-12T09:38:45Z</time></trkpt><trkpt lat="52.42643056708069" lon="-3.225737017842107"><ele>283.0</ele><time>2026-04-12T09:38:46Z</time></trkpt><trkpt lat="52.426577170677454" lon="-3.2258033691788195"><ele>285.0</ele><time>2026-04-12T09:38:47Z</time></trkpt><trkpt lat="52.4267259403687" lon="-3.2258871978886616"><ele>287.0</ele><time>2026-04-12T09:38:48Z</time></trkpt><trkpt lat="52.42687307053592" lon="-3.225979403381652"><ele>287.0</ele><time>2026-04-12T09:38:49Z</time></trkpt><trkpt lat="52.427015488307994" lon="-3.2260585166267144"><ele>287.0</ele><time>2026-04-12T09:38:50Z</time></trkpt><trkpt lat="52.42715474063142" lon="-3.226128418972349"><ele>287.0</ele><time>2026-04-12T09:38:51Z</time></trkpt><trkpt lat="52.42729303113834" lon="-3.226198396317722"><ele>287.0</ele><time>2026-04-12T09:38:52Z</time></trkpt><trkpt lat="52.42741484549193" lon="-3.22627101785984"><ele>286.75</ele><time>2026-04-12T09:38:53Z</time></trkpt><trkpt lat="52.42753297277611" lon="-3.22635505344654"><ele>286.5</ele><time>2026-04-12T09:38:54Z</time></trkpt><trkpt lat="52.42764542598963" lon="-3.2264376371053975"><ele>286.25</ele><time>2026-04-12T09:38:55Z</time></trkpt><trkpt lat="52.42774583471302" lon="-3.22653152228705"><ele>286.0</ele><time>2026-04-12T09:38:56Z</time></trkpt><trkpt lat="52.42783098170843" lon="-3.226643234277338"><ele>286.0</ele><time>2026-04-12T09:38:57Z</time></trkpt><trkpt lat="52.427893123249085" lon="-3.2267665559984158"><ele>286.0</ele><time>2026-04-12T09:38:58Z</time></trkpt><trkpt lat="52.427919113614195" lon="-3.2269515737589693"><ele>286.0</ele><time>2026-04-12T09:38:59Z</time></trkpt><trkpt lat="52.42798220636199" lon="-3.227140473562869"><ele>286.0</ele><time>2026-04-12T09:39:00Z</time></trkpt><trkpt lat="52.42806593829207" lon="-3.22732603899003"><ele>285.3333333333333</ele><time>2026-04-12T09:39:01Z</time></trkpt><trkpt lat="52.428144734521666" lon="-3.2275399705245706"><ele>284.6666666666667</ele><time>2026-04-12T09:39:02Z</time></trkpt><trkpt lat="52.428222947617755" lon="-3.2277562128519075"><ele>284.0</ele><time>2026-04-12T09:39:03Z</time></trkpt><trkpt lat="52.428306120155476" lon="-3.227973997676765"><ele>284.75</ele><time>2026-04-12T09:39:04Z</time></trkpt><trkpt lat="52.42838038646992" lon="-3.228182027077388"><ele>285.5</ele><time>2026-04-12T09:39:05Z</time></trkpt><trkpt lat="52.42844967374112" lon="-3.2283805088158393"><ele>286.25</ele><time>2026-04-12T09:39:06Z</time></trkpt><trkpt lat="52.428526699502605" lon="-3.2285665759506834"><ele>287.0</ele><time>2026-04-12T09:39:07Z</time></trkpt><trkpt lat="52.428617539266355" lon="-3.228757405319341"><ele>287.0</ele><time>2026-04-12T09:39:08Z</time></trkpt><trkpt lat="52.428720667374854" lon="-3.2289437407213932"><ele>287.0</ele><time>2026-04-12T09:39:09Z</time></trkpt><trkpt lat="52.42883271540655" lon="-3.2291267275912876"><ele>287.0</ele><time>2026-04-12T09:39:10Z</time></trkpt><trkpt lat="52.42894387604154" lon="-3.229316867731693"><ele>286.33333333333337</ele><time>2026-04-12T09:39:11Z</time></trkpt><trkpt lat="52.4290614806555" lon="-3.229507536223801"><ele>285.6666666666667</ele><time>2026-04-12T09:39:12Z</time></trkpt><trkpt lat="52.42918278845777" lon="-3.2296989963542537"><ele>285.0</ele><time>2026-04-12T09:39:13Z</time></trkpt><trkpt lat="52.42930317112875" lon="-3.2298797366221375"><ele>284.3333333333333</ele><time>2026-04-12T09:39:14Z</time></trkpt><trkpt lat="52.42942081783171" lon="-3.230057880228298"><ele>283.66666666666663</ele><time>2026-04-12T09:39:15Z</time></trkpt><trkpt lat="52.42953697169438" lon="-3.2302330798629204"><ele>283.0</ele><time>2026-04-12T09:39:16Z</time></trkpt><trkpt lat="52.42964986120961" lon="-3.2304016039612566"><ele>283.0</ele><time>2026-04-12T09:39:17Z</time></trkpt><trkpt lat="52.42974929845195" lon="-3.2305839981500952"><ele>283.0</ele><time>2026-04-12T09:39:18Z</time></trkpt><trkpt lat="52.4298429778453" lon="-3.2307808561739573"><ele>283.0</ele><time>2026-04-12T09:39:19Z</time></trkpt><trkpt lat="52.42992680823839" lon="-3.2310029594965695"><ele>283.66666666666663</ele><time>2026-04-12T09:39:20Z</time></trkpt><trkpt lat="52.429993613551574" lon="-3.2312412359293217"><ele>284.3333333333333</ele><time>2026-04-12T09:39:21Z</time></trkpt><trkpt lat="52.430057011358365" lon="-3.2314688827672486"><ele>285.0</ele><time>2026-04-12T09:39:22Z</time></trkpt><trkpt lat="52.430097282375364" lon="-3.231687786824185"><ele>285.6666666666667</ele><time>2026-04-12T09:39:23Z</time></trkpt><trkpt lat="52.43012383424282" lon="-3.231927618064449"><ele>286.33333333333337</ele><time>2026-04-12T09:39:24Z</time></trkpt><trkpt lat="52.43015028888753" lon="-3.232178394513311"><ele>287.0</ele><time>2026-04-12T09:39:25Z</time></trkpt><trkpt lat="52.43018135489494" lon="-3.2324262598720552"><ele>287.33333333333337</ele><time>2026-04-12T09:39:26Z</time></trkpt><trkpt lat="52.43022042530302" lon="-3.23266991744938"><ele>287.6666666666667</ele><time>2026-04-12T09:39:27Z</time></trkpt><trkpt lat="52.4302648057913" lon="-3.232915247795208"><ele>288.0</ele><time>2026-04-12T09:39:28Z</time></trkpt><trkpt lat="52.430307297658736" lon="-3.2331545174353975"><ele>288.6666666666667</ele><time>2026-04-12T09:39:29Z</time></trkpt><trkpt lat="52.430337041236776" lon="-3.233402526239034"><ele>289.33333333333337</ele><time>2026-04-12T09:39:30Z</time></trkpt><trkpt lat="52.4303498473648" lon="-3.2336594410593738"><ele>290.0</ele><time>2026-04-12T09:39:31Z</time></trkpt><trkpt lat="52.43035417631423" lon="-3.2339339896582104"><ele>291.0</ele><time>2026-04-12T09:39:32Z</time></trkpt><trkpt lat="52.4303451728264" lon="-3.2342092020990725"><ele>292.0</ele><time>2026-04-12T09:39:33Z</time></trkpt><trkpt lat="52.43032213062163" lon="-3.234502189453256"><ele>293.0</ele><time>2026-04-12T09:39:34Z</time></trkpt><trkpt lat="52.430293617630554" lon="-3.23479622219455"><ele>293.33333333333337</ele><time>2026-04-12T09:39:35Z</time></trkpt><trkpt lat="52.430275146271065" lon="-3.2350881363902513"><ele>293.6666666666667</ele><time>2026-04-12T09:39:36Z</time></trkpt><trkpt lat="52.4302629709177" lon="-3.235361744795286"><ele>294.0</ele><time>2026-04-12T09:39:37Z</time></trkpt><trkpt lat="52.43025016615814" lon="-3.2356293829467564"><ele>294.0</ele><time>2026-04-12T09:39:38Z</time></trkpt><trkpt lat="52.43022026382369" lon="-3.2358969539077105"><ele>294.0</ele><time>2026-04-12T09:39:39Z</time></trkpt><trkpt lat="52.43016442885953" lon="-3.236166471590372"><ele>294.0</ele><time>2026-04-12T09:39:40Z</time></trkpt><trkpt lat="52.43010502609952" lon="-3.236439718726689"><ele>293.3333333333333</ele><time>2026-04-12T09:39:41Z</time></trkpt><trkpt lat="52.430030012669015" lon="-3.2367016115233564"><ele>292.66666666666663</ele><time>2026-04-12T09:39:42Z</time></trkpt><trkpt lat="52.42996246787828" lon="-3.236948830198725"><ele>292.0</ele><time>2026-04-12T09:39:43Z</time></trkpt><trkpt lat="52.42990146033366" lon="-3.2371782674722116"><ele>291.66666666666663</ele><time>2026-04-12T09:39:44Z</time></trkpt><trkpt lat="52.429860819776096" lon="-3.2374159600764223"><ele>291.3333333333333</ele><time>2026-04-12T09:39:45Z</time></trkpt><trkpt lat="52.429843593705385" lon="-3.2376759565232924"><ele>291.0</ele><time>2026-04-12T09:39:46Z</time></trkpt><trkpt lat="52.42983828719262" lon="-3.2379547274850258"><ele>290.3333333333333</ele><time>2026-04-12T09:39:47Z</time></trkpt><trkpt lat="52.429826477295585" lon="-3.2382418302538043"><ele>289.66666666666663</ele><time>2026-04-12T09:39:48Z</time></trkpt><trkpt lat="52.42980550499232" lon="-3.2385420103282176"><ele>289.0</ele><time>2026-04-12T09:39:49Z</time></trkpt><trkpt lat="52.429777104470155" lon="-3.238838061701298"><ele>289.0</ele><time>2026-04-12T09:39:50Z</time></trkpt><trkpt lat="52.42974529636322" lon="-3.2391267646604316"><ele>289.0</ele><time>2026-04-12T09:39:51Z</time></trkpt><trkpt lat="52.42972012666367" lon="-3.239413896614464"><ele>289.0</ele><time>2026-04-12T09:39:52Z</time></trkpt><trkpt lat="52.429692879333814" lon="-3.2397007266473827"><ele>289.3333333333333</ele><time>2026-04-12T09:39:53Z</time></trkpt><trkpt lat="52.429658542652874" lon="-3.2399784111191314"><ele>289.6666666666667</ele><time>2026-04-12T09:39:54Z</time></trkpt><trkpt lat="52.429606903456765" lon="-3.240229966363788"><ele>290.0</ele><time>2026-04-12T09:39:55Z</time></trkpt><trkpt lat="52.4295718450739" lon="-3.240477522360787"><ele>291.5</ele><time>2026-04-12T09:39:56Z</time></trkpt><trkpt lat="52.429528889738066" lon="-3.2407042545755598"><ele>293.0</ele><time>2026-04-12T09:39:57Z</time></trkpt><trkpt lat="52.42951864738069" lon="-3.2409400191493143"><ele>294.5</ele><time>2026-04-12T09:39:58Z</time></trkpt><trkpt lat="52.42951356799302" lon="-3.2411871394839893"><ele>296.0</ele><time>2026-04-12T09:39:59Z</time></trkpt><trkpt lat="52.429499294992354" lon="-3.2414299862469753"><ele>295.75</ele><time>2026-04-12T09:40:00Z</time></trkpt><trkpt lat="52.429470604199246" lon="-3.24166592506545"><ele>295.5</ele><time>2026-04-12T09:40:01Z</time></trkpt><trkpt lat="52.429432598926155" lon="-3.2418779913763207"><ele>295.25</ele><time>2026-04-12T09:40:02Z</time></trkpt><trkpt lat="52.429363071028945" lon="-3.242065603350863"><ele>295.0</ele><time>2026-04-12T09:40:03Z</time></trkpt><trkpt lat="52.429294264029906" lon="-3.2422774520902315"><ele>294.66666666666663</ele><time>2026-04-12T09:40:04Z</time></trkpt><trkpt lat="52.42924398326866" lon="-3.2425294563296867"><ele>294.3333333333333</ele><time>2026-04-12T09:40:05Z</time></trkpt><trkpt lat="52.42919569244292" lon="-3.242795338891671"><ele>294.0</ele><time>2026-04-12T09:40:06Z</time></trkpt><trkpt lat="52.42915967961406" lon="-3.24307737905384"><ele>294.0</ele><time>2026-04-12T09:40:07Z</time></trkpt><trkpt lat="52.42912563660506" lon="-3.2433702046868182"><ele>294.0</ele><time>2026-04-12T09:40:08Z</time></trkpt><trkpt lat="52.42908746760309" lon="-3.243664355312161"><ele>294.0</ele><time>2026-04-12T09:40:09Z</time></trkpt><trkpt lat="52.42905363144159" lon="-3.243954209527151"><ele>293.6666666666667</ele><time>2026-04-12T09:40:10Z</time></trkpt><trkpt lat="52.42902256727887" lon="-3.244224054086825"><ele>293.33333333333337</ele><time>2026-04-12T09:40:11Z</time></trkpt><trkpt lat="52.428992622053954" lon="-3.244484097667964"><ele>293.0</ele><time>2026-04-12T09:40:12Z</time></trkpt><trkpt lat="52.42896034977685" lon="-3.244744950713237"><ele>293.0</ele><time>2026-04-12T09:40:13Z</time></trkpt><trkpt lat="52.42892935843399" lon="-3.244997949709245"><ele>293.0</ele><time>2026-04-12T09:40:14Z</time></trkpt><trkpt lat="52.42889733547615" lon="-3.2452331821025986"><ele>293.0</ele><time>2026-04-12T09:40:15Z</time></trkpt><trkpt lat="52.428878865504515" lon="-3.2454607892941905"><ele>293.0</ele><time>2026-04-12T09:40:16Z</time></trkpt><trkpt lat="52.42887690411699" lon="-3.245683307979494"><ele>293.25</ele><time>2026-04-12T09:40:17Z</time></trkpt><trkpt lat="52.42889973115076" lon="-3.24589430101157"><ele>293.5</ele><time>2026-04-12T09:40:18Z</time></trkpt><trkpt lat="52.428943900287265" lon="-3.246083886900382"><ele>293.75</ele><time>2026-04-12T09:40:19Z</time></trkpt><trkpt lat="52.42900779610038" lon="-3.2462612417468324"><ele>294.0</ele><time>2026-04-12T09:40:20Z</time></trkpt><trkpt lat="52.42908848714858" lon="-3.2464286869814583"><ele>294.25</ele><time>2026-04-12T09:40:21Z</time></trkpt><trkpt lat="52.42915420562376" lon="-3.246610167860668"><ele>294.5</ele><time>2026-04-12T09:40:22Z</time></trkpt><trkpt lat="52.42920934344489" lon="-3.246774981107401"><ele>294.75</ele><time>2026-04-12T09:40:23Z</time></trkpt><trkpt lat="52.42925369693066" lon="-3.2469361841603406"><ele>295.0</ele><time>2026-04-12T09:40:24Z</time></trkpt><trkpt lat="52.429282155892594" lon="-3.2470914107324886"><ele>295.0</ele><time>2026-04-12T09:40:25Z</time></trkpt><trkpt lat="52.42930855642486" lon="-3.2472362839538453"><ele>295.0</ele><time>2026-04-12T09:40:26Z</time></trkpt><trkpt lat="52.42933195713259" lon="-3.2473598101460546"><ele>295.0</ele><time>2026-04-12T09:40:27Z</time></trkpt><trkpt lat="52.429339805450645" lon="-3.2474661542665957"><ele>295.0</ele><time>2026-04-12T09:40:28Z</time></trkpt><trkpt lat="52.42926782640024" lon="-3.247689182858039"><ele>295.0</ele><time>2026-04-12T09:40:30Z</time></trkpt><trkpt lat="52.4292038074376" lon="-3.2478103642629206"><ele>295.25</ele><time>2026-04-12T09:40:31Z</time></trkpt><trkpt lat="52.429127771885206" lon="-3.247943964010685"><ele>295.5</ele><time>2026-04-12T09:40:32Z</time></trkpt><trkpt lat="52.42904761946013" lon="-3.2480950220825324"><ele>295.75</ele><time>2026-04-12T09:40:33Z</time></trkpt><trkpt lat="52.42895590173329" lon="-3.2482419870146506"><ele>296.0</ele><time>2026-04-12T09:40:34Z</time></trkpt><trkpt lat="52.42886315351637" lon="-3.248387059107427"><ele>298.5</ele><time>2026-04-12T09:40:35Z</time></trkpt><trkpt lat="52.42876872936904" lon="-3.248531204827616"><ele>301.0</ele><time>2026-04-12T09:40:36Z</time></trkpt><trkpt lat="52.42867927883544" lon="-3.248660623579828"><ele>303.5</ele><time>2026-04-12T09:40:37Z</time></trkpt><trkpt lat="52.428599281940656" lon="-3.248786605760188"><ele>306.0</ele><time>2026-04-12T09:40:38Z</time></trkpt><trkpt lat="52.42853234650163" lon="-3.2489141478021732"><ele>306.0</ele><time>2026-04-12T09:40:39Z</time></trkpt><trkpt lat="52.428484839825906" lon="-3.2490553913057347"><ele>306.0</ele><time>2026-04-12T09:40:40Z</time></trkpt><trkpt lat="52.42845103059802" lon="-3.249216505281722"><ele>306.0</ele><time>2026-04-12T09:40:41Z</time></trkpt><trkpt lat="52.428416542315134" lon="-3.249391255412583"><ele>306.0</ele><time>2026-04-12T09:40:42Z</time></trkpt><trkpt lat="52.428385791503885" lon="-3.249577911357473"><ele>306.0</ele><time>2026-04-12T09:40:43Z</time></trkpt><trkpt lat="52.42834666846841" lon="-3.249744509661884"><ele>306.0</ele><time>2026-04-12T09:40:44Z</time></trkpt><trkpt lat="52.42831448482421" lon="-3.2498899794879494"><ele>306.0</ele><time>2026-04-12T09:40:45Z</time></trkpt><trkpt lat="52.42826654569814" lon="-3.2500016647182077"><ele>306.0</ele><time>2026-04-12T09:40:46Z</time></trkpt><trkpt lat="52.42824135386744" lon="-3.2501320758993177"><ele>306.0</ele><time>2026-04-12T09:40:48Z</time></trkpt><trkpt lat="52.428190821777285" lon="-3.2502051436207884"><ele>306.0</ele><time>2026-04-12T09:40:50Z</time></trkpt><trkpt lat="52.42809930475785" lon="-3.2502997044115585"><ele>306.0</ele><time>2026-04-12T09:40:52Z</time></trkpt><trkpt lat="52.427989707372866" lon="-3.2504122614098216"><ele>306.7142857142857</ele><time>2026-04-12T09:40:54Z</time></trkpt><trkpt lat="52.42793783488391" lon="-3.2505044837657833"><ele>307.42857142857144</ele><time>2026-04-12T09:40:55Z</time></trkpt><trkpt lat="52.42789958527897" lon="-3.2506108326540195"><ele>308.1428571428571</ele><time>2026-04-12T09:40:56Z</time></trkpt><trkpt lat="52.42785564060349" lon="-3.2507129780560486"><ele>308.8571428571429</ele><time>2026-04-12T09:40:57Z</time></trkpt><trkpt lat="52.42785037129183" lon="-3.250847218530629"><ele>309.5714285714286</ele><time>2026-04-12T09:40:58Z</time></trkpt><trkpt lat="52.42782412444092" lon="-3.2509438628494487"><ele>310.2857142857143</ele><time>2026-04-12T09:40:59Z</time></trkpt><trkpt lat="52.42781027457633" lon="-3.2510530820755075"><ele>311.0</ele><time>2026-04-12T09:41:00Z</time></trkpt><trkpt lat="52.42780057918087" lon="-3.251171572666193"><ele>311.0</ele><time>2026-04-12T09:41:01Z</time></trkpt><trkpt lat="52.42779472810128" lon="-3.2512834576629586"><ele>311.0</ele><time>2026-04-12T09:41:02Z</time></trkpt><trkpt lat="52.427796475423264" lon="-3.2514840684032724"><ele>311.0</ele><time>2026-04-12T09:41:04Z</time></trkpt><trkpt lat="52.427796475426796" lon="-3.251595760418713"><ele>311.0</ele><time>2026-04-12T09:41:05Z</time></trkpt><trkpt lat="52.427794796170105" lon="-3.2517084753090018"><ele>311.0</ele><time>2026-04-12T09:41:06Z</time></trkpt><trkpt lat="52.42779428398869" lon="-3.2518549931985397"><ele>311.0</ele><time>2026-04-12T09:41:08Z</time></trkpt><trkpt lat="52.42776660352908" lon="-3.251993471861291"><ele>311.8</ele><time>2026-04-12T09:41:10Z</time></trkpt><trkpt lat="52.42775209316428" lon="-3.252125053713918"><ele>312.6</ele><time>2026-04-12T09:41:12Z</time></trkpt><trkpt lat="52.42788730102463" lon="-3.25227595112075"><ele>313.4</ele><time>2026-04-12T09:41:14Z</time></trkpt><trkpt lat="52.42792905792872" lon="-3.2523925017389166"><ele>314.2</ele><time>2026-04-12T09:41:17Z</time></trkpt><trkpt lat="52.42797114173377" lon="-3.2525002953612803"><ele>315.0</ele><time>2026-04-12T09:41:33Z</time></trkpt><trkpt lat="52.42803149388517" lon="-3.25262088972428"><ele>315.2</ele><time>2026-04-12T09:41:35Z</time></trkpt><trkpt lat="52.42808144830018" lon="-3.2527536475483982"><ele>315.4</ele><time>2026-04-12T09:41:37Z</time></trkpt><trkpt lat="52.42814672456872" lon="-3.252896689494117"><ele>315.6</ele><time>2026-04-12T09:41:39Z</time></trkpt><trkpt lat="52.42822871009483" lon="-3.253005603043205"><ele>315.8</ele><time>2026-04-12T09:41:41Z</time></trkpt><trkpt lat="52.42829510771062" lon="-3.2531035091250575"><ele>316.0</ele><time>2026-04-12T09:41:43Z</time></trkpt><trkpt lat="52.42834836800598" lon="-3.2531957536119767"><ele>316.66666666666663</ele><time>2026-04-12T09:41:45Z</time></trkpt><trkpt lat="52.42838093216093" lon="-3.25328817047313"><ele>317.3333333333333</ele><time>2026-04-12T09:42:30Z</time></trkpt><trkpt lat="52.428451762911685" lon="-3.2532892031662577"><ele>318.0</ele><time>2026-04-12T09:42:34Z</time></trkpt><trkpt lat="52.428527098528704" lon="-3.253358296908187"><ele>318.6666666666667</ele><time>2026-04-12T09:42:37Z</time></trkpt><trkpt lat="52.428586517672244" lon="-3.2534256784194664"><ele>319.33333333333337</ele><time>2026-04-12T09:42:39Z</time></trkpt><trkpt lat="52.428645879237976" lon="-3.253505270230703"><ele>320.0</ele><time>2026-04-12T09:42:41Z</time></trkpt><trkpt lat="52.42870900113867" lon="-3.253604909803304"><ele>320.0</ele><time>2026-04-12T09:42:43Z</time></trkpt><trkpt lat="52.42876910309776" lon="-3.25371388472613"><ele>320.0</ele><time>2026-04-12T09:42:45Z</time></trkpt><trkpt lat="52.42882237839383" lon="-3.2538210221988457"><ele>320.0</ele><time>2026-04-12T09:42:47Z</time></trkpt><trkpt lat="52.42888351660211" lon="-3.2539264474951746"><ele>320.0</ele><time>2026-04-12T09:42:49Z</time></trkpt><trkpt lat="52.4289380695001" lon="-3.254029413560319"><ele>320.0</ele><time>2026-04-12T09:42:51Z</time></trkpt><trkpt lat="52.428987356954174" lon="-3.2541055565083106"><ele>320.0</ele><time>2026-04-12T09:42:53Z</time></trkpt><trkpt lat="52.42903945172224" lon="-3.2541642871735017"><ele>319.6666666666667</ele><time>2026-04-12T09:43:30Z</time></trkpt><trkpt lat="52.429099151172906" lon="-3.254223590578417"><ele>319.33333333333337</ele><time>2026-04-12T09:43:33Z</time></trkpt><trkpt lat="52.429157630572" lon="-3.254300129215683"><ele>319.0</ele><time>2026-04-12T09:44:10Z</time></trkpt><trkpt lat="52.429230293961275" lon="-3.2543993692089392"><ele>318.6666666666667</ele><time>2026-04-12T09:44:12Z</time></trkpt><trkpt lat="52.429300753147096" lon="-3.2545120079065226"><ele>318.3333333333333</ele><time>2026-04-12T09:44:14Z</time></trkpt><trkpt lat="52.42937375150959" lon="-3.2546408181626125"><ele>318.0</ele><time>2026-04-12T09:44:16Z</time></trkpt><trkpt lat="52.42937408405493" lon="-3.2547545879154134"><ele>317.4</ele><time>2026-04-12T09:44:17Z</time></trkpt><trkpt lat="52.429448109192876" lon="-3.254858229634893"><ele>316.8</ele><time>2026-04-12T09:44:19Z</time></trkpt><trkpt lat="52.429520469166135" lon="-3.2549595397265794"><ele>316.2</ele><time>2026-04-12T09:44:21Z</time></trkpt><trkpt lat="52.42955098361462" lon="-3.2551185928325874"><ele>315.6</ele><time>2026-04-12T09:44:23Z</time></trkpt><trkpt lat="52.4295955751232" lon="-3.2552132849286397"><ele>315.0</ele><time>2026-04-12T09:44:24Z</time></trkpt><trkpt lat="52.429687097511895" lon="-3.2553585627996315"><ele>315.0</ele><time>2026-04-12T09:44:26Z</time></trkpt><trkpt lat="52.42974087513487" lon="-3.255415477503533"><ele>315.0</ele><time>2026-04-12T09:44:27Z</time></trkpt><trkpt lat="52.42979749775918" lon="-3.255468187970873"><ele>315.0</ele><time>2026-04-12T09:44:28Z</time></trkpt><trkpt lat="52.4298924910326" lon="-3.2555556016488363"><ele>315.0</ele><time>2026-04-12T09:44:30Z</time></trkpt><trkpt lat="52.4299769001674" lon="-3.2556290667418586"><ele>315.0</ele><time>2026-04-12T09:44:32Z</time></trkpt><trkpt lat="52.43008607191356" lon="-3.255720391505995"><ele>316.0</ele><time>2026-04-12T09:44:34Z</time></trkpt><trkpt lat="52.430148370173086" lon="-3.2557659896889235"><ele>317.0</ele><time>2026-04-12T09:44:35Z</time></trkpt><trkpt lat="52.430262504805235" lon="-3.2558373489542007"><ele>318.0</ele><time>2026-04-12T09:44:37Z</time></trkpt><trkpt lat="52.43032699375406" lon="-3.255859764462029"><ele>319.0</ele><time>2026-04-12T09:44:38Z</time></trkpt><trkpt lat="52.430439619459584" lon="-3.255881377591713"><ele>320.0</ele><time>2026-04-12T09:44:40Z</time></trkpt><trkpt lat="52.43054265272153" lon="-3.25591046824662"><ele>320.0</ele><time>2026-04-12T09:44:42Z</time></trkpt><trkpt lat="52.430647287057425" lon="-3.2559086275661753"><ele>320.0</ele><time>2026-04-12T09:44:44Z</time></trkpt><trkpt lat="52.430732988109284" lon="-3.2559550737122076"><ele>320.0</ele><time>2026-04-12T09:44:46Z</time></trkpt><trkpt lat="52.430839486230525" lon="-3.2559582231357203"><ele>320.0</ele><time>2026-04-12T09:44:48Z</time></trkpt><trkpt lat="52.43093831887788" lon="-3.255998712760249"><ele>320.0</ele><time>2026-04-12T09:44:50Z</time></trkpt><trkpt lat="52.43102087792069" lon="-3.2559864197411574"><ele>320.0</ele><time>2026-04-12T09:44:52Z</time></trkpt><trkpt lat="52.431118200207685" lon="-3.2560310281379388"><ele>320.0</ele><time>2026-04-12T09:44:54Z</time></trkpt><trkpt lat="52.43121186007593" lon="-3.25604738730467"><ele>320.0</ele><time>2026-04-12T09:44:56Z</time></trkpt><trkpt lat="52.43130233734402" lon="-3.2560384144524543"><ele>320.0</ele><time>2026-04-12T09:44:59Z</time></trkpt><trkpt lat="52.43136271706229" lon="-3.2560717024104937"><ele>320.0</ele><time>2026-04-12T09:45:03Z</time></trkpt><trkpt lat="52.431437715432764" lon="-3.256058624419787"><ele>320.0</ele><time>2026-04-12T09:45:17Z</time></trkpt><trkpt lat="52.43144955398889" lon="-3.256210441719252"><ele>320.33333333333337</ele><time>2026-04-12T09:45:19Z</time></trkpt><trkpt lat="52.431472871893426" lon="-3.2563179840436667"><ele>320.6666666666667</ele><time>2026-04-12T09:45:20Z</time></trkpt><trkpt lat="52.43149578151006" lon="-3.2564309490945518"><ele>321.0</ele><time>2026-04-12T09:45:21Z</time></trkpt><trkpt lat="52.43153392683049" lon="-3.256559990671816"><ele>321.3333333333333</ele><time>2026-04-12T09:45:22Z</time></trkpt><trkpt lat="52.43154865703666" lon="-3.2567001762270937"><ele>321.66666666666663</ele><time>2026-04-12T09:45:23Z</time></trkpt><trkpt lat="52.43157547313466" lon="-3.2568520370853915"><ele>322.0</ele><time>2026-04-12T09:45:24Z</time></trkpt><trkpt lat="52.431599709346195" lon="-3.2570158468913712"><ele>322.0</ele><time>2026-04-12T09:45:25Z</time></trkpt><trkpt lat="52.43161910443206" lon="-3.2571853909526896"><ele>322.0</ele><time>2026-04-12T09:45:26Z</time></trkpt><trkpt lat="52.43164246635656" lon="-3.257362464651328"><ele>322.0</ele><time>2026-04-12T09:45:27Z</time></trkpt><trkpt lat="52.43165828860103" lon="-3.2575443445247863"><ele>322.0</ele><time>2026-04-12T09:45:28Z</time></trkpt><trkpt lat="52.431674056007296" lon="-3.257702527863545"><ele>322.0</ele><time>2026-04-12T09:45:29Z</time></trkpt><trkpt lat="52.4316942328855" lon="-3.2579149996086096"><ele>324.5</ele><time>2026-04-12T09:45:30Z</time></trkpt><trkpt lat="52.4317137665309" lon="-3.25815081390594"><ele>327.0</ele><time>2026-04-12T09:45:31Z</time></trkpt><trkpt lat="52.43173437734899" lon="-3.2583919347288917"><ele>329.5</ele><time>2026-04-12T09:45:32Z</time></trkpt><trkpt lat="52.43175537016423" lon="-3.258618002178507"><ele>332.0</ele><time>2026-04-12T09:45:33Z</time></trkpt><trkpt lat="52.4317765940847" lon="-3.258822574994017"><ele>333.20000000000005</ele><time>2026-04-12T09:45:34Z</time></trkpt><trkpt lat="52.431814161600194" lon="-3.2590110030254356"><ele>334.4</ele><time>2026-04-12T09:45:35Z</time></trkpt><trkpt lat="52.4318539957342" lon="-3.259201080480691"><ele>335.6</ele><time>2026-04-12T09:45:36Z</time></trkpt><trkpt lat="52.43189020797585" lon="-3.2593612417878726"><ele>336.79999999999995</ele><time>2026-04-12T09:45:37Z</time></trkpt><trkpt lat="52.43191805426164" lon="-3.2594801622251546"><ele>338.0</ele><time>2026-04-12T09:45:38Z</time></trkpt><trkpt lat="52.43194634369109" lon="-3.2596403267932708"><ele>338.0</ele><time>2026-04-12T09:45:40Z</time></trkpt><trkpt lat="52.43190727160227" lon="-3.2597265101400383"><ele>338.0</ele><time>2026-04-12T09:47:17Z</time></trkpt><trkpt lat="52.431931821111036" lon="-3.259824402928267"><ele>338.0</ele><time>2026-04-12T09:47:19Z</time></trkpt><trkpt lat="52.43179325213385" lon="-3.260025387363543"><ele>338.0</ele><time>2026-04-12T09:47:22Z</time></trkpt><trkpt lat="52.43175741763798" lon="-3.26016107619771"><ele>338.0</ele><time>2026-04-12T09:47:24Z</time></trkpt><trkpt lat="52.43170479392107" lon="-3.2603263415676964"><ele>339.2</ele><time>2026-04-12T09:47:26Z</time></trkpt><trkpt lat="52.43165344412935" lon="-3.260479914698777"><ele>340.4</ele><time>2026-04-12T09:47:28Z</time></trkpt><trkpt lat="52.43161369011035" lon="-3.2606229707449605"><ele>341.59999999999997</ele><time>2026-04-12T09:47:30Z</time></trkpt><trkpt lat="52.43160959836226" lon="-3.2607729427172574"><ele>342.79999999999995</ele><time>2026-04-12T09:47:32Z</time></trkpt><trkpt lat="52.43159307990846" lon="-3.2609266969613167"><ele>344.0</ele><time>2026-04-12T09:47:34Z</time></trkpt><trkpt lat="52.431604606286506" lon="-3.2610958592464914"><ele>344.6</ele><time>2026-04-12T09:47:36Z</time></trkpt><trkpt lat="52.43161172664652" lon="-3.2612803352595288"><ele>345.2</ele><time>2026-04-12T09:47:38Z</time></trkpt><trkpt lat="52.431612246015234" lon="-3.2614430207956104"><ele>345.8</ele><time>2026-04-12T09:47:40Z</time></trkpt><trkpt lat="52.43161718811024" lon="-3.2615905800599805"><ele>346.40000000000003</ele><time>2026-04-12T09:47:42Z</time></trkpt><trkpt lat="52.43159758752388" lon="-3.261765703698024"><ele>347.0</ele><time>2026-04-12T09:47:44Z</time></trkpt><trkpt lat="52.43158035485453" lon="-3.261944159951983"><ele>349.0</ele><time>2026-04-12T09:47:46Z</time></trkpt><trkpt lat="52.43157108113796" lon="-3.2621086633796197"><ele>351.0</ele><time>2026-04-12T09:47:48Z</time></trkpt><trkpt lat="52.4315468089711" lon="-3.262267367742858"><ele>353.0</ele><time>2026-04-12T09:47:50Z</time></trkpt><trkpt lat="52.43151632108773" lon="-3.262445392919413"><ele>355.0</ele><time>2026-04-12T09:47:52Z</time></trkpt><trkpt lat="52.43148972364402" lon="-3.2625976263607934"><ele>357.0</ele><time>2026-04-12T09:47:54Z</time></trkpt><trkpt lat="52.43147884792667" lon="-3.2627941496718877"><ele>358.25</ele><time>2026-04-12T09:47:56Z</time></trkpt><trkpt lat="52.431459577893406" lon="-3.262981775105512"><ele>359.5</ele><time>2026-04-12T09:47:58Z</time></trkpt><trkpt lat="52.431415293335306" lon="-3.2631630216342953"><ele>360.75</ele><time>2026-04-12T09:48:00Z</time></trkpt><trkpt lat="52.431425132044424" lon="-3.2633404621706976"><ele>362.0</ele><time>2026-04-12T09:48:02Z</time></trkpt><trkpt lat="52.43142278627894" lon="-3.2635178547504484"><ele>363.40000000000003</ele><time>2026-04-12T09:48:04Z</time></trkpt><trkpt lat="52.43140888751563" lon="-3.2636851455588287"><ele>364.8</ele><time>2026-04-12T09:48:06Z</time></trkpt><trkpt lat="52.43139859890728" lon="-3.263840780325549"><ele>366.2</ele><time>2026-04-12T09:48:08Z</time></trkpt><trkpt lat="52.43136750006547" lon="-3.264013496587852"><ele>367.6</ele><time>2026-04-12T09:48:10Z</time></trkpt><trkpt lat="52.43133177555071" lon="-3.264178594773986"><ele>369.0</ele><time>2026-04-12T09:48:12Z</time></trkpt><trkpt lat="52.431302337690155" lon="-3.264362959154213"><ele>379.25</ele><time>2026-04-12T09:48:14Z</time></trkpt><trkpt lat="52.43126675919716" lon="-3.2645410926604206"><ele>389.5</ele><time>2026-04-12T09:48:16Z</time></trkpt><trkpt lat="52.43122995443796" lon="-3.2647100964528493"><ele>399.75</ele><time>2026-04-12T09:48:18Z</time></trkpt><trkpt lat="52.431191873004195" lon="-3.2648661743574343"><ele>410.0</ele><time>2026-04-12T09:48:20Z</time></trkpt><trkpt lat="52.43114567650428" lon="-3.2650563415010914"><ele>410.8</ele><time>2026-04-12T09:48:22Z</time></trkpt><trkpt lat="52.431123785469964" lon="-3.2651577882801597"><ele>411.6</ele><time>2026-04-12T09:48:23Z</time></trkpt><trkpt lat="52.43107866359791" lon="-3.265343599734197"><ele>412.4</ele><time>2026-04-12T09:48:25Z</time></trkpt><trkpt lat="52.43103955117619" lon="-3.265511457234402"><ele>413.2</ele><time>2026-04-12T09:48:27Z</time></trkpt><trkpt lat="52.43100026788409" lon="-3.2656680178391744"><ele>414.0</ele><time>2026-04-12T09:48:29Z</time></trkpt><trkpt lat="52.43095460896911" lon="-3.265841397723248"><ele>414.79999999999995</ele><time>2026-04-12T09:48:31Z</time></trkpt><trkpt lat="52.4309074339624" lon="-3.2659937841509"><ele>415.59999999999997</ele><time>2026-04-12T09:48:33Z</time></trkpt><trkpt lat="52.43089135646626" lon="-3.266142412243892"><ele>416.4</ele><time>2026-04-12T09:48:35Z</time></trkpt><trkpt lat="52.430847812566654" lon="-3.2662703361835637"><ele>417.2</ele><time>2026-04-12T09:48:37Z</time></trkpt><trkpt lat="52.43082731367541" lon="-3.2664007097012053"><ele>418.0</ele><time>2026-04-12T09:48:39Z</time></trkpt><trkpt lat="52.430793958517754" lon="-3.2665409300394765"><ele>418.59999999999997</ele><time>2026-04-12T09:48:41Z</time></trkpt><trkpt lat="52.43075809806251" lon="-3.266698600036889"><ele>419.2</ele><time>2026-04-12T09:48:43Z</time></trkpt><trkpt lat="52.43072849833819" lon="-3.266846749607894"><ele>419.8</ele><time>2026-04-12T09:48:45Z</time></trkpt><trkpt lat="52.43069319088322" lon="-3.266986162687667"><ele>420.4</ele><time>2026-04-12T09:48:47Z</time></trkpt><trkpt lat="52.43064682651042" lon="-3.267161487462913"><ele>421.0</ele><time>2026-04-12T09:48:49Z</time></trkpt><trkpt lat="52.43060412928913" lon="-3.2673411079712342"><ele>421.6</ele><time>2026-04-12T09:48:51Z</time></trkpt><trkpt lat="52.43055419674529" lon="-3.2674931115577466"><ele>422.20000000000005</ele><time>2026-04-12T09:48:53Z</time></trkpt><trkpt lat="52.43051290365442" lon="-3.26759365023599"><ele>422.79999999999995</ele><time>2026-04-12T09:48:55Z</time></trkpt><trkpt lat="52.430464348517695" lon="-3.2677148793662734"><ele>423.4</ele><time>2026-04-12T09:48:58Z</time></trkpt><trkpt lat="52.43040043274133" lon="-3.267874917984276"><ele>424.0</ele><time>2026-04-12T09:49:00Z</time></trkpt><trkpt lat="52.430346308265754" lon="-3.267994122461375"><ele>427.0</ele><time>2026-04-12T09:49:02Z</time></trkpt><trkpt lat="52.430292033219764" lon="-3.2681127538358976"><ele>430.0</ele><time>2026-04-12T09:49:04Z</time></trkpt><trkpt lat="52.43023510113878" lon="-3.268235746813852"><ele>433.0</ele><time>2026-04-12T09:49:06Z</time></trkpt><trkpt lat="52.43017707816174" lon="-3.2683593314433517"><ele>436.0</ele><time>2026-04-12T09:49:08Z</time></trkpt><trkpt lat="52.43011713504882" lon="-3.268499380095677"><ele>439.0</ele><time>2026-04-12T09:49:10Z</time></trkpt><trkpt lat="52.430053306457914" lon="-3.268620045150161"><ele>439.00000000000006</ele><time>2026-04-12T09:49:12Z</time></trkpt><trkpt lat="52.42999381284864" lon="-3.2687451629704443"><ele>439.0</ele><time>2026-04-12T09:49:14Z</time></trkpt><trkpt lat="52.42995442569314" lon="-3.268839672609678"><ele>439.0</ele><time>2026-04-12T09:49:16Z</time></trkpt><trkpt lat="52.42991707784969" lon="-3.2689260147167496"><ele>439.0</ele><time>2026-04-12T09:50:05Z</time></trkpt><trkpt lat="52.429881044398726" lon="-3.2690128169176504"><ele>439.00000000000006</ele><time>2026-04-12T09:50:08Z</time></trkpt><trkpt lat="52.429824976886515" lon="-3.269127489763213"><ele>439.0</ele><time>2026-04-12T09:51:04Z</time></trkpt><trkpt lat="52.42977332292501" lon="-3.2692387265770173"><ele>439.00000000000006</ele><time>2026-04-12T09:51:06Z</time></trkpt><trkpt lat="52.429726393778246" lon="-3.2693526201526026"><ele>439.0</ele><time>2026-04-12T09:51:08Z</time></trkpt><trkpt lat="52.42967988890901" lon="-3.2694655406549566"><ele>439.0</ele><time>2026-04-12T09:51:10Z</time></trkpt><trkpt lat="52.42963745496305" lon="-3.2695786814869963"><ele>439.0</ele><time>2026-04-12T09:51:12Z</time></trkpt><trkpt lat="52.42959816849881" lon="-3.2696876011939"><ele>439.00000000000006</ele><time>2026-04-12T09:51:14Z</time></trkpt><trkpt lat="52.42954535281999" lon="-3.2698083191607603"><ele>439.0</ele><time>2026-04-12T09:51:17Z</time></trkpt><trkpt lat="52.429507609159195" lon="-3.269891909626115"><ele>439.6666666666667</ele><time>2026-04-12T09:51:20Z</time></trkpt><trkpt lat="52.42946240854622" lon="-3.270001167901695"><ele>440.33333333333337</ele><time>2026-04-12T09:51:24Z</time></trkpt><trkpt lat="52.42941403937814" lon="-3.270095947476649"><ele>441.0</ele><time>2026-04-12T09:51:27Z</time></trkpt><trkpt lat="52.42937446397298" lon="-3.270181260313011"><ele>441.66666666666663</ele><time>2026-04-12T09:51:34Z</time></trkpt><trkpt lat="52.429325055559524" lon="-3.270289268541875"><ele>442.3333333333333</ele><time>2026-04-12T09:51:38Z</time></trkpt><trkpt lat="52.429285254944716" lon="-3.2703958348579873"><ele>443.0</ele><time>2026-04-12T09:51:41Z</time></trkpt><trkpt lat="52.42923506548734" lon="-3.2705199018615114"><ele>442.99999999999994</ele><time>2026-04-12T09:51:44Z</time></trkpt><trkpt lat="52.42918771136403" lon="-3.2706186861444846"><ele>443.0</ele><time>2026-04-12T09:51:46Z</time></trkpt><trkpt lat="52.42913865745815" lon="-3.2707258033959827"><ele>443.0</ele><time>2026-04-12T09:51:48Z</time></trkpt><trkpt lat="52.42908821888448" lon="-3.2708435685707546"><ele>443.0</ele><time>2026-04-12T09:51:50Z</time></trkpt><trkpt lat="52.429034468407465" lon="-3.270964029696009"><ele>442.99999999999994</ele><time>2026-04-12T09:51:52Z</time></trkpt><trkpt lat="52.42897996290593" lon="-3.271087260430711"><ele>443.0</ele><time>2026-04-12T09:51:54Z</time></trkpt><trkpt lat="52.428925206292035" lon="-3.271217652813182"><ele>442.99999999999994</ele><time>2026-04-12T09:51:56Z</time></trkpt><trkpt lat="52.42887458647417" lon="-3.271355169356088"><ele>443.0</ele><time>2026-04-12T09:51:58Z</time></trkpt><trkpt lat="52.42882999873183" lon="-3.2714624914244523"><ele>443.0</ele><time>2026-04-12T09:52:00Z</time></trkpt><trkpt lat="52.42878707185005" lon="-3.271578108079986"><ele>443.0</ele><time>2026-04-12T09:52:02Z</time></trkpt><trkpt lat="52.42873905316862" lon="-3.2716884284029537"><ele>442.99999999999994</ele><time>2026-04-12T09:52:04Z</time></trkpt><trkpt lat="52.42868936618275" lon="-3.2718065493336193"><ele>443.0</ele><time>2026-04-12T09:52:06Z</time></trkpt><trkpt lat="52.4286399104176" lon="-3.27192949452556"><ele>443.3333333333333</ele><time>2026-04-12T09:52:08Z</time></trkpt><trkpt lat="52.42859242904188" lon="-3.272048317949088"><ele>443.66666666666663</ele><time>2026-04-12T09:52:10Z</time></trkpt><trkpt lat="52.428550392315366" lon="-3.2721499291823015"><ele>444.0</ele><time>2026-04-12T09:52:12Z</time></trkpt><trkpt lat="52.42850716886847" lon="-3.2722759578064893"><ele>444.33333333333337</ele><time>2026-04-12T09:52:15Z</time></trkpt><trkpt lat="52.42847279566451" lon="-3.2723642186199577"><ele>444.6666666666667</ele><time>2026-04-12T09:52:56Z</time></trkpt><trkpt lat="52.42844736174591" lon="-3.2724753222241936"><ele>445.0</ele><time>2026-04-12T09:53:06Z</time></trkpt><trkpt lat="52.428403115119565" lon="-3.2725858252887714"><ele>445.6</ele><time>2026-04-12T09:54:08Z</time></trkpt><trkpt lat="52.42835438726578" lon="-3.2727278545156526"><ele>446.2</ele><time>2026-04-12T09:54:10Z</time></trkpt><trkpt lat="52.428303091199254" lon="-3.2728807197605105"><ele>446.79999999999995</ele><time>2026-04-12T09:54:12Z</time></trkpt><trkpt lat="52.42824890577227" lon="-3.273028566477528"><ele>447.4</ele><time>2026-04-12T09:54:14Z</time></trkpt><trkpt lat="52.42819585352061" lon="-3.273167372956396"><ele>448.0</ele><time>2026-04-12T09:54:16Z</time></trkpt><trkpt lat="52.428143161936724" lon="-3.273305619120049"><ele>448.4</ele><time>2026-04-12T09:54:18Z</time></trkpt><trkpt lat="52.42809035449557" lon="-3.2734520575060406"><ele>448.79999999999995</ele><time>2026-04-12T09:54:20Z</time></trkpt><trkpt lat="52.428044507573304" lon="-3.273580088297054"><ele>449.2</ele><time>2026-04-12T09:54:22Z</time></trkpt><trkpt lat="52.42799921530157" lon="-3.273725541766621"><ele>449.6</ele><time>2026-04-12T09:54:24Z</time></trkpt><trkpt lat="52.4279552717042" lon="-3.2738510143378825"><ele>450.0</ele><time>2026-04-12T09:54:26Z</time></trkpt><trkpt lat="52.427912052373436" lon="-3.2739701552278198"><ele>449.2</ele><time>2026-04-12T09:54:28Z</time></trkpt><trkpt lat="52.42787596213695" lon="-3.2740810321134184"><ele>448.4</ele><time>2026-04-12T09:54:30Z</time></trkpt><trkpt lat="52.427829610346656" lon="-3.2742117036981093"><ele>447.6</ele><time>2026-04-12T09:54:32Z</time></trkpt><trkpt lat="52.427782862503186" lon="-3.2743465135341663"><ele>446.8</ele><time>2026-04-12T09:54:34Z</time></trkpt><trkpt lat="52.42773300180619" lon="-3.274480462766265"><ele>446.0</ele><time>2026-04-12T09:54:36Z</time></trkpt><trkpt lat="52.42768103727487" lon="-3.2746193252229348"><ele>446.0</ele><time>2026-04-12T09:54:38Z</time></trkpt><trkpt lat="52.427634229954236" lon="-3.2747538245102823"><ele>446.0</ele><time>2026-04-12T09:54:40Z</time></trkpt><trkpt lat="52.427586229186346" lon="-3.2748925541094582"><ele>446.0</ele><time>2026-04-12T09:54:42Z</time></trkpt><trkpt lat="52.42753781988096" lon="-3.2750278870052454"><ele>446.0</ele><time>2026-04-12T09:54:44Z</time></trkpt><trkpt lat="52.42748720810479" lon="-3.275165765526833"><ele>446.0</ele><time>2026-04-12T09:54:46Z</time></trkpt><trkpt lat="52.427436289410586" lon="-3.275298960989509"><ele>446.3333333333333</ele><time>2026-04-12T09:54:48Z</time></trkpt><trkpt lat="52.42739819849257" lon="-3.2754199630323666"><ele>446.66666666666663</ele><time>2026-04-12T09:54:50Z</time></trkpt><trkpt lat="52.427350590396166" lon="-3.275541588637707"><ele>447.0</ele><time>2026-04-12T09:54:52Z</time></trkpt><trkpt lat="52.427316779168756" lon="-3.275636392365373"><ele>447.33333333333337</ele><time>2026-04-12T09:54:54Z</time></trkpt><trkpt lat="52.42727595822407" lon="-3.275748944506147"><ele>447.6666666666667</ele><time>2026-04-12T09:54:56Z</time></trkpt><trkpt lat="52.4272374335025" lon="-3.2758502123387236"><ele>448.0</ele><time>2026-04-12T09:54:59Z</time></trkpt><trkpt lat="52.42718666284793" lon="-3.275935055225299"><ele>447.33333333333337</ele><time>2026-04-12T09:56:21Z</time></trkpt><trkpt lat="52.427134964287866" lon="-3.2760432812226306"><ele>446.6666666666667</ele><time>2026-04-12T09:56:34Z</time></trkpt><trkpt lat="52.42710081990756" lon="-3.276135239400624"><ele>446.0</ele><time>2026-04-12T09:56:36Z</time></trkpt><trkpt lat="52.427059727565826" lon="-3.2762419678219086"><ele>445.33333333333337</ele><time>2026-04-12T09:56:38Z</time></trkpt><trkpt lat="52.427018205700804" lon="-3.276362797669417"><ele>444.6666666666667</ele><time>2026-04-12T09:56:40Z</time></trkpt><trkpt lat="52.4269798589252" lon="-3.2764726349097817"><ele>444.0</ele><time>2026-04-12T09:56:42Z</time></trkpt><trkpt lat="52.42693093672767" lon="-3.276590241486404"><ele>444.0</ele><time>2026-04-12T09:56:44Z</time></trkpt><trkpt lat="52.42689352085039" lon="-3.2767121117321163"><ele>444.0</ele><time>2026-04-12T09:56:46Z</time></trkpt><trkpt lat="52.42685590387143" lon="-3.2768513701751623"><ele>444.0</ele><time>2026-04-12T09:56:48Z</time></trkpt><trkpt lat="52.42680637955778" lon="-3.2769744146417112"><ele>444.0</ele><time>2026-04-12T09:56:50Z</time></trkpt><trkpt lat="52.42675625166353" lon="-3.277112299109529"><ele>444.0</ele><time>2026-04-12T09:56:52Z</time></trkpt><trkpt lat="52.42671475735978" lon="-3.2772464098058833"><ele>444.5</ele><time>2026-04-12T09:56:54Z</time></trkpt><trkpt lat="52.426680738404045" lon="-3.277343165807661"><ele>445.0</ele><time>2026-04-12T09:56:56Z</time></trkpt><trkpt lat="52.426632377862866" lon="-3.277481362559449"><ele>445.5</ele><time>2026-04-12T09:56:59Z</time></trkpt><trkpt lat="52.42659158454696" lon="-3.2775835344800686"><ele>446.0</ele><time>2026-04-12T09:57:02Z</time></trkpt><trkpt lat="52.42657869341308" lon="-3.277706603175116"><ele>446.5</ele><time>2026-04-12T09:57:10Z</time></trkpt><trkpt lat="52.426539281365606" lon="-3.277881172655195"><ele>447.0</ele><time>2026-04-12T09:57:12Z</time></trkpt><trkpt lat="52.42652033381119" lon="-3.277982948242202"><ele>447.0</ele><time>2026-04-12T09:57:13Z</time></trkpt><trkpt lat="52.426496228171125" lon="-3.2780955075633256"><ele>447.0</ele><time>2026-04-12T09:57:14Z</time></trkpt><trkpt lat="52.42647135004002" lon="-3.2782174415553405"><ele>447.0</ele><time>2026-04-12T09:57:15Z</time></trkpt><trkpt lat="52.426447539165494" lon="-3.2783289676998373"><ele>447.0</ele><time>2026-04-12T09:57:16Z</time></trkpt><trkpt lat="52.42642142140714" lon="-3.278460924703896"><ele>447.0</ele><time>2026-04-12T09:57:17Z</time></trkpt><trkpt lat="52.42638641427376" lon="-3.2785787459561115"><ele>447.0</ele><time>2026-04-12T09:57:18Z</time></trkpt><trkpt lat="52.42637093774892" lon="-3.2787105471504256"><ele>447.2857142857142</ele><time>2026-04-12T09:57:19Z</time></trkpt><trkpt lat="52.426349290634704" lon="-3.2788421446021054"><ele>447.57142857142856</ele><time>2026-04-12T09:57:20Z</time></trkpt><trkpt lat="52.4263114573344" lon="-3.27895731010884"><ele>447.85714285714283</ele><time>2026-04-12T09:57:21Z</time></trkpt><trkpt lat="52.426297751468795" lon="-3.279078603296533"><ele>448.1428571428571</ele><time>2026-04-12T09:57:22Z</time></trkpt><trkpt lat="52.4262695510777" lon="-3.2791792441957703"><ele>448.4285714285714</ele><time>2026-04-12T09:57:23Z</time></trkpt><trkpt lat="52.426245583315136" lon="-3.279276711271461"><ele>448.71428571428567</ele><time>2026-04-12T09:57:24Z</time></trkpt><trkpt lat="52.42622530528583" lon="-3.2793985678616653"><ele>449.0</ele><time>2026-04-12T09:57:25Z</time></trkpt><trkpt lat="52.42618801403997" lon="-3.279506185256298"><ele>447.49999999999994</ele><time>2026-04-12T09:57:26Z</time></trkpt><trkpt lat="52.4261654446997" lon="-3.2796102537210623"><ele>446.0</ele><time>2026-04-12T09:57:27Z</time></trkpt><trkpt lat="52.42615612688706" lon="-3.279729022355206"><ele>444.5</ele><time>2026-04-12T09:57:28Z</time></trkpt><trkpt lat="52.42612980277314" lon="-3.2799355295844275"><ele>443.0</ele><time>2026-04-12T09:57:30Z</time></trkpt><trkpt lat="52.42611961842793" lon="-3.280066296667074"><ele>441.49999999999994</ele><time>2026-04-12T09:57:31Z</time></trkpt><trkpt lat="52.42610909489805" lon="-3.280180088228113"><ele>440.0</ele><time>2026-04-12T09:57:32Z</time></trkpt><trkpt lat="52.426102766482245" lon="-3.280289103863761"><ele>439.99999999999994</ele><time>2026-04-12T09:57:33Z</time></trkpt><trkpt lat="52.42608154825676" lon="-3.2804197944336533"><ele>440.0</ele><time>2026-04-12T09:57:34Z</time></trkpt><trkpt lat="52.42608818006678" lon="-3.2805494734945166"><ele>440.0</ele><time>2026-04-12T09:57:35Z</time></trkpt><trkpt lat="52.42608334381176" lon="-3.280674924051012"><ele>440.0</ele><time>2026-04-12T09:57:36Z</time></trkpt><trkpt lat="52.42606216886018" lon="-3.280798377466094"><ele>439.99999999999994</ele><time>2026-04-12T09:57:37Z</time></trkpt><trkpt lat="52.42605717453464" lon="-3.2809205703394038"><ele>440.0</ele><time>2026-04-12T09:57:38Z</time></trkpt><trkpt lat="52.42605261479683" lon="-3.281032130400157"><ele>439.66666666666663</ele><time>2026-04-12T09:57:39Z</time></trkpt><trkpt lat="52.426045114791386" lon="-3.2811529757162776"><ele>439.3333333333333</ele><time>2026-04-12T09:57:40Z</time></trkpt><trkpt lat="52.42603724875116" lon="-3.281281561406523"><ele>439.0</ele><time>2026-04-12T09:57:41Z</time></trkpt><trkpt lat="52.42604762990426" lon="-3.2813837781305346"><ele>438.66666666666663</ele><time>2026-04-12T09:57:42Z</time></trkpt><trkpt lat="52.42602253657825" lon="-3.2815220607119695"><ele>438.3333333333333</ele><time>2026-04-12T09:57:44Z</time></trkpt><trkpt lat="52.426031809825226" lon="-3.2816593881609712"><ele>438.0</ele><time>2026-04-12T09:58:32Z</time></trkpt><trkpt lat="52.426012920522574" lon="-3.2817811953702254"><ele>437.79999999999995</ele><time>2026-04-12T09:58:35Z</time></trkpt><trkpt lat="52.42601277575683" lon="-3.2819488446407457"><ele>437.59999999999997</ele><time>2026-04-12T09:58:38Z</time></trkpt><trkpt lat="52.426011820521815" lon="-3.2821046220029286"><ele>437.40000000000003</ele><time>2026-04-12T09:58:40Z</time></trkpt><trkpt lat="52.42601049602834" lon="-3.2822849939196366"><ele>437.20000000000005</ele><time>2026-04-12T09:58:42Z</time></trkpt><trkpt lat="52.42600854822378" lon="-3.282477541969175"><ele>437.0</ele><time>2026-04-12T09:58:44Z</time></trkpt><trkpt lat="52.42600508926421" lon="-3.282678267220513"><ele>436.7142857142857</ele><time>2026-04-12T09:58:46Z</time></trkpt><trkpt lat="52.42600325399666" lon="-3.2827847689856475"><ele>436.42857142857144</ele><time>2026-04-12T09:58:47Z</time></trkpt><trkpt lat="52.42600142554649" lon="-3.2828908749844063"><ele>436.14285714285717</ele><time>2026-04-12T09:58:48Z</time></trkpt><trkpt lat="52.42599978598098" lon="-3.2830104345761404"><ele>435.8571428571429</ele><time>2026-04-12T09:58:49Z</time></trkpt><trkpt lat="52.42600055666162" lon="-3.283132748627022"><ele>435.57142857142856</ele><time>2026-04-12T09:58:50Z</time></trkpt><trkpt lat="52.426001323288084" lon="-3.283254418997935"><ele>435.28571428571433</ele><time>2026-04-12T09:58:51Z</time></trkpt><trkpt lat="52.42600216627204" lon="-3.283381189336836"><ele>435.0</ele><time>2026-04-12T09:58:52Z</time></trkpt><trkpt lat="52.426003679495146" lon="-3.2835056407076513"><ele>434.5714285714286</ele><time>2026-04-12T09:58:53Z</time></trkpt><trkpt lat="52.426006724614794" lon="-3.283632014168683"><ele>434.14285714285717</ele><time>2026-04-12T09:58:54Z</time></trkpt><trkpt lat="52.426005802318706" lon="-3.2837512061815657"><ele>433.7142857142857</ele><time>2026-04-12T09:58:55Z</time></trkpt><trkpt lat="52.426002019640215" lon="-3.283872096030977"><ele>433.28571428571433</ele><time>2026-04-12T09:58:56Z</time></trkpt><trkpt lat="52.42599771731813" lon="-3.28399393228693"><ele>432.85714285714283</ele><time>2026-04-12T09:58:57Z</time></trkpt><trkpt lat="52.42599279640393" lon="-3.284112418116861"><ele>432.42857142857144</ele><time>2026-04-12T09:58:58Z</time></trkpt><trkpt lat="52.42598781131207" lon="-3.2842324497130098"><ele>432.0</ele><time>2026-04-12T09:58:59Z</time></trkpt><trkpt lat="52.425982915268044" lon="-3.2843503366797044"><ele>432.0</ele><time>2026-04-12T09:59:00Z</time></trkpt><trkpt lat="52.42599363969201" lon="-3.2844693946795136"><ele>432.0</ele><time>2026-04-12T09:59:01Z</time></trkpt><trkpt lat="52.42599111395572" lon="-3.284579827001294"><ele>432.0</ele><time>2026-04-12T09:59:02Z</time></trkpt><trkpt lat="52.4259835185562" lon="-3.2846869666893213"><ele>432.0</ele><time>2026-04-12T09:59:03Z</time></trkpt><trkpt lat="52.4259798153977" lon="-3.284798907079612"><ele>432.0</ele><time>2026-04-12T09:59:04Z</time></trkpt><trkpt lat="52.42596328508375" lon="-3.284901621598467"><ele>432.0</ele><time>2026-04-12T09:59:05Z</time></trkpt><trkpt lat="52.42596820639011" lon="-3.2850075766710822"><ele>432.0</ele><time>2026-04-12T09:59:06Z</time></trkpt><trkpt lat="52.42596263117435" lon="-3.2851192550006436"><ele>432.1428571428571</ele><time>2026-04-12T09:59:07Z</time></trkpt><trkpt lat="52.425950031956404" lon="-3.2852454218351452"><ele>432.2857142857143</ele><time>2026-04-12T09:59:08Z</time></trkpt><trkpt lat="52.42593438106041" lon="-3.285365726800192"><ele>432.42857142857144</ele><time>2026-04-12T09:59:09Z</time></trkpt><trkpt lat="52.42591944822339" lon="-3.285481546292794"><ele>432.57142857142856</ele><time>2026-04-12T09:59:10Z</time></trkpt><trkpt lat="52.42590578130875" lon="-3.285602902438421"><ele>432.7142857142857</ele><time>2026-04-12T09:59:11Z</time></trkpt><trkpt lat="52.42589391046495" lon="-3.285717598109142"><ele>432.85714285714283</ele><time>2026-04-12T09:59:12Z</time></trkpt><trkpt lat="52.42588127831171" lon="-3.2858414041704056"><ele>433.0</ele><time>2026-04-12T09:59:13Z</time></trkpt><trkpt lat="52.42586862063047" lon="-3.285968949329094"><ele>433.1666666666667</ele><time>2026-04-12T09:59:14Z</time></trkpt><trkpt lat="52.42584720209839" lon="-3.2861018183373782"><ele>433.33333333333337</ele><time>2026-04-12T09:59:15Z</time></trkpt><trkpt lat="52.425830763035414" lon="-3.2862440282137153"><ele>433.5</ele><time>2026-04-12T09:59:16Z</time></trkpt><trkpt lat="52.42580593306323" lon="-3.286380304343612"><ele>433.66666666666663</ele><time>2026-04-12T09:59:17Z</time></trkpt><trkpt lat="52.425787051902454" lon="-3.2865142993722363"><ele>433.8333333333333</ele><time>2026-04-12T09:59:18Z</time></trkpt><trkpt lat="52.42575507503808" lon="-3.28664621903365"><ele>434.0</ele><time>2026-04-12T09:59:19Z</time></trkpt><trkpt lat="52.42573496286634" lon="-3.286776257147652"><ele>434.49999999999994</ele><time>2026-04-12T09:59:20Z</time></trkpt><trkpt lat="52.425708466220755" lon="-3.2869061118615215"><ele>435.0</ele><time>2026-04-12T09:59:21Z</time></trkpt><trkpt lat="52.42567306177455" lon="-3.287034223861973"><ele>435.5</ele><time>2026-04-12T09:59:22Z</time></trkpt><trkpt lat="52.42563077205962" lon="-3.287160044466735"><ele>436.0</ele><time>2026-04-12T09:59:23Z</time></trkpt><trkpt lat="52.42557887345225" lon="-3.2872722965970103"><ele>436.49999999999994</ele><time>2026-04-12T09:59:24Z</time></trkpt><trkpt lat="52.425536125984934" lon="-3.287370142333279"><ele>437.0</ele><time>2026-04-12T09:59:25Z</time></trkpt><trkpt lat="52.42549120720451" lon="-3.2874616551993183"><ele>435.8333333333333</ele><time>2026-04-12T09:59:26Z</time></trkpt><trkpt lat="52.42541830461872" lon="-3.287529002783779"><ele>434.66666666666663</ele><time>2026-04-12T09:59:27Z</time></trkpt><trkpt lat="52.425366608348064" lon="-3.2876365165252612"><ele>433.5</ele><time>2026-04-12T09:59:28Z</time></trkpt><trkpt lat="52.425301997587304" lon="-3.287711152081096"><ele>432.33333333333337</ele><time>2026-04-12T09:59:29Z</time></trkpt><trkpt lat="52.42524649184845" lon="-3.2877963364281175"><ele>431.1666666666667</ele><time>2026-04-12T09:59:30Z</time></trkpt><trkpt lat="52.42518715136318" lon="-3.287882071715915"><ele>430.0</ele><time>2026-04-12T09:59:31Z</time></trkpt><trkpt lat="52.42512845886622" lon="-3.2879701383394275"><ele>430.0</ele><time>2026-04-12T09:59:32Z</time></trkpt><trkpt lat="52.425070535549295" lon="-3.288065099138676"><ele>430.0</ele><time>2026-04-12T09:59:33Z</time></trkpt><trkpt lat="52.42500232073549" lon="-3.2881638317087045"><ele>430.0</ele><time>2026-04-12T09:59:34Z</time></trkpt><trkpt lat="52.4249505320995" lon="-3.2883079925183547"><ele>430.0</ele><time>2026-04-12T09:59:35Z</time></trkpt><trkpt lat="52.42488969132542" lon="-3.2884574769500956"><ele>430.0</ele><time>2026-04-12T09:59:36Z</time></trkpt><trkpt lat="52.42482625536327" lon="-3.2886060249992166"><ele>430.0</ele><time>2026-04-12T09:59:37Z</time></trkpt><trkpt lat="52.4247619352336" lon="-3.288760846106036"><ele>430.0</ele><time>2026-04-12T09:59:38Z</time></trkpt><trkpt lat="52.4246948984953" lon="-3.288929551989968"><ele>430.0</ele><time>2026-04-12T09:59:39Z</time></trkpt><trkpt lat="52.424622173559115" lon="-3.289098505860804"><ele>430.0</ele><time>2026-04-12T09:59:40Z</time></trkpt><trkpt lat="52.42454937547984" lon="-3.289276518080052"><ele>426.75</ele><time>2026-04-12T09:59:41Z</time></trkpt><trkpt lat="52.42447874785533" lon="-3.2894419192551294"><ele>423.5</ele><time>2026-04-12T09:59:42Z</time></trkpt><trkpt lat="52.42440586715192" lon="-3.2896084228899087"><ele>420.25</ele><time>2026-04-12T09:59:43Z</time></trkpt><trkpt lat="52.424335082226" lon="-3.289776524188574"><ele>417.0</ele><time>2026-04-12T09:59:44Z</time></trkpt><trkpt lat="52.424264761317616" lon="-3.2899467751750437"><ele>416.5</ele><time>2026-04-12T09:59:45Z</time></trkpt><trkpt lat="52.424194048041315" lon="-3.290115107067696"><ele>416.0</ele><time>2026-04-12T09:59:46Z</time></trkpt><trkpt lat="52.42411150841957" lon="-3.2902617577127073"><ele>415.5</ele><time>2026-04-12T09:59:47Z</time></trkpt><trkpt lat="52.42404569365128" lon="-3.2904203939229495"><ele>415.0</ele><time>2026-04-12T09:59:48Z</time></trkpt><trkpt lat="52.423997961367434" lon="-3.2905891235564533"><ele>415.5</ele><time>2026-04-12T09:59:49Z</time></trkpt><trkpt lat="52.42394260245834" lon="-3.2907514157531557"><ele>416.0</ele><time>2026-04-12T09:59:50Z</time></trkpt><trkpt lat="52.423896403284" lon="-3.2909233990967373"><ele>416.5</ele><time>2026-04-12T09:59:51Z</time></trkpt><trkpt lat="52.42384936756135" lon="-3.291099200145672"><ele>417.0</ele><time>2026-04-12T09:59:52Z</time></trkpt><trkpt lat="52.423810491312146" lon="-3.2912791589591426"><ele>412.75</ele><time>2026-04-12T09:59:53Z</time></trkpt><trkpt lat="52.42375919422583" lon="-3.2914519736169106"><ele>408.5</ele><time>2026-04-12T09:59:54Z</time></trkpt><trkpt lat="52.4237387922596" lon="-3.291638211798522"><ele>404.25</ele><time>2026-04-12T09:59:55Z</time></trkpt><trkpt lat="52.42370585907752" lon="-3.2918163291453633"><ele>400.0</ele><time>2026-04-12T09:59:56Z</time></trkpt><trkpt lat="52.4236755774142" lon="-3.2919880612500427"><ele>400.0</ele><time>2026-04-12T09:59:57Z</time></trkpt><trkpt lat="52.42364714145307" lon="-3.2921606012825397"><ele>400.0</ele><time>2026-04-12T09:59:58Z</time></trkpt><trkpt lat="52.423620167493176" lon="-3.292324575434674"><ele>400.0</ele><time>2026-04-12T09:59:59Z</time></trkpt><trkpt lat="52.42359674136273" lon="-3.2924704345890032"><ele>400.0</ele><time>2026-04-12T10:00:00Z</time></trkpt><trkpt lat="52.42356173177788" lon="-3.292585098930893"><ele>400.0</ele><time>2026-04-12T10:00:01Z</time></trkpt><trkpt lat="52.423545272301126" lon="-3.29269337213151"><ele>399.0</ele><time>2026-04-12T10:00:02Z</time></trkpt><trkpt lat="52.423525378322424" lon="-3.292864994135784"><ele>398.0</ele><time>2026-04-12T10:00:04Z</time></trkpt><trkpt lat="52.42351436222934" lon="-3.2930177237168023"><ele>397.0</ele><time>2026-04-12T10:00:06Z</time></trkpt><trkpt lat="52.42351237562058" lon="-3.2931797481187157"><ele>396.0</ele><time>2026-04-12T10:00:08Z</time></trkpt><trkpt lat="52.42352793297532" lon="-3.2933349509410834"><ele>395.0</ele><time>2026-04-12T10:00:10Z</time></trkpt><trkpt lat="52.423553331407916" lon="-3.2934680118613264"><ele>393.8333333333333</ele><time>2026-04-12T10:00:12Z</time></trkpt><trkpt lat="52.42359289065433" lon="-3.2935908601312396"><ele>392.66666666666663</ele><time>2026-04-12T10:00:14Z</time></trkpt><trkpt lat="52.423609658042174" lon="-3.2937364814764374"><ele>391.5</ele><time>2026-04-12T10:00:16Z</time></trkpt><trkpt lat="52.42363796711682" lon="-3.293870294873749"><ele>390.33333333333337</ele><time>2026-04-12T10:00:18Z</time></trkpt><trkpt lat="52.42367820817285" lon="-3.293988922569742"><ele>389.1666666666667</ele><time>2026-04-12T10:00:20Z</time></trkpt><trkpt lat="52.42368672404258" lon="-3.2941092184307"><ele>388.0</ele><time>2026-04-12T10:00:22Z</time></trkpt><trkpt lat="52.42370943048415" lon="-3.2942234343895853"><ele>387.2</ele><time>2026-04-12T10:00:24Z</time></trkpt><trkpt lat="52.42373666542367" lon="-3.294360429056917"><ele>386.4</ele><time>2026-04-12T10:00:26Z</time></trkpt><trkpt lat="52.4237685413536" lon="-3.2945207685327755"><ele>385.59999999999997</ele><time>2026-04-12T10:00:28Z</time></trkpt><trkpt lat="52.42379819391035" lon="-3.2946734639606796"><ele>384.79999999999995</ele><time>2026-04-12T10:00:30Z</time></trkpt><trkpt lat="52.423831385251056" lon="-3.2948358163179994"><ele>384.0</ele><time>2026-04-12T10:00:32Z</time></trkpt><trkpt lat="52.423866628211655" lon="-3.2949251390153433"><ele>383.99999999999994</ele><time>2026-04-12T10:00:33Z</time></trkpt><trkpt lat="52.42388154978894" lon="-3.2950339814651"><ele>384.0</ele><time>2026-04-12T10:00:34Z</time></trkpt><trkpt lat="52.423897747573484" lon="-3.2951481768545428"><ele>384.0</ele><time>2026-04-12T10:00:35Z</time></trkpt><trkpt lat="52.423906166505304" lon="-3.2952593291796215"><ele>384.0</ele><time>2026-04-12T10:00:36Z</time></trkpt><trkpt lat="52.423909619204295" lon="-3.295372731710784"><ele>384.0</ele><time>2026-04-12T10:00:37Z</time></trkpt><trkpt lat="52.42389810295777" lon="-3.295484701898916"><ele>383.99999999999994</ele><time>2026-04-12T10:00:38Z</time></trkpt><trkpt lat="52.42387256408154" lon="-3.2955995017414406"><ele>384.0</ele><time>2026-04-12T10:00:39Z</time></trkpt><trkpt lat="52.423841283843366" lon="-3.295703208699985"><ele>381.75</ele><time>2026-04-12T10:00:40Z</time></trkpt><trkpt lat="52.42380746402116" lon="-3.2957943772084297"><ele>379.5</ele><time>2026-04-12T10:00:41Z</time></trkpt><trkpt lat="52.42375628680909" lon="-3.2959190711902258"><ele>377.25</ele><time>2026-04-12T10:00:43Z</time></trkpt><trkpt lat="52.42360307875207" lon="-3.295659793735124"><ele>375.0</ele><time>2026-04-12T10:01:04Z</time></trkpt><trkpt lat="52.42364422380435" lon="-3.295768206706315"><ele>375.0</ele><time>2026-04-12T10:01:57Z</time></trkpt><trkpt lat="52.42367000562944" lon="-3.2958873906118504"><ele>375.0</ele><time>2026-04-12T10:02:00Z</time></trkpt><trkpt lat="52.42371092983071" lon="-3.2959827889180704"><ele>375.0</ele><time>2026-04-12T10:02:04Z</time></trkpt><trkpt lat="52.42368493116864" lon="-3.296117689295802"><ele>375.0</ele><time>2026-04-12T10:02:07Z</time></trkpt><trkpt lat="52.42361787629876" lon="-3.2962252973645523"><ele>375.0</ele><time>2026-04-12T10:02:09Z</time></trkpt><trkpt lat="52.42358283789621" lon="-3.2963431536879084"><ele>375.0</ele><time>2026-04-12T10:02:11Z</time></trkpt><trkpt lat="52.42357442413339" lon="-3.2964748835350544"><ele>374.5</ele><time>2026-04-12T10:02:13Z</time></trkpt><trkpt lat="52.423557055478724" lon="-3.2965803266666014"><ele>374.0</ele><time>2026-04-12T10:02:15Z</time></trkpt><trkpt lat="52.42349765290987" lon="-3.2966340615619023"><ele>373.5</ele><time>2026-04-12T10:02:19Z</time></trkpt><trkpt lat="52.42341505895809" lon="-3.2965827250538755"><ele>373.0</ele><time>2026-04-12T10:02:21Z</time></trkpt><trkpt lat="52.4233401168045" lon="-3.296568034399937"><ele>372.5</ele><time>2026-04-12T10:02:23Z</time></trkpt><trkpt lat="52.42326443044372" lon="-3.2965335392739954"><ele>372.0</ele><time>2026-04-12T10:02:25Z</time></trkpt><trkpt lat="52.4231522296573" lon="-3.2964762832645977"><ele>372.0</ele><time>2026-04-12T10:02:27Z</time></trkpt><trkpt lat="52.42308356914386" lon="-3.296444172515228"><ele>372.0</ele><time>2026-04-12T10:02:28Z</time></trkpt><trkpt lat="52.42301928760145" lon="-3.2964120188457455"><ele>372.0</ele><time>2026-04-12T10:02:29Z</time></trkpt><trkpt lat="52.422954774645" lon="-3.296385206006845"><ele>372.0</ele><time>2026-04-12T10:02:30Z</time></trkpt><trkpt lat="52.42286263337518" lon="-3.2962970951942347"><ele>372.0</ele><time>2026-04-12T10:02:32Z</time></trkpt><trkpt lat="52.42279294013657" lon="-3.2962715120350707"><ele>372.0</ele><time>2026-04-12T10:02:34Z</time></trkpt><trkpt lat="52.422734161343236" lon="-3.2962103010198636"><ele>371.0</ele><time>2026-04-12T10:02:37Z</time></trkpt><trkpt lat="52.422670735483095" lon="-3.296146378943332"><ele>370.0</ele><time>2026-04-12T10:02:39Z</time></trkpt><trkpt lat="52.42259798601124" lon="-3.296082681213408"><ele>369.0</ele><time>2026-04-12T10:02:41Z</time></trkpt><trkpt lat="52.42254186269136" lon="-3.296004021197338"><ele>368.0</ele><time>2026-04-12T10:02:44Z</time></trkpt><trkpt lat="52.42247649507217" lon="-3.2959411101972136"><ele>367.0</ele><time>2026-04-12T10:02:47Z</time></trkpt><trkpt lat="52.4224010830965" lon="-3.2958638087758216"><ele>366.0</ele><time>2026-04-12T10:02:50Z</time></trkpt><trkpt lat="52.42232653161517" lon="-3.295778256171089"><ele>366.0</ele><time>2026-04-12T10:02:52Z</time></trkpt><trkpt lat="52.422209017630834" lon="-3.2957676157283964"><ele>366.0</ele><time>2026-04-12T10:02:54Z</time></trkpt><trkpt lat="52.422149353505695" lon="-3.2958140800433022"><ele>366.0</ele><time>2026-04-12T10:02:55Z</time></trkpt><trkpt lat="52.422093458815674" lon="-3.295890945912263"><ele>366.0</ele><time>2026-04-12T10:03:02Z</time></trkpt><trkpt lat="52.42207953769333" lon="-3.2960295962163757"><ele>366.0</ele><time>2026-04-12T10:03:04Z</time></trkpt><trkpt lat="52.42205856284531" lon="-3.2961407617679908"><ele>366.0</ele><time>2026-04-12T10:03:19Z</time></trkpt><trkpt lat="52.42208147818986" lon="-3.2960252875418514"><ele>366.0</ele><time>2026-04-12T10:03:43Z</time></trkpt><trkpt lat="52.42212531905599" lon="-3.2959331632736135"><ele>366.0</ele><time>2026-04-12T10:03:45Z</time></trkpt><trkpt lat="52.422145695829165" lon="-3.2958268158066315"><ele>366.0</ele><time>2026-04-12T10:03:47Z</time></trkpt><trkpt lat="52.422199255111636" lon="-3.2957654181584677"><ele>366.0</ele><time>2026-04-12T10:03:50Z</time></trkpt><trkpt lat="52.42212058462856" lon="-3.2957928068746614"><ele>366.0</ele><time>2026-04-12T10:03:56Z</time></trkpt><trkpt lat="52.422046492420016" lon="-3.295758605748041"><ele>366.0</ele><time>2026-04-12T10:03:57Z</time></trkpt><trkpt lat="52.421969942255494" lon="-3.295758605751033"><ele>366.0</ele><time>2026-04-12T10:03:59Z</time></trkpt><trkpt lat="52.4218716113284" lon="-3.295736797672096"><ele>366.3333333333333</ele><time>2026-04-12T10:04:02Z</time></trkpt><trkpt lat="52.42180666050963" lon="-3.295226015137405"><ele>366.66666666666663</ele><time>2026-04-12T10:04:04Z</time></trkpt><trkpt lat="52.42174196165536" lon="-3.295130656299637"><ele>367.0</ele><time>2026-04-12T10:04:06Z</time></trkpt><trkpt lat="52.42167439032634" lon="-3.295029633920116"><ele>367.0</ele><time>2026-04-12T10:04:08Z</time></trkpt><trkpt lat="52.42160304576605" lon="-3.294931081516526"><ele>367.0</ele><time>2026-04-12T10:04:10Z</time></trkpt><trkpt lat="52.4215253631576" lon="-3.294840197524525"><ele>367.0</ele><time>2026-04-12T10:04:12Z</time></trkpt><trkpt lat="52.42145476716421" lon="-3.2947397590106"><ele>367.0</ele><time>2026-04-12T10:04:14Z</time></trkpt><trkpt lat="52.42138532743556" lon="-3.2946343785611294"><ele>367.0</ele><time>2026-04-12T10:04:16Z</time></trkpt><trkpt lat="52.42131799552467" lon="-3.294537890326238"><ele>367.57142857142856</ele><time>2026-04-12T10:04:18Z</time></trkpt><trkpt lat="52.42125209764358" lon="-3.2944419847002018"><ele>368.14285714285717</ele><time>2026-04-12T10:04:20Z</time></trkpt><trkpt lat="52.42119771042075" lon="-3.2943627879518806"><ele>368.7142857142857</ele><time>2026-04-12T10:04:22Z</time></trkpt><trkpt lat="52.42115540720382" lon="-3.2942850802210017"><ele>369.2857142857143</ele><time>2026-04-12T10:04:31Z</time></trkpt><trkpt lat="52.421097569708046" lon="-3.294196085706981"><ele>369.8571428571429</ele><time>2026-04-12T10:05:22Z</time></trkpt><trkpt lat="52.42104674031315" lon="-3.294104418033592"><ele>370.42857142857144</ele><time>2026-04-12T10:05:43Z</time></trkpt><trkpt lat="52.421001401156474" lon="-3.294026151273031"><ele>371.0</ele><time>2026-04-12T10:05:45Z</time></trkpt><trkpt lat="52.42095563105393" lon="-3.2939419762317175"><ele>372.0</ele><time>2026-04-12T10:05:47Z</time></trkpt><trkpt lat="52.420908440145034" lon="-3.2938694742127717"><ele>373.0</ele><time>2026-04-12T10:05:49Z</time></trkpt><trkpt lat="52.42085967218701" lon="-3.2937955655074456"><ele>374.0</ele><time>2026-04-12T10:05:51Z</time></trkpt><trkpt lat="52.420808469408705" lon="-3.2937235197454764"><ele>375.0</ele><time>2026-04-12T10:05:53Z</time></trkpt><trkpt lat="52.420743905248436" lon="-3.2936779849147793"><ele>376.0</ele><time>2026-04-12T10:05:55Z</time></trkpt><trkpt lat="52.420652111082696" lon="-3.293679931355105"><ele>377.0</ele><time>2026-04-12T10:05:57Z</time></trkpt><trkpt lat="52.4205570090137" lon="-3.2937187159324295"><ele>379.0</ele><time>2026-04-12T10:05:59Z</time></trkpt><trkpt lat="52.42045021782532" lon="-3.293760565791961"><ele>381.0</ele><time>2026-04-12T10:06:01Z</time></trkpt><trkpt lat="52.4203461463994" lon="-3.2937810250381983"><ele>383.0</ele><time>2026-04-12T10:06:03Z</time></trkpt><trkpt lat="52.42026233333697" lon="-3.2937737477963394"><ele>385.0</ele><time>2026-04-12T10:06:05Z</time></trkpt><trkpt lat="52.420169428474026" lon="-3.293778373843513"><ele>387.0</ele><time>2026-04-12T10:06:07Z</time></trkpt><trkpt lat="52.42007835909241" lon="-3.2937721371313518"><ele>387.0</ele><time>2026-04-12T10:06:09Z</time></trkpt><trkpt lat="52.41997597780172" lon="-3.2937327012735604"><ele>387.0</ele><time>2026-04-12T10:06:11Z</time></trkpt><trkpt lat="52.4198947444743" lon="-3.2936471198531554"><ele>387.0</ele><time>2026-04-12T10:06:13Z</time></trkpt><trkpt lat="52.41983873395782" lon="-3.293538358481152"><ele>387.0</ele><time>2026-04-12T10:06:15Z</time></trkpt><trkpt lat="52.419789264438315" lon="-3.2933832063915363"><ele>387.0</ele><time>2026-04-12T10:06:17Z</time></trkpt><trkpt lat="52.419748850779094" lon="-3.2932644330928205"><ele>387.0</ele><time>2026-04-12T10:06:19Z</time></trkpt><trkpt lat="52.419704323066696" lon="-3.293103635353296"><ele>387.0</ele><time>2026-04-12T10:06:22Z</time></trkpt><trkpt lat="52.41966836109365" lon="-3.2929567128674657"><ele>387.0</ele><time>2026-04-12T10:06:24Z</time></trkpt><trkpt lat="52.419642963132254" lon="-3.292817080682084"><ele>387.0</ele><time>2026-04-12T10:06:26Z</time></trkpt><trkpt lat="52.41961251167853" lon="-3.292703884748042"><ele>387.0</ele><time>2026-04-12T10:06:28Z</time></trkpt><trkpt lat="52.41957924100614" lon="-3.2925992040628462"><ele>387.0</ele><time>2026-04-12T10:06:31Z</time></trkpt><trkpt lat="52.419545316972766" lon="-3.2924537293027716"><ele>388.6666666666667</ele><time>2026-04-12T10:06:34Z</time></trkpt><trkpt lat="52.41951487541639" lon="-3.292355303471128"><ele>390.33333333333337</ele><time>2026-04-12T10:06:40Z</time></trkpt><trkpt lat="52.419474657139034" lon="-3.292258672566951"><ele>392.0</ele><time>2026-04-12T10:06:43Z</time></trkpt><trkpt lat="52.41941148273447" lon="-3.2921348941956206"><ele>393.6666666666667</ele><time>2026-04-12T10:06:46Z</time></trkpt><trkpt lat="52.41937233982334" lon="-3.2920455062689573"><ele>395.33333333333337</ele><time>2026-04-12T10:06:48Z</time></trkpt><trkpt lat="52.41932823299445" lon="-3.291947310882413"><ele>397.0</ele><time>2026-04-12T10:06:51Z</time></trkpt><trkpt lat="52.41927232685642" lon="-3.2918330521378354"><ele>397.83333333333337</ele><time>2026-04-12T10:06:54Z</time></trkpt><trkpt lat="52.419216119278495" lon="-3.2917344316807724"><ele>398.6666666666667</ele><time>2026-04-12T10:06:57Z</time></trkpt><trkpt lat="52.41916155892355" lon="-3.291613349790338"><ele>399.5</ele><time>2026-04-12T10:07:01Z</time></trkpt><trkpt lat="52.419106502993095" lon="-3.2914771884418093"><ele>400.33333333333337</ele><time>2026-04-12T10:07:04Z</time></trkpt><trkpt lat="52.41906721450426" lon="-3.2913667352943654"><ele>401.1666666666667</ele><time>2026-04-12T10:07:06Z</time></trkpt><trkpt lat="52.41902555960683" lon="-3.2912415451833623"><ele>402.0</ele><time>2026-04-12T10:07:08Z</time></trkpt><trkpt lat="52.41899396307341" lon="-3.2911089287319384"><ele>402.8333333333333</ele><time>2026-04-12T10:07:10Z</time></trkpt><trkpt lat="52.41896331878205" lon="-3.2909830963602773"><ele>403.66666666666663</ele><time>2026-04-12T10:07:12Z</time></trkpt><trkpt lat="52.41891972406023" lon="-3.2908449983817243"><ele>404.5</ele><time>2026-04-12T10:07:14Z</time></trkpt><trkpt lat="52.41889090085465" lon="-3.290723350863714"><ele>405.3333333333333</ele><time>2026-04-12T10:07:16Z</time></trkpt><trkpt lat="52.418851816499384" lon="-3.2905960679202533"><ele>406.16666666666663</ele><time>2026-04-12T10:07:18Z</time></trkpt><trkpt lat="52.41880839512437" lon="-3.2904915918333026"><ele>407.0</ele><time>2026-04-12T10:07:20Z</time></trkpt><trkpt lat="52.41877283636146" lon="-3.290394610730133"><ele>408.8571428571429</ele><time>2026-04-12T10:07:22Z</time></trkpt><trkpt lat="52.418741697914804" lon="-3.290275842457831"><ele>410.7142857142857</ele><time>2026-04-12T10:07:25Z</time></trkpt><trkpt lat="52.41870551205885" lon="-3.2901549535608345"><ele>412.57142857142856</ele><time>2026-04-12T10:08:13Z</time></trkpt><trkpt lat="52.41867790564087" lon="-3.2900508182049335"><ele>414.42857142857144</ele><time>2026-04-12T10:08:15Z</time></trkpt><trkpt lat="52.41865757309107" lon="-3.2899479972038743"><ele>416.2857142857143</ele><time>2026-04-12T10:08:17Z</time></trkpt><trkpt lat="52.41862423867003" lon="-3.28984587337284"><ele>418.14285714285717</ele><time>2026-04-12T10:08:20Z</time></trkpt><trkpt lat="52.418592731022116" lon="-3.2897504076626873"><ele>420.0</ele><time>2026-04-12T10:08:23Z</time></trkpt><trkpt lat="52.41856798585158" lon="-3.2896498310529196"><ele>420.85714285714283</ele><time>2026-04-12T10:11:14Z</time></trkpt><trkpt lat="52.418534445335865" lon="-3.2895567270712003"><ele>421.7142857142857</ele><time>2026-04-12T10:11:22Z</time></trkpt><trkpt lat="52.4185060129521" lon="-3.2894523322684557"><ele>422.57142857142856</ele><time>2026-04-12T10:11:29Z</time></trkpt><trkpt lat="52.41847446246941" lon="-3.2893623108798633"><ele>423.42857142857144</ele><time>2026-04-12T10:11:38Z</time></trkpt><trkpt lat="52.41843971272303" lon="-3.289270537481943"><ele>424.2857142857143</ele><time>2026-04-12T10:12:04Z</time></trkpt><trkpt lat="52.41840302976429" lon="-3.28916419319163"><ele>425.1428571428571</ele><time>2026-04-12T10:12:10Z</time></trkpt><trkpt lat="52.418374303767244" lon="-3.2890688713146568"><ele>426.0</ele><time>2026-04-12T10:13:18Z</time></trkpt><trkpt lat="52.41834300534111" lon="-3.288973023089972"><ele>426.6666666666667</ele><time>2026-04-12T10:13:24Z</time></trkpt><trkpt lat="52.418304997962785" lon="-3.288854216580107"><ele>427.33333333333337</ele><time>2026-04-12T10:13:29Z</time></trkpt><trkpt lat="52.41826634278365" lon="-3.288735398330988"><ele>428.0</ele><time>2026-04-12T10:13:32Z</time></trkpt><trkpt lat="52.418220035561816" lon="-3.2886352932055227"><ele>428.6666666666667</ele><time>2026-04-12T10:13:35Z</time></trkpt><trkpt lat="52.41816283096726" lon="-3.2885528551367025"><ele>429.33333333333337</ele><time>2026-04-12T10:13:39Z</time></trkpt><trkpt lat="52.41810996545976" lon="-3.2884790025671364"><ele>430.0</ele><time>2026-04-12T10:13:42Z</time></trkpt><trkpt lat="52.418058975590846" lon="-3.2883959062203685"><ele>430.00000000000006</ele><time>2026-04-12T10:13:45Z</time></trkpt><trkpt lat="52.41800192789908" lon="-3.2883270994992553"><ele>430.0</ele><time>2026-04-12T10:14:29Z</time></trkpt><trkpt lat="52.41794059719934" lon="-3.2883661747584236"><ele>430.0</ele><time>2026-04-12T10:14:37Z</time></trkpt><trkpt lat="52.417884174957905" lon="-3.2884519747764895"><ele>430.0</ele><time>2026-04-12T10:14:40Z</time></trkpt><trkpt lat="52.41781540755489" lon="-3.2885173151703078"><ele>430.00000000000006</ele><time>2026-04-12T10:14:43Z</time></trkpt><trkpt lat="52.41777118323483" lon="-3.2884167697776565"><ele>430.0</ele><time>2026-04-12T10:14:45Z</time></trkpt><trkpt lat="52.41770399750842" lon="-3.2883292709790335"><ele>429.6</ele><time>2026-04-12T10:14:47Z</time></trkpt><trkpt lat="52.41761433047384" lon="-3.288213045771597"><ele>429.2</ele><time>2026-04-12T10:14:49Z</time></trkpt><trkpt lat="52.41752395567112" lon="-3.2881008327344725"><ele>428.79999999999995</ele><time>2026-04-12T10:14:51Z</time></trkpt><trkpt lat="52.41742883067339" lon="-3.2880412869441757"><ele>428.4</ele><time>2026-04-12T10:14:53Z</time></trkpt><trkpt lat="52.41734011197859" lon="-3.2879427269659023"><ele>428.0</ele><time>2026-04-12T10:14:55Z</time></trkpt><trkpt lat="52.4172493238096" lon="-3.287822458215414"><ele>429.0</ele><time>2026-04-12T10:14:57Z</time></trkpt><trkpt lat="52.41715406915397" lon="-3.287722748352359"><ele>429.99999999999994</ele><time>2026-04-12T10:14:59Z</time></trkpt><trkpt lat="52.41709862504254" lon="-3.287668315991651"><ele>430.99999999999994</ele><time>2026-04-12T10:15:00Z</time></trkpt><trkpt lat="52.41703418282821" lon="-3.2876205246395855"><ele>432.0</ele><time>2026-04-12T10:15:01Z</time></trkpt><trkpt lat="52.416915739997556" lon="-3.2875690431306994"><ele>433.0</ele><time>2026-04-12T10:15:03Z</time></trkpt><trkpt lat="52.416794685410515" lon="-3.287551216286885"><ele>433.4</ele><time>2026-04-12T10:15:05Z</time></trkpt><trkpt lat="52.416671012186605" lon="-3.2875422925980944"><ele>433.79999999999995</ele><time>2026-04-12T10:15:07Z</time></trkpt><trkpt lat="52.41653736637587" lon="-3.287528395438835"><ele>434.2</ele><time>2026-04-12T10:15:09Z</time></trkpt><trkpt lat="52.41646484551686" lon="-3.287524594311893"><ele>434.6</ele><time>2026-04-12T10:15:10Z</time></trkpt><trkpt lat="52.41638810182316" lon="-3.28752269918336"><ele>435.0</ele><time>2026-04-12T10:15:11Z</time></trkpt><trkpt lat="52.41631648615131" lon="-3.287529449370515"><ele>435.6666666666667</ele><time>2026-04-12T10:15:12Z</time></trkpt><trkpt lat="52.416240361170765" lon="-3.287530029575172"><ele>436.33333333333337</ele><time>2026-04-12T10:15:13Z</time></trkpt><trkpt lat="52.416164227470034" lon="-3.2875310407095277"><ele>437.0</ele><time>2026-04-12T10:15:14Z</time></trkpt><trkpt lat="52.4160930237211" lon="-3.2875334977902866"><ele>437.6666666666667</ele><time>2026-04-12T10:15:15Z</time></trkpt><trkpt lat="52.41601859532211" lon="-3.287541027322946"><ele>438.33333333333337</ele><time>2026-04-12T10:15:16Z</time></trkpt><trkpt lat="52.41594190469012" lon="-3.287549735579021"><ele>439.0</ele><time>2026-04-12T10:15:17Z</time></trkpt><trkpt lat="52.41586576247771" lon="-3.2875567515762714"><ele>439.00000000000006</ele><time>2026-04-12T10:15:18Z</time></trkpt><trkpt lat="52.41578190048183" lon="-3.287558272434059"><ele>439.0</ele><time>2026-04-12T10:15:19Z</time></trkpt><trkpt lat="52.41570448987712" lon="-3.287562654214278"><ele>439.0</ele><time>2026-04-12T10:15:20Z</time></trkpt><trkpt lat="52.41562151011872" lon="-3.2875671303424316"><ele>439.0</ele><time>2026-04-12T10:15:21Z</time></trkpt><trkpt lat="52.41554087581054" lon="-3.2875740779133595"><ele>439.00000000000006</ele><time>2026-04-12T10:15:22Z</time></trkpt><trkpt lat="52.41546498636195" lon="-3.2875805892004974"><ele>439.0</ele><time>2026-04-12T10:15:23Z</time></trkpt><trkpt lat="52.41539085386866" lon="-3.287584438116469"><ele>439.7142857142857</ele><time>2026-04-12T10:15:24Z</time></trkpt><trkpt lat="52.4153178867903" lon="-3.287588892454658"><ele>440.42857142857144</ele><time>2026-04-12T10:15:25Z</time></trkpt><trkpt lat="52.41524937935158" lon="-3.2875974854993104"><ele>441.1428571428571</ele><time>2026-04-12T10:15:26Z</time></trkpt><trkpt lat="52.4151751376186" lon="-3.287601789327969"><ele>441.8571428571429</ele><time>2026-04-12T10:15:27Z</time></trkpt><trkpt lat="52.41509879940823" lon="-3.2876030952471895"><ele>442.5714285714286</ele><time>2026-04-12T10:15:28Z</time></trkpt><trkpt lat="52.41502174793143" lon="-3.287601882570593"><ele>443.2857142857143</ele><time>2026-04-12T10:15:29Z</time></trkpt><trkpt lat="52.414950244378986" lon="-3.287603541693409"><ele>444.0</ele><time>2026-04-12T10:15:30Z</time></trkpt><trkpt lat="52.414872494507414" lon="-3.2875932927161484"><ele>444.0</ele><time>2026-04-12T10:15:31Z</time></trkpt><trkpt lat="52.41479277554496" lon="-3.287567218475423"><ele>444.0</ele><time>2026-04-12T10:15:32Z</time></trkpt><trkpt lat="52.41471332513683" lon="-3.2875296017845077"><ele>444.0</ele><time>2026-04-12T10:15:33Z</time></trkpt><trkpt lat="52.41463252243592" lon="-3.2874805782505914"><ele>444.0</ele><time>2026-04-12T10:15:34Z</time></trkpt><trkpt lat="52.41455186527907" lon="-3.287426498375873"><ele>444.0</ele><time>2026-04-12T10:15:35Z</time></trkpt><trkpt lat="52.41448226115893" lon="-3.287360268237094"><ele>444.0</ele><time>2026-04-12T10:15:36Z</time></trkpt><trkpt lat="52.414415842894044" lon="-3.2872927397185694"><ele>444.5</ele><time>2026-04-12T10:15:37Z</time></trkpt><trkpt lat="52.41435197161763" lon="-3.287216681178325"><ele>445.0</ele><time>2026-04-12T10:15:38Z</time></trkpt><trkpt lat="52.414306781298116" lon="-3.2871113366936617"><ele>445.5</ele><time>2026-04-12T10:15:39Z</time></trkpt><trkpt lat="52.41426581791905" lon="-3.2870102292689114"><ele>446.0</ele><time>2026-04-12T10:15:40Z</time></trkpt><trkpt lat="52.41422486154887" lon="-3.2869028227951556"><ele>446.5</ele><time>2026-04-12T10:15:41Z</time></trkpt><trkpt lat="52.41419688265209" lon="-3.2867861148183826"><ele>447.0</ele><time>2026-04-12T10:15:42Z</time></trkpt><trkpt lat="52.41417497941235" lon="-3.286657990168522"><ele>447.0</ele><time>2026-04-12T10:15:43Z</time></trkpt><trkpt lat="52.41415416172034" lon="-3.286527683491362"><ele>447.0</ele><time>2026-04-12T10:15:44Z</time></trkpt><trkpt lat="52.41413530072861" lon="-3.286401790046351"><ele>447.0</ele><time>2026-04-12T10:15:45Z</time></trkpt><trkpt lat="52.41411740708947" lon="-3.2862759317428574"><ele>447.0</ele><time>2026-04-12T10:15:46Z</time></trkpt><trkpt lat="52.41409189527115" lon="-3.286155419592178"><ele>447.0</ele><time>2026-04-12T10:15:47Z</time></trkpt><trkpt lat="52.41407341525202" lon="-3.286031791709715"><ele>447.0</ele><time>2026-04-12T10:15:48Z</time></trkpt><trkpt lat="52.414057795531896" lon="-3.285904517241587"><ele>446.99999999999994</ele><time>2026-04-12T10:15:49Z</time></trkpt><trkpt lat="52.41405903568343" lon="-3.2857797088519307"><ele>447.0</ele><time>2026-04-12T10:15:50Z</time></trkpt><trkpt lat="52.41404327737393" lon="-3.2856582658212568"><ele>447.0</ele><time>2026-04-12T10:15:51Z</time></trkpt><trkpt lat="52.41402754592259" lon="-3.285537824400307"><ele>447.0</ele><time>2026-04-12T10:15:52Z</time></trkpt><trkpt lat="52.41400251761875" lon="-3.285427966817876"><ele>447.0</ele><time>2026-04-12T10:15:53Z</time></trkpt><trkpt lat="52.41398673545177" lon="-3.285312751082907"><ele>446.99999999999994</ele><time>2026-04-12T10:15:54Z</time></trkpt><trkpt lat="52.41396602554592" lon="-3.285212884056078"><ele>447.0</ele><time>2026-04-12T10:15:55Z</time></trkpt><trkpt lat="52.41392359420494" lon="-3.285044977939391"><ele>447.0</ele><time>2026-04-12T10:15:57Z</time></trkpt><trkpt lat="52.413853484582546" lon="-3.2848991669823353"><ele>447.00000000000006</ele><time>2026-04-12T10:17:02Z</time></trkpt><trkpt lat="52.413777819828105" lon="-3.2847627111797424"><ele>447.00000000000006</ele><time>2026-04-12T10:17:04Z</time></trkpt><trkpt lat="52.41367977386019" lon="-3.2846506200555012"><ele>447.0</ele><time>2026-04-12T10:17:06Z</time></trkpt><trkpt lat="52.41361399525575" lon="-3.284602735645521"><ele>447.0</ele><time>2026-04-12T10:17:07Z</time></trkpt><trkpt lat="52.413541107153" lon="-3.284541007181528"><ele>445.6</ele><time>2026-04-12T10:17:08Z</time></trkpt><trkpt lat="52.41347816277954" lon="-3.284472742308245"><ele>444.20000000000005</ele><time>2026-04-12T10:17:09Z</time></trkpt><trkpt lat="52.413388079366676" lon="-3.284415114390242"><ele>442.8</ele><time>2026-04-12T10:17:10Z</time></trkpt><trkpt lat="52.413289012358376" lon="-3.2843873563388915"><ele>441.4</ele><time>2026-04-12T10:17:11Z</time></trkpt><trkpt lat="52.41318727270453" lon="-3.2843927728421685"><ele>440.0</ele><time>2026-04-12T10:17:12Z</time></trkpt><trkpt lat="52.41309302682375" lon="-3.2844047877594305"><ele>440.0</ele><time>2026-04-12T10:17:13Z</time></trkpt><trkpt lat="52.41300238704232" lon="-3.2844195424458404"><ele>440.0</ele><time>2026-04-12T10:17:14Z</time></trkpt><trkpt lat="52.41289959745553" lon="-3.2844788938014924"><ele>440.0</ele><time>2026-04-12T10:17:15Z</time></trkpt><trkpt lat="52.41279485532204" lon="-3.28457228183789"><ele>440.0</ele><time>2026-04-12T10:17:16Z</time></trkpt><trkpt lat="52.41269427090014" lon="-3.284639532481336"><ele>440.0</ele><time>2026-04-12T10:17:17Z</time></trkpt><trkpt lat="52.41259640370324" lon="-3.284700905159174"><ele>439.8</ele><time>2026-04-12T10:17:18Z</time></trkpt><trkpt lat="52.41249911593068" lon="-3.2847579595465057"><ele>439.6</ele><time>2026-04-12T10:17:19Z</time></trkpt><trkpt lat="52.41240928145378" lon="-3.2848173645500287"><ele>439.4</ele><time>2026-04-12T10:17:20Z</time></trkpt><trkpt lat="52.41230997115654" lon="-3.284881318586547"><ele>439.2</ele><time>2026-04-12T10:17:21Z</time></trkpt><trkpt lat="52.41220923831413" lon="-3.284954336894208"><ele>439.0</ele><time>2026-04-12T10:17:22Z</time></trkpt><trkpt lat="52.412110542414986" lon="-3.2850242364506026"><ele>438.0</ele><time>2026-04-12T10:17:23Z</time></trkpt><trkpt lat="52.41201397379351" lon="-3.285082914866831"><ele>437.0</ele><time>2026-04-12T10:17:24Z</time></trkpt><trkpt lat="52.41191899399459" lon="-3.2851434935869155"><ele>436.0</ele><time>2026-04-12T10:17:25Z</time></trkpt><trkpt lat="52.41181871010636" lon="-3.2852037697419263"><ele>435.0</ele><time>2026-04-12T10:17:26Z</time></trkpt><trkpt lat="52.411720853104086" lon="-3.2852625079966398"><ele>434.0</ele><time>2026-04-12T10:17:27Z</time></trkpt><trkpt lat="52.41161508084159" lon="-3.2852922312668227"><ele>434.0</ele><time>2026-04-12T10:17:28Z</time></trkpt><trkpt lat="52.41150227243429" lon="-3.2852987640132567"><ele>434.0</ele><time>2026-04-12T10:17:29Z</time></trkpt><trkpt lat="52.411403625323544" lon="-3.2852502094999148"><ele>434.0</ele><time>2026-04-12T10:17:30Z</time></trkpt><trkpt lat="52.41131167094348" lon="-3.2852406151897706"><ele>434.0</ele><time>2026-04-12T10:17:31Z</time></trkpt><trkpt lat="52.41123595322497" lon="-3.285191850904641"><ele>434.0</ele><time>2026-04-12T10:17:32Z</time></trkpt><trkpt lat="52.41117830232794" lon="-3.2851018740241256"><ele>433.8333333333333</ele><time>2026-04-12T10:17:33Z</time></trkpt><trkpt lat="52.411125057982986" lon="-3.28502936870689"><ele>433.66666666666663</ele><time>2026-04-12T10:17:34Z</time></trkpt><trkpt lat="52.4110726145197" lon="-3.284957421991685"><ele>433.5</ele><time>2026-04-12T10:17:35Z</time></trkpt><trkpt lat="52.4110281331835" lon="-3.284882182973344"><ele>433.33333333333337</ele><time>2026-04-12T10:17:36Z</time></trkpt><trkpt lat="52.410945677536866" lon="-3.284718981013404"><ele>433.1666666666667</ele><time>2026-04-12T10:17:38Z</time></trkpt><trkpt lat="52.41091001539343" lon="-3.284619055359418"><ele>433.0</ele><time>2026-04-12T10:17:39Z</time></trkpt><trkpt lat="52.410875594411216" lon="-3.284504384037498"><ele>432.6666666666667</ele><time>2026-04-12T10:17:40Z</time></trkpt><trkpt lat="52.410844884457646" lon="-3.284375151066968"><ele>432.33333333333337</ele><time>2026-04-12T10:17:41Z</time></trkpt><trkpt lat="52.41082661428879" lon="-3.284258477281102"><ele>432.0</ele><time>2026-04-12T10:17:42Z</time></trkpt><trkpt lat="52.41081514591654" lon="-3.2841380950746966"><ele>431.66666666666663</ele><time>2026-04-12T10:17:43Z</time></trkpt><trkpt lat="52.4108110390923" lon="-3.2840288875699244"><ele>431.3333333333333</ele><time>2026-04-12T10:17:44Z</time></trkpt><trkpt lat="52.410809508690335" lon="-3.2838989433439134"><ele>431.0</ele><time>2026-04-12T10:17:46Z</time></trkpt><trkpt lat="52.410640382934645" lon="-3.2839408311069604"><ele>431.0</ele><time>2026-04-12T10:18:01Z</time></trkpt><trkpt lat="52.41061095978951" lon="-3.2840657232174686"><ele>431.0</ele><time>2026-04-12T10:18:02Z</time></trkpt><trkpt lat="52.41056654228974" lon="-3.2841956141124933"><ele>431.0</ele><time>2026-04-12T10:18:03Z</time></trkpt><trkpt lat="52.410532422256786" lon="-3.2843681320992943"><ele>431.0</ele><time>2026-04-12T10:18:04Z</time></trkpt><trkpt lat="52.410490392523236" lon="-3.284518836123699"><ele>431.0</ele><time>2026-04-12T10:18:05Z</time></trkpt><trkpt lat="52.410463866719994" lon="-3.284655474662651"><ele>431.3333333333333</ele><time>2026-04-12T10:18:06Z</time></trkpt><trkpt lat="52.41046076143993" lon="-3.2847953327104307"><ele>431.66666666666663</ele><time>2026-04-12T10:18:07Z</time></trkpt><trkpt lat="52.41047632415912" lon="-3.28492505558195"><ele>432.0</ele><time>2026-04-12T10:18:08Z</time></trkpt><trkpt lat="52.41048891829972" lon="-3.2850458444870583"><ele>432.33333333333337</ele><time>2026-04-12T10:18:12Z</time></trkpt><trkpt lat="52.410500281461786" lon="-3.2851754158025805"><ele>432.6666666666667</ele><time>2026-04-12T10:18:15Z</time></trkpt><trkpt lat="52.41040157852875" lon="-3.2853034757728965"><ele>433.0</ele><time>2026-04-12T10:18:16Z</time></trkpt><trkpt lat="52.410376550916865" lon="-3.285399363176846"><ele>434.25</ele><time>2026-04-12T10:18:17Z</time></trkpt><trkpt lat="52.41032285603984" lon="-3.285569539851719"><ele>435.5</ele><time>2026-04-12T10:18:19Z</time></trkpt><trkpt lat="52.410252694817224" lon="-3.2857333722761344"><ele>436.75</ele><time>2026-04-12T10:18:21Z</time></trkpt><trkpt lat="52.41014287145736" lon="-3.285818292756696"><ele>438.0</ele><time>2026-04-12T10:18:23Z</time></trkpt><trkpt lat="52.41004159289545" lon="-3.285871044780922"><ele>438.0</ele><time>2026-04-12T10:18:25Z</time></trkpt><trkpt lat="52.40995428447539" lon="-3.2859213830120053"><ele>437.99999999999994</ele><time>2026-04-12T10:18:27Z</time></trkpt><trkpt lat="52.40988986283147" lon="-3.2860023312379947"><ele>437.99999999999994</ele><time>2026-04-12T10:18:43Z</time></trkpt><trkpt lat="52.409810049470565" lon="-3.286101824491195"><ele>438.0</ele><time>2026-04-12T10:18:45Z</time></trkpt><trkpt lat="52.409739077562605" lon="-3.286217063077274"><ele>438.0</ele><time>2026-04-12T10:18:47Z</time></trkpt><trkpt lat="52.40967040735394" lon="-3.2862974850120112"><ele>438.0</ele><time>2026-04-12T10:18:49Z</time></trkpt><trkpt lat="52.40960930430617" lon="-3.2863413106125305"><ele>437.99999999999994</ele><time>2026-04-12T10:18:51Z</time></trkpt><trkpt lat="52.409528735918656" lon="-3.2864339148960497"><ele>437.99999999999994</ele><time>2026-04-12T10:18:54Z</time></trkpt><trkpt lat="52.40946088121466" lon="-3.2865089557863514"><ele>438.0</ele><time>2026-04-12T10:18:56Z</time></trkpt><trkpt lat="52.4093809416865" lon="-3.286603250252866"><ele>438.0</ele><time>2026-04-12T10:18:58Z</time></trkpt><trkpt lat="52.40929027041716" lon="-3.28674093076348"><ele>438.0</ele><time>2026-04-12T10:19:00Z</time></trkpt><trkpt lat="52.40923971918627" lon="-3.286815382067258"><ele>438.0</ele><time>2026-04-12T10:19:01Z</time></trkpt><trkpt lat="52.40918356435257" lon="-3.286878869683213"><ele>438.0</ele><time>2026-04-12T10:19:02Z</time></trkpt><trkpt lat="52.409080207574995" lon="-3.2870122590219237"><ele>438.0</ele><time>2026-04-12T10:19:04Z</time></trkpt><trkpt lat="52.40902426711876" lon="-3.2870873986849305"><ele>438.0</ele><time>2026-04-12T10:19:05Z</time></trkpt><trkpt lat="52.408967293035424" lon="-3.2871609833864386"><ele>438.0</ele><time>2026-04-12T10:19:06Z</time></trkpt><trkpt lat="52.40891715881072" lon="-3.287227204553541"><ele>437.6666666666667</ele><time>2026-04-12T10:19:07Z</time></trkpt><trkpt lat="52.40881997235022" lon="-3.2873516172977872"><ele>437.33333333333337</ele><time>2026-04-12T10:19:09Z</time></trkpt><trkpt lat="52.40876584389988" lon="-3.2874336866200116"><ele>437.0</ele><time>2026-04-12T10:19:10Z</time></trkpt><trkpt lat="52.408716412920406" lon="-3.2875279849334356"><ele>436.6666666666667</ele><time>2026-04-12T10:19:11Z</time></trkpt><trkpt lat="52.408653912399444" lon="-3.2876067376660236"><ele>436.33333333333337</ele><time>2026-04-12T10:19:12Z</time></trkpt><trkpt lat="52.4086102369341" lon="-3.287711238363661"><ele>436.0</ele><time>2026-04-12T10:19:13Z</time></trkpt><trkpt lat="52.408574937308515" lon="-3.2878080084432875"><ele>436.00000000000006</ele><time>2026-04-12T10:19:14Z</time></trkpt><trkpt lat="52.40853657870461" lon="-3.287909442426144"><ele>436.0</ele><time>2026-04-12T10:19:15Z</time></trkpt><trkpt lat="52.408493667484244" lon="-3.2880030095006134"><ele>436.0</ele><time>2026-04-12T10:19:16Z</time></trkpt><trkpt lat="52.408442583374175" lon="-3.288103129492863"><ele>436.0</ele><time>2026-04-12T10:19:17Z</time></trkpt><trkpt lat="52.40839221006415" lon="-3.2881839597820934"><ele>436.00000000000006</ele><time>2026-04-12T10:19:18Z</time></trkpt><trkpt lat="52.40833061879251" lon="-3.288270075416736"><ele>436.0</ele><time>2026-04-12T10:19:21Z</time></trkpt><trkpt lat="52.40823143117769" lon="-3.288399255701308"><ele>435.33333333333337</ele><time>2026-04-12T10:19:57Z</time></trkpt><trkpt lat="52.408168814363506" lon="-3.2884622711226745"><ele>434.6666666666667</ele><time>2026-04-12T10:19:58Z</time></trkpt><trkpt lat="52.408107351205736" lon="-3.288524110680395"><ele>434.0</ele><time>2026-04-12T10:19:59Z</time></trkpt><trkpt lat="52.40804419478539" lon="-3.2885921209831923"><ele>433.33333333333337</ele><time>2026-04-12T10:20:00Z</time></trkpt><trkpt lat="52.40797912465079" lon="-3.2886699176435235"><ele>432.6666666666667</ele><time>2026-04-12T10:20:01Z</time></trkpt><trkpt lat="52.40791030508282" lon="-3.288746812447341"><ele>432.0</ele><time>2026-04-12T10:20:02Z</time></trkpt><trkpt lat="52.4078320379692" lon="-3.288796306419212"><ele>432.0</ele><time>2026-04-12T10:20:03Z</time></trkpt><trkpt lat="52.40776703547057" lon="-3.2888797395913376"><ele>432.0</ele><time>2026-04-12T10:20:04Z</time></trkpt><trkpt lat="52.4076935899497" lon="-3.288941340192758"><ele>432.0</ele><time>2026-04-12T10:20:05Z</time></trkpt><trkpt lat="52.407612130631726" lon="-3.2889773221172653"><ele>432.0</ele><time>2026-04-12T10:20:06Z</time></trkpt><trkpt lat="52.40752592309076" lon="-3.288992113949375"><ele>432.0</ele><time>2026-04-12T10:20:07Z</time></trkpt><trkpt lat="52.40744400880039" lon="-3.2890094177237175"><ele>432.0</ele><time>2026-04-12T10:20:08Z</time></trkpt><trkpt lat="52.40737167417284" lon="-3.2890514634216625"><ele>431.6666666666667</ele><time>2026-04-12T10:20:09Z</time></trkpt><trkpt lat="52.407247413641706" lon="-3.289092120468381"><ele>431.33333333333337</ele><time>2026-04-12T10:20:11Z</time></trkpt><trkpt lat="52.40717928176086" lon="-3.289114349181388"><ele>431.0</ele><time>2026-04-12T10:20:12Z</time></trkpt><trkpt lat="52.407107301193015" lon="-3.28914057276565"><ele>430.6666666666667</ele><time>2026-04-12T10:20:13Z</time></trkpt><trkpt lat="52.40703402813847" lon="-3.2891625509414837"><ele>430.33333333333337</ele><time>2026-04-12T10:20:14Z</time></trkpt><trkpt lat="52.40696289471569" lon="-3.2892092631803918"><ele>430.0</ele><time>2026-04-12T10:20:15Z</time></trkpt><trkpt lat="52.40687902357959" lon="-3.2892500504957862"><ele>430.6666666666667</ele><time>2026-04-12T10:20:16Z</time></trkpt><trkpt lat="52.40679331748283" lon="-3.2893005444392682"><ele>431.33333333333337</ele><time>2026-04-12T10:20:17Z</time></trkpt><trkpt lat="52.406707049883366" lon="-3.2893731559389376"><ele>432.0</ele><time>2026-04-12T10:20:18Z</time></trkpt><trkpt lat="52.40663320057266" lon="-3.289444069062331"><ele>432.66666666666663</ele><time>2026-04-12T10:20:19Z</time></trkpt><trkpt lat="52.406563059089365" lon="-3.289522170316211"><ele>433.3333333333333</ele><time>2026-04-12T10:20:20Z</time></trkpt><trkpt lat="52.40649820738028" lon="-3.2896091447270437"><ele>434.0</ele><time>2026-04-12T10:20:21Z</time></trkpt><trkpt lat="52.40642488368507" lon="-3.2896905121561555"><ele>434.0</ele><time>2026-04-12T10:20:22Z</time></trkpt><trkpt lat="52.40636198192462" lon="-3.2898093083074076"><ele>434.0</ele><time>2026-04-12T10:20:23Z</time></trkpt><trkpt lat="52.406309074724454" lon="-3.2899425150583523"><ele>434.0</ele><time>2026-04-12T10:20:24Z</time></trkpt><trkpt lat="52.40624615264693" lon="-3.2900627019539304"><ele>434.0</ele><time>2026-04-12T10:20:25Z</time></trkpt><trkpt lat="52.40619333931078" lon="-3.2901856925043322"><ele>434.0</ele><time>2026-04-12T10:20:26Z</time></trkpt><trkpt lat="52.40614706391545" lon="-3.290293457639336"><ele>433.99999999999994</ele><time>2026-04-12T10:20:27Z</time></trkpt><trkpt lat="52.4061068626318" lon="-3.290386643503025"><ele>434.0</ele><time>2026-04-12T10:20:28Z</time></trkpt><trkpt lat="52.40606933658862" lon="-3.2904735154150075"><ele>434.0</ele><time>2026-04-12T10:20:29Z</time></trkpt><trkpt lat="52.405999430203885" lon="-3.290635347046485"><ele>434.0</ele><time>2026-04-12T10:20:31Z</time></trkpt><trkpt lat="52.405960556259856" lon="-3.2907275935102276"><ele>433.99999999999994</ele><time>2026-04-12T10:20:33Z</time></trkpt><trkpt lat="52.40590069449447" lon="-3.290870859104111"><ele>434.0</ele><time>2026-04-12T10:20:36Z</time></trkpt><trkpt lat="52.40585608650535" lon="-3.290977618234271"><ele>433.99999999999994</ele><time>2026-04-12T10:20:37Z</time></trkpt><trkpt lat="52.40580732450916" lon="-3.2910970619270072"><ele>434.0</ele><time>2026-04-12T10:20:38Z</time></trkpt><trkpt lat="52.40576280448542" lon="-3.291206985571161"><ele>434.0</ele><time>2026-04-12T10:20:39Z</time></trkpt><trkpt lat="52.40571459312709" lon="-3.2913260234147557"><ele>434.0</ele><time>2026-04-12T10:20:40Z</time></trkpt><trkpt lat="52.405663907617466" lon="-3.2914516945113808"><ele>433.99999999999994</ele><time>2026-04-12T10:20:41Z</time></trkpt><trkpt lat="52.40561046205809" lon="-3.2915843779278733"><ele>434.0</ele><time>2026-04-12T10:20:42Z</time></trkpt><trkpt lat="52.40555705597001" lon="-3.2917169633720884"><ele>433.99999999999994</ele><time>2026-04-12T10:20:43Z</time></trkpt><trkpt lat="52.40551530551686" lon="-3.291861151964859"><ele>434.0</ele><time>2026-04-12T10:20:44Z</time></trkpt><trkpt lat="52.40546315883617" lon="-3.291993478548491"><ele>434.0</ele><time>2026-04-12T10:20:45Z</time></trkpt><trkpt lat="52.40542022769445" lon="-3.2921151432083544"><ele>434.0</ele><time>2026-04-12T10:20:46Z</time></trkpt><trkpt lat="52.40538515197539" lon="-3.2922074408417705"><ele>433.99999999999994</ele><time>2026-04-12T10:20:47Z</time></trkpt><trkpt lat="52.40533055546567" lon="-3.2923325105753585"><ele>434.0</ele><time>2026-04-12T10:20:49Z</time></trkpt><trkpt lat="52.40528379850125" lon="-3.2924080306892614"><ele>434.0</ele><time>2026-04-12T10:20:51Z</time></trkpt><trkpt lat="52.40521633419724" lon="-3.2924654261087003"><ele>434.0</ele><time>2026-04-12T10:21:45Z</time></trkpt><trkpt lat="52.405149307357775" lon="-3.2921428058536053"><ele>434.0</ele><time>2026-04-12T10:23:13Z</time></trkpt><trkpt lat="52.40512461249702" lon="-3.2920293521465873"><ele>434.0</ele><time>2026-04-12T10:23:14Z</time></trkpt><trkpt lat="52.40511192087419" lon="-3.2919056030206453"><ele>434.0</ele><time>2026-04-12T10:23:15Z</time></trkpt><trkpt lat="52.40509653641866" lon="-3.291772549950798"><ele>433.4</ele><time>2026-04-12T10:23:16Z</time></trkpt><trkpt lat="52.405086858310035" lon="-3.29163552518655"><ele>432.79999999999995</ele><time>2026-04-12T10:23:17Z</time></trkpt><trkpt lat="52.40506634150667" lon="-3.2914955529814907"><ele>432.20000000000005</ele><time>2026-04-12T10:23:18Z</time></trkpt><trkpt lat="52.40503356432244" lon="-3.2913426102018914"><ele>431.6</ele><time>2026-04-12T10:23:19Z</time></trkpt><trkpt lat="52.40500571975892" lon="-3.291179303796752"><ele>431.0</ele><time>2026-04-12T10:23:20Z</time></trkpt><trkpt lat="52.40499302259558" lon="-3.2910022518872455"><ele>430.75</ele><time>2026-04-12T10:23:21Z</time></trkpt><trkpt lat="52.40496684942872" lon="-3.2908261547543085"><ele>430.5</ele><time>2026-04-12T10:23:22Z</time></trkpt><trkpt lat="52.4049239663348" lon="-3.2906498625390475"><ele>430.25</ele><time>2026-04-12T10:23:23Z</time></trkpt><trkpt lat="52.40489907317872" lon="-3.2904645931422585"><ele>430.0</ele><time>2026-04-12T10:23:24Z</time></trkpt><trkpt lat="52.40486749633544" lon="-3.290283989203714"><ele>430.6</ele><time>2026-04-12T10:23:25Z</time></trkpt><trkpt lat="52.404828995002305" lon="-3.290112696864401"><ele>431.2</ele><time>2026-04-12T10:23:26Z</time></trkpt><trkpt lat="52.40478590723091" lon="-3.289949723092573"><ele>431.79999999999995</ele><time>2026-04-12T10:23:27Z</time></trkpt><trkpt lat="52.40473480493165" lon="-3.289795547542377"><ele>432.4</ele><time>2026-04-12T10:23:28Z</time></trkpt><trkpt lat="52.40468459518746" lon="-3.289643890090903"><ele>433.0</ele><time>2026-04-12T10:23:29Z</time></trkpt><trkpt lat="52.40462678974615" lon="-3.2895133475535188"><ele>434.2</ele><time>2026-04-12T10:23:30Z</time></trkpt><trkpt lat="52.40455263350362" lon="-3.289383120149007"><ele>435.4</ele><time>2026-04-12T10:23:31Z</time></trkpt><trkpt lat="52.40447728926697" lon="-3.289275386737287"><ele>436.59999999999997</ele><time>2026-04-12T10:23:32Z</time></trkpt><trkpt lat="52.40439512776506" lon="-3.2891969856713397"><ele>437.79999999999995</ele><time>2026-04-12T10:23:33Z</time></trkpt><trkpt lat="52.40431923288234" lon="-3.2891093192449135"><ele>439.0</ele><time>2026-04-12T10:23:34Z</time></trkpt><trkpt lat="52.40424553996278" lon="-3.289029728115544"><ele>439.00000000000006</ele><time>2026-04-12T10:23:35Z</time></trkpt><trkpt lat="52.404173878757135" lon="-3.288949740077322"><ele>439.0</ele><time>2026-04-12T10:23:36Z</time></trkpt><trkpt lat="52.40410418010021" lon="-3.288873123884152"><ele>439.0</ele><time>2026-04-12T10:23:37Z</time></trkpt><trkpt lat="52.404033433742356" lon="-3.288802939948202"><ele>439.0</ele><time>2026-04-12T10:23:38Z</time></trkpt><trkpt lat="52.40396514324199" lon="-3.2887397816987867"><ele>439.00000000000006</ele><time>2026-04-12T10:23:39Z</time></trkpt><trkpt lat="52.403896138871836" lon="-3.2886756886409136"><ele>439.0</ele><time>2026-04-12T10:23:40Z</time></trkpt><trkpt lat="52.40382353702884" lon="-3.2886076871419543"><ele>439.1666666666667</ele><time>2026-04-12T10:23:41Z</time></trkpt><trkpt lat="52.40376759244824" lon="-3.2885598126655546"><ele>439.33333333333337</ele><time>2026-04-12T10:23:42Z</time></trkpt><trkpt lat="52.40371306089952" lon="-3.2885052575555895"><ele>439.5</ele><time>2026-04-12T10:23:44Z</time></trkpt><trkpt lat="52.40359939031732" lon="-3.288409089619885"><ele>439.66666666666663</ele><time>2026-04-12T10:23:55Z</time></trkpt><trkpt lat="52.40353191535478" lon="-3.2883536090617755"><ele>439.8333333333333</ele><time>2026-04-12T10:23:56Z</time></trkpt><trkpt lat="52.40346657816949" lon="-3.288283143098612"><ele>440.0</ele><time>2026-04-12T10:23:57Z</time></trkpt><trkpt lat="52.403392159879026" lon="-3.288216732671936"><ele>439.99999999999994</ele><time>2026-04-12T10:23:58Z</time></trkpt><trkpt lat="52.40332288563721" lon="-3.28814983048818"><ele>440.0</ele><time>2026-04-12T10:23:59Z</time></trkpt><trkpt lat="52.40325729637507" lon="-3.288080881459668"><ele>440.0</ele><time>2026-04-12T10:24:00Z</time></trkpt><trkpt lat="52.40320206040352" lon="-3.288004271026225"><ele>440.0</ele><time>2026-04-12T10:24:01Z</time></trkpt><trkpt lat="52.40313848794823" lon="-3.287918086017563"><ele>439.99999999999994</ele><time>2026-04-12T10:24:02Z</time></trkpt><trkpt lat="52.40307714248968" lon="-3.2878359417673115"><ele>440.0</ele><time>2026-04-12T10:24:03Z</time></trkpt><trkpt lat="52.40300869262077" lon="-3.287734030951187"><ele>438.66666666666663</ele><time>2026-04-12T10:24:04Z</time></trkpt><trkpt lat="52.40294255944595" lon="-3.287640923527941"><ele>437.3333333333333</ele><time>2026-04-12T10:24:05Z</time></trkpt><trkpt lat="52.40287099030283" lon="-3.287539190627443"><ele>436.0</ele><time>2026-04-12T10:24:06Z</time></trkpt><trkpt lat="52.40280742711864" lon="-3.2874497892766854"><ele>434.66666666666663</ele><time>2026-04-12T10:24:07Z</time></trkpt><trkpt lat="52.40274304835311" lon="-3.287358649609461"><ele>433.3333333333333</ele><time>2026-04-12T10:24:08Z</time></trkpt><trkpt lat="52.40267966425107" lon="-3.2872763289848215"><ele>432.0</ele><time>2026-04-12T10:24:09Z</time></trkpt><trkpt lat="52.40262273795248" lon="-3.2871900796965634"><ele>431.8333333333333</ele><time>2026-04-12T10:24:10Z</time></trkpt><trkpt lat="52.402569158800716" lon="-3.2871023230875878"><ele>431.66666666666663</ele><time>2026-04-12T10:24:11Z</time></trkpt><trkpt lat="52.40251698989417" lon="-3.287015572808998"><ele>431.5</ele><time>2026-04-12T10:24:12Z</time></trkpt><trkpt lat="52.4024630701738" lon="-3.2869374805580063"><ele>431.3333333333333</ele><time>2026-04-12T10:24:13Z</time></trkpt><trkpt lat="52.40238913621119" lon="-3.2868307746546073"><ele>431.16666666666663</ele><time>2026-04-12T10:24:15Z</time></trkpt><trkpt lat="52.40231687471464" lon="-3.28671987392988"><ele>431.0</ele><time>2026-04-12T10:24:29Z</time></trkpt><trkpt lat="52.40225737122015" lon="-3.2866334799461763"><ele>430.99999999999994</ele><time>2026-04-12T10:24:31Z</time></trkpt><trkpt lat="52.40217064667681" lon="-3.286525382140844"><ele>431.0</ele><time>2026-04-12T10:24:33Z</time></trkpt><trkpt lat="52.40211726414297" lon="-3.286464900451914"><ele>431.0</ele><time>2026-04-12T10:24:34Z</time></trkpt><trkpt lat="52.40205148115202" lon="-3.2864113246664446"><ele>431.0</ele><time>2026-04-12T10:24:35Z</time></trkpt><trkpt lat="52.401965994392896" lon="-3.2863582246809853"><ele>430.99999999999994</ele><time>2026-04-12T10:24:36Z</time></trkpt><trkpt lat="52.401877411923174" lon="-3.2863283679672253"><ele>431.0</ele><time>2026-04-12T10:24:37Z</time></trkpt><trkpt lat="52.40178689044238" lon="-3.286317686476699"><ele>431.0</ele><time>2026-04-12T10:24:38Z</time></trkpt><trkpt lat="52.401694897617865" lon="-3.28633239343849"><ele>431.0</ele><time>2026-04-12T10:24:39Z</time></trkpt><trkpt lat="52.40159859103137" lon="-3.2863714963639015"><ele>431.0</ele><time>2026-04-12T10:24:40Z</time></trkpt><trkpt lat="52.40150567410762" lon="-3.286424423694281"><ele>431.0</ele><time>2026-04-12T10:24:41Z</time></trkpt><trkpt lat="52.40141590768968" lon="-3.2864748610952517"><ele>431.0</ele><time>2026-04-12T10:24:42Z</time></trkpt><trkpt lat="52.40134659652579" lon="-3.286507873855395"><ele>429.4</ele><time>2026-04-12T10:24:43Z</time></trkpt><trkpt lat="52.40123523644759" lon="-3.286563943883281"><ele>427.8</ele><time>2026-04-12T10:24:45Z</time></trkpt><trkpt lat="52.40114829075075" lon="-3.286613279774395"><ele>426.2</ele><time>2026-04-12T10:24:47Z</time></trkpt><trkpt lat="52.40108255817835" lon="-3.286709182741845"><ele>424.59999999999997</ele><time>2026-04-12T10:24:49Z</time></trkpt><trkpt lat="52.40102534991301" lon="-3.286830316107072"><ele>423.0</ele><time>2026-04-12T10:24:51Z</time></trkpt><trkpt lat="52.40096675797902" lon="-3.2869676415496776"><ele>423.0</ele><time>2026-04-12T10:24:53Z</time></trkpt><trkpt lat="52.40088873637385" lon="-3.2871155818056623"><ele>423.0</ele><time>2026-04-12T10:24:55Z</time></trkpt><trkpt lat="52.40081150462136" lon="-3.2872555416920486"><ele>423.0</ele><time>2026-04-12T10:24:57Z</time></trkpt><trkpt lat="52.40073272728446" lon="-3.2873873807587564"><ele>423.0</ele><time>2026-04-12T10:24:59Z</time></trkpt><trkpt lat="52.4006663530421" lon="-3.287517195736609"><ele>422.1666666666667</ele><time>2026-04-12T10:25:01Z</time></trkpt><trkpt lat="52.400600060428445" lon="-3.2876327192639967"><ele>421.33333333333337</ele><time>2026-04-12T10:25:03Z</time></trkpt><trkpt lat="52.40052617252779" lon="-3.2876957504567312"><ele>420.5</ele><time>2026-04-12T10:25:06Z</time></trkpt><trkpt lat="52.40048198403987" lon="-3.287771428227742"><ele>419.6666666666667</ele><time>2026-04-12T10:25:09Z</time></trkpt><trkpt lat="52.40052347808343" lon="-3.2876514493879294"><ele>418.83333333333337</ele><time>2026-04-12T10:26:08Z</time></trkpt><trkpt lat="52.40059965764084" lon="-3.2875801401555425"><ele>418.0</ele><time>2026-04-12T10:26:10Z</time></trkpt><trkpt lat="52.400673292347385" lon="-3.2874871352072748"><ele>418.0</ele><time>2026-04-12T10:26:11Z</time></trkpt><trkpt lat="52.400554605291546" lon="-3.28772054214439"><ele>418.0</ele><time>2026-04-12T10:26:12Z</time></trkpt><trkpt lat="52.4007789092212" lon="-3.2872988192761645"><ele>418.83333333333337</ele><time>2026-04-12T10:26:13Z</time></trkpt><trkpt lat="52.400830169548684" lon="-3.287204324370512"><ele>419.6666666666667</ele><time>2026-04-12T10:26:14Z</time></trkpt><trkpt lat="52.40088779371332" lon="-3.2871043564474656"><ele>420.5</ele><time>2026-04-12T10:26:15Z</time></trkpt><trkpt lat="52.400946497161605" lon="-3.28699575096638"><ele>421.33333333333337</ele><time>2026-04-12T10:26:16Z</time></trkpt><trkpt lat="52.40100403763288" lon="-3.2868826014409733"><ele>422.1666666666667</ele><time>2026-04-12T10:26:17Z</time></trkpt><trkpt lat="52.401058431061216" lon="-3.2867707554015166"><ele>423.0</ele><time>2026-04-12T10:26:18Z</time></trkpt><trkpt lat="52.401096865825394" lon="-3.2866749738401477"><ele>423.0</ele><time>2026-04-12T10:26:19Z</time></trkpt><trkpt lat="52.40114698459437" lon="-3.286608997756751"><ele>423.0</ele><time>2026-04-12T10:26:20Z</time></trkpt><trkpt lat="52.40121240121472" lon="-3.28656725014391"><ele>423.0</ele><time>2026-04-12T10:26:21Z</time></trkpt><trkpt lat="52.40128513938221" lon="-3.2865366799629046"><ele>423.0</ele><time>2026-04-12T10:26:22Z</time></trkpt><trkpt lat="52.401360430475854" lon="-3.2865040023099543"><ele>423.0</ele><time>2026-04-12T10:26:23Z</time></trkpt><trkpt lat="52.401432510504335" lon="-3.286467508027074"><ele>423.0</ele><time>2026-04-12T10:26:24Z</time></trkpt><trkpt lat="52.401510182185" lon="-3.2864656228172655"><ele>423.0</ele><time>2026-04-12T10:26:25Z</time></trkpt><trkpt lat="52.40158200594796" lon="-3.2864253462249313"><ele>423.6666666666667</ele><time>2026-04-12T10:26:26Z</time></trkpt><trkpt lat="52.40165535829628" lon="-3.286387443274623"><ele>424.33333333333337</ele><time>2026-04-12T10:26:27Z</time></trkpt><trkpt lat="52.40172917132577" lon="-3.286368284443699"><ele>425.0</ele><time>2026-04-12T10:26:28Z</time></trkpt><trkpt lat="52.40180777449795" lon="-3.28636027883936"><ele>425.6666666666667</ele><time>2026-04-12T10:26:29Z</time></trkpt><trkpt lat="52.401884200349365" lon="-3.2863654831517914"><ele>426.33333333333337</ele><time>2026-04-12T10:26:30Z</time></trkpt><trkpt lat="52.40195853851675" lon="-3.286391093794919"><ele>427.0</ele><time>2026-04-12T10:26:31Z</time></trkpt><trkpt lat="52.40203603608175" lon="-3.2864437626254897"><ele>427.0</ele><time>2026-04-12T10:26:32Z</time></trkpt><trkpt lat="52.40211568177174" lon="-3.286521893838691"><ele>427.00000000000006</ele><time>2026-04-12T10:26:33Z</time></trkpt><trkpt lat="52.40219164485302" lon="-3.286612228510978"><ele>427.00000000000006</ele><time>2026-04-12T10:26:34Z</time></trkpt><trkpt lat="52.40226698747504" lon="-3.2867120866690227"><ele>427.0</ele><time>2026-04-12T10:26:35Z</time></trkpt><trkpt lat="52.40234307829099" lon="-3.286817935362443"><ele>427.0</ele><time>2026-04-12T10:26:36Z</time></trkpt><trkpt lat="52.40242071032464" lon="-3.286932585230768"><ele>427.8</ele><time>2026-04-12T10:26:37Z</time></trkpt><trkpt lat="52.40250107910089" lon="-3.287051802035224"><ele>428.6</ele><time>2026-04-12T10:26:38Z</time></trkpt><trkpt lat="52.40259267567881" lon="-3.287153488907028"><ele>429.40000000000003</ele><time>2026-04-12T10:26:39Z</time></trkpt><trkpt lat="52.40266177029186" lon="-3.287291074977786"><ele>430.20000000000005</ele><time>2026-04-12T10:26:40Z</time></trkpt><trkpt lat="52.40274312967224" lon="-3.2874123533804487"><ele>431.0</ele><time>2026-04-12T10:26:41Z</time></trkpt><trkpt lat="52.402822016393216" lon="-3.2875301107314776"><ele>431.20000000000005</ele><time>2026-04-12T10:26:42Z</time></trkpt><trkpt lat="52.40290513680306" lon="-3.2876504746093196"><ele>431.40000000000003</ele><time>2026-04-12T10:26:43Z</time></trkpt><trkpt lat="52.40298579760341" lon="-3.287767276673194"><ele>431.6</ele><time>2026-04-12T10:26:44Z</time></trkpt><trkpt lat="52.403063143489696" lon="-3.287877386608925"><ele>431.8</ele><time>2026-04-12T10:26:45Z</time></trkpt><trkpt lat="52.403137367321456" lon="-3.2879802146749837"><ele>432.0</ele><time>2026-04-12T10:26:46Z</time></trkpt><trkpt lat="52.4032168066331" lon="-3.28805196155272"><ele>433.6</ele><time>2026-04-12T10:26:47Z</time></trkpt><trkpt lat="52.40329364871206" lon="-3.288150795058452"><ele>435.20000000000005</ele><time>2026-04-12T10:26:48Z</time></trkpt><trkpt lat="52.403385123653926" lon="-3.2882365018735933"><ele>436.8</ele><time>2026-04-12T10:26:49Z</time></trkpt><trkpt lat="52.403476782865624" lon="-3.288340911264846"><ele>438.4</ele><time>2026-04-12T10:26:50Z</time></trkpt><trkpt lat="52.403585332307806" lon="-3.2884105807841073"><ele>440.0</ele><time>2026-04-12T10:26:51Z</time></trkpt><trkpt lat="52.40368370674212" lon="-3.2885020347943104"><ele>440.0</ele><time>2026-04-12T10:26:52Z</time></trkpt><trkpt lat="52.40378237394435" lon="-3.2885939108270135"><ele>440.0</ele><time>2026-04-12T10:26:53Z</time></trkpt><trkpt lat="52.40387156648941" lon="-3.288686420761011"><ele>440.0</ele><time>2026-04-12T10:26:54Z</time></trkpt><trkpt lat="52.40395637216985" lon="-3.2887613373405973"><ele>440.0</ele><time>2026-04-12T10:26:55Z</time></trkpt><trkpt lat="52.40403511207364" lon="-3.288833932835832"><ele>440.0</ele><time>2026-04-12T10:26:56Z</time></trkpt><trkpt lat="52.404114057513084" lon="-3.2889135006555437"><ele>439.8</ele><time>2026-04-12T10:26:57Z</time></trkpt><trkpt lat="52.40419298035622" lon="-3.28900299533606"><ele>439.6</ele><time>2026-04-12T10:26:58Z</time></trkpt><trkpt lat="52.40427567384111" lon="-3.2890933524305375"><ele>439.4</ele><time>2026-04-12T10:26:59Z</time></trkpt><trkpt lat="52.40436344079627" lon="-3.2891938300231853"><ele>439.2</ele><time>2026-04-12T10:27:00Z</time></trkpt><trkpt lat="52.40445239378007" lon="-3.2892965702955728"><ele>439.0</ele><time>2026-04-12T10:27:01Z</time></trkpt><trkpt lat="52.404536364010106" lon="-3.289403528777434"><ele>439.0</ele><time>2026-04-12T10:27:02Z</time></trkpt><trkpt lat="52.404597749487664" lon="-3.289539153847815"><ele>439.0</ele><time>2026-04-12T10:27:03Z</time></trkpt><trkpt lat="52.404673091987895" lon="-3.2896506000597356"><ele>439.0</ele><time>2026-04-12T10:27:04Z</time></trkpt><trkpt lat="52.40472405505394" lon="-3.2897946889921483"><ele>439.0</ele><time>2026-04-12T10:27:05Z</time></trkpt><trkpt lat="52.404771314577644" lon="-3.289958088346783"><ele>439.0</ele><time>2026-04-12T10:27:06Z</time></trkpt><trkpt lat="52.40481725103878" lon="-3.290130941698057"><ele>437.5</ele><time>2026-04-12T10:27:07Z</time></trkpt><trkpt lat="52.404851065978185" lon="-3.290314675756019"><ele>436.0</ele><time>2026-04-12T10:27:08Z</time></trkpt><trkpt lat="52.404882458553836" lon="-3.2905013734241964"><ele>434.5</ele><time>2026-04-12T10:27:09Z</time></trkpt><trkpt lat="52.404913609597216" lon="-3.290686988795979"><ele>433.0</ele><time>2026-04-12T10:27:10Z</time></trkpt><trkpt lat="52.40494183323626" lon="-3.290868715948294"><ele>432.59999999999997</ele><time>2026-04-12T10:27:11Z</time></trkpt><trkpt lat="52.40497433425127" lon="-3.2910488423098356"><ele>432.19999999999993</ele><time>2026-04-12T10:27:12Z</time></trkpt><trkpt lat="52.40500514621439" lon="-3.291221407205484"><ele>431.8</ele><time>2026-04-12T10:27:13Z</time></trkpt><trkpt lat="52.40503061870236" lon="-3.291384255534263"><ele>431.4</ele><time>2026-04-12T10:27:14Z</time></trkpt><trkpt lat="52.405052761426255" lon="-3.2915422245442363"><ele>431.0</ele><time>2026-04-12T10:27:15Z</time></trkpt><trkpt lat="52.40506854954658" lon="-3.2916949690246406"><ele>430.99999999999994</ele><time>2026-04-12T10:27:16Z</time></trkpt><trkpt lat="52.40509184443323" lon="-3.2918464784876655"><ele>431.0</ele><time>2026-04-12T10:27:17Z</time></trkpt><trkpt lat="52.40510524082492" lon="-3.291996266271965"><ele>431.0</ele><time>2026-04-12T10:27:18Z</time></trkpt><trkpt lat="52.40511829056925" lon="-3.292127511913586"><ele>431.0</ele><time>2026-04-12T10:27:19Z</time></trkpt><trkpt lat="52.405132582887624" lon="-3.2922604617472673"><ele>430.99999999999994</ele><time>2026-04-12T10:27:20Z</time></trkpt><trkpt lat="52.405135599494315" lon="-3.292370918128818"><ele>431.0</ele><time>2026-04-12T10:27:21Z</time></trkpt><trkpt lat="52.405135382788046" lon="-3.2925082872409788"><ele>431.49999999999994</ele><time>2026-04-12T10:27:23Z</time></trkpt><trkpt lat="52.40511683758423" lon="-3.2926749272587545"><ele>432.0</ele><time>2026-04-12T10:27:27Z</time></trkpt><trkpt lat="52.40512204205318" lon="-3.2928005550762895"><ele>432.5</ele><time>2026-04-12T10:27:28Z</time></trkpt><trkpt lat="52.405087735465656" lon="-3.2929093263803666"><ele>433.0</ele><time>2026-04-12T10:27:31Z</time></trkpt><trkpt lat="52.40508148515142" lon="-3.292805371304839"><ele>433.49999999999994</ele><time>2026-04-12T10:28:09Z</time></trkpt><trkpt lat="52.40507007923719" lon="-3.292945164038315"><ele>434.0</ele><time>2026-04-12T10:30:08Z</time></trkpt><trkpt lat="52.40504636007566" lon="-3.2930489161339422"><ele>434.79999999999995</ele><time>2026-04-12T10:30:09Z</time></trkpt><trkpt lat="52.40502475663478" lon="-3.2932589238293875"><ele>435.59999999999997</ele><time>2026-04-12T10:30:11Z</time></trkpt><trkpt lat="52.40499471618856" lon="-3.293409102680477"><ele>436.4</ele><time>2026-04-12T10:30:12Z</time></trkpt><trkpt lat="52.4049661634938" lon="-3.2935651741003924"><ele>437.2</ele><time>2026-04-12T10:30:13Z</time></trkpt><trkpt lat="52.40493437945246" lon="-3.2937230512161833"><ele>438.0</ele><time>2026-04-12T10:30:14Z</time></trkpt><trkpt lat="52.40490109191535" lon="-3.293887100961621"><ele>437.79999999999995</ele><time>2026-04-12T10:30:15Z</time></trkpt><trkpt lat="52.40486147211948" lon="-3.2940431065076248"><ele>437.59999999999997</ele><time>2026-04-12T10:30:16Z</time></trkpt><trkpt lat="52.40481118566875" lon="-3.2941898778780248"><ele>437.40000000000003</ele><time>2026-04-12T10:30:17Z</time></trkpt><trkpt lat="52.40475764358645" lon="-3.2943362581855764"><ele>437.20000000000005</ele><time>2026-04-12T10:30:18Z</time></trkpt><trkpt lat="52.40469844057387" lon="-3.2944826198751342"><ele>437.0</ele><time>2026-04-12T10:30:19Z</time></trkpt><trkpt lat="52.40464110036768" lon="-3.2946221023396887"><ele>437.6</ele><time>2026-04-12T10:30:20Z</time></trkpt><trkpt lat="52.404579332076544" lon="-3.294763941544801"><ele>438.20000000000005</ele><time>2026-04-12T10:30:21Z</time></trkpt><trkpt lat="52.40451785874051" lon="-3.2949054435066123"><ele>438.8</ele><time>2026-04-12T10:30:22Z</time></trkpt><trkpt lat="52.40445382878666" lon="-3.2950462527657582"><ele>439.4</ele><time>2026-04-12T10:30:23Z</time></trkpt><trkpt lat="52.40439172379139" lon="-3.295192567184899"><ele>440.0</ele><time>2026-04-12T10:30:24Z</time></trkpt><trkpt lat="52.40433283407729" lon="-3.295344197232491"><ele>440.0</ele><time>2026-04-12T10:30:25Z</time></trkpt><trkpt lat="52.40428631350197" lon="-3.2954957346463134"><ele>440.0</ele><time>2026-04-12T10:30:26Z</time></trkpt><trkpt lat="52.40422941506008" lon="-3.295641995905965"><ele>440.0</ele><time>2026-04-12T10:30:27Z</time></trkpt><trkpt lat="52.404174696524706" lon="-3.295796752381691"><ele>440.0</ele><time>2026-04-12T10:30:28Z</time></trkpt><trkpt lat="52.404129437194314" lon="-3.2959696012277164"><ele>440.0</ele><time>2026-04-12T10:30:29Z</time></trkpt><trkpt lat="52.404083852521886" lon="-3.296145912579485"><ele>441.0</ele><time>2026-04-12T10:30:30Z</time></trkpt><trkpt lat="52.40403907381032" lon="-3.2963188423564094"><ele>442.0</ele><time>2026-04-12T10:30:31Z</time></trkpt><trkpt lat="52.403995588166985" lon="-3.296492636498698"><ele>443.0</ele><time>2026-04-12T10:30:32Z</time></trkpt><trkpt lat="52.40395275561111" lon="-3.2966669465162877"><ele>444.0</ele><time>2026-04-12T10:30:33Z</time></trkpt><trkpt lat="52.40390847571047" lon="-3.296844191476284"><ele>444.2</ele><time>2026-04-12T10:30:34Z</time></trkpt><trkpt lat="52.40386817274066" lon="-3.2970052391294513"><ele>444.4</ele><time>2026-04-12T10:30:35Z</time></trkpt><trkpt lat="52.40383116049954" lon="-3.297149409890785"><ele>444.6</ele><time>2026-04-12T10:30:36Z</time></trkpt><trkpt lat="52.403796678656356" lon="-3.297282959674795"><ele>444.8</ele><time>2026-04-12T10:30:37Z</time></trkpt><trkpt lat="52.403762130446175" lon="-3.2974256501104655"><ele>445.0</ele><time>2026-04-12T10:30:38Z</time></trkpt><trkpt lat="52.403734330021045" lon="-3.2975753296671972"><ele>445.0</ele><time>2026-04-12T10:30:39Z</time></trkpt><trkpt lat="52.40370459142095" lon="-3.2977223037170758"><ele>445.0</ele><time>2026-04-12T10:30:40Z</time></trkpt><trkpt lat="52.403692688858726" lon="-3.297880951854646"><ele>445.0</ele><time>2026-04-12T10:30:41Z</time></trkpt><trkpt lat="52.403685863412356" lon="-3.298032373587346"><ele>445.0</ele><time>2026-04-12T10:30:42Z</time></trkpt><trkpt lat="52.403682324020885" lon="-3.298179253950587"><ele>445.0</ele><time>2026-04-12T10:30:43Z</time></trkpt><trkpt lat="52.40367921695346" lon="-3.298324967580522"><ele>445.4</ele><time>2026-04-12T10:30:44Z</time></trkpt><trkpt lat="52.40367593476131" lon="-3.2984754022637546"><ele>445.8</ele><time>2026-04-12T10:30:45Z</time></trkpt><trkpt lat="52.403670337671" lon="-3.298623967894126"><ele>446.20000000000005</ele><time>2026-04-12T10:30:46Z</time></trkpt><trkpt lat="52.4036706401588" lon="-3.298774673842632"><ele>446.6</ele><time>2026-04-12T10:30:47Z</time></trkpt><trkpt lat="52.40367435577869" lon="-3.298928273079617"><ele>447.0</ele><time>2026-04-12T10:30:48Z</time></trkpt><trkpt lat="52.40367675441851" lon="-3.29906446634047"><ele>447.5</ele><time>2026-04-12T10:30:49Z</time></trkpt><trkpt lat="52.40367760002158" lon="-3.299174437671445"><ele>448.0</ele><time>2026-04-12T10:30:50Z</time></trkpt><trkpt lat="52.403672442066394" lon="-3.299337800354225"><ele>448.5</ele><time>2026-04-12T10:30:52Z</time></trkpt><trkpt lat="52.40363471083764" lon="-3.2994336568228295"><ele>449.0</ele><time>2026-04-12T10:30:55Z</time></trkpt><trkpt lat="52.40359010846154" lon="-3.2995582774411734"><ele>449.5</ele><time>2026-04-12T10:31:32Z</time></trkpt><trkpt lat="52.40357200160441" lon="-3.2996934199469816"><ele>450.0</ele><time>2026-04-12T10:31:34Z</time></trkpt><trkpt lat="52.403541062654625" lon="-3.299857331971214"><ele>450.57142857142867</ele><time>2026-04-12T10:31:36Z</time></trkpt><trkpt lat="52.40352836354185" lon="-3.2999669794334885"><ele>451.14285714285717</ele><time>2026-04-12T10:31:37Z</time></trkpt><trkpt lat="52.40351425676968" lon="-3.3000850520860814"><ele>451.7142857142858</ele><time>2026-04-12T10:31:38Z</time></trkpt><trkpt lat="52.403497341334074" lon="-3.300196911810375"><ele>452.28571428571433</ele><time>2026-04-12T10:31:39Z</time></trkpt><trkpt lat="52.403475106599885" lon="-3.3003131550865166"><ele>452.8571428571429</ele><time>2026-04-12T10:31:40Z</time></trkpt><trkpt lat="52.403455670362824" lon="-3.3004248649910726"><ele>453.42857142857144</ele><time>2026-04-12T10:31:41Z</time></trkpt><trkpt lat="52.40343344262377" lon="-3.3005355512385606"><ele>454.0</ele><time>2026-04-12T10:31:42Z</time></trkpt><trkpt lat="52.40341150562526" lon="-3.3006598040417283"><ele>454.6</ele><time>2026-04-12T10:31:43Z</time></trkpt><trkpt lat="52.40338342637736" lon="-3.3007859853131856"><ele>455.2</ele><time>2026-04-12T10:31:44Z</time></trkpt><trkpt lat="52.40331167044537" lon="-3.3010341995971406"><ele>455.80000000000007</ele><time>2026-04-12T10:31:46Z</time></trkpt><trkpt lat="52.403272461143224" lon="-3.30115743390185"><ele>456.40000000000003</ele><time>2026-04-12T10:31:47Z</time></trkpt><trkpt lat="52.403235867939514" lon="-3.3012809494134023"><ele>457.0</ele><time>2026-04-12T10:31:48Z</time></trkpt><trkpt lat="52.40320037823407" lon="-3.301409008938202"><ele>456.8</ele><time>2026-04-12T10:31:49Z</time></trkpt><trkpt lat="52.40316017926685" lon="-3.3015406940441228"><ele>456.6</ele><time>2026-04-12T10:31:50Z</time></trkpt><trkpt lat="52.40312298086363" lon="-3.3016711031929233"><ele>456.40000000000003</ele><time>2026-04-12T10:31:51Z</time></trkpt><trkpt lat="52.40308143441035" lon="-3.301816349914931"><ele>456.20000000000005</ele><time>2026-04-12T10:31:52Z</time></trkpt><trkpt lat="52.40303793740268" lon="-3.3019654997606773"><ele>456.0</ele><time>2026-04-12T10:31:53Z</time></trkpt><trkpt lat="52.402996923470425" lon="-3.3021174995902025"><ele>455.20000000000005</ele><time>2026-04-12T10:31:54Z</time></trkpt><trkpt lat="52.40295281254709" lon="-3.3022653700829787"><ele>454.40000000000003</ele><time>2026-04-12T10:31:55Z</time></trkpt><trkpt lat="52.40290751193989" lon="-3.302417292185718"><ele>453.6</ele><time>2026-04-12T10:31:56Z</time></trkpt><trkpt lat="52.40286012083556" lon="-3.3025671317503194"><ele>452.8</ele><time>2026-04-12T10:31:57Z</time></trkpt><trkpt lat="52.4028154744578" lon="-3.3027195485112313"><ele>452.0</ele><time>2026-04-12T10:31:58Z</time></trkpt><trkpt lat="52.40277438942201" lon="-3.3028716801169677"><ele>452.0</ele><time>2026-04-12T10:31:59Z</time></trkpt><trkpt lat="52.40273568103451" lon="-3.3030261758189674"><ele>452.00000000000006</ele><time>2026-04-12T10:32:00Z</time></trkpt><trkpt lat="52.40269555003548" lon="-3.3031839434628827"><ele>452.00000000000006</ele><time>2026-04-12T10:32:01Z</time></trkpt><trkpt lat="52.40265759868409" lon="-3.303343462163199"><ele>452.0</ele><time>2026-04-12T10:32:02Z</time></trkpt><trkpt lat="52.402614443376045" lon="-3.3035005041769394"><ele>452.0</ele><time>2026-04-12T10:32:03Z</time></trkpt><trkpt lat="52.4025721361729" lon="-3.3036571779592028"><ele>452.0</ele><time>2026-04-12T10:32:04Z</time></trkpt><trkpt lat="52.40253622445856" lon="-3.303816717411177"><ele>452.00000000000006</ele><time>2026-04-12T10:32:05Z</time></trkpt><trkpt lat="52.40250025669178" lon="-3.3039763038561425"><ele>452.00000000000006</ele><time>2026-04-12T10:32:06Z</time></trkpt><trkpt lat="52.40246031644522" lon="-3.3041314571526272"><ele>452.0</ele><time>2026-04-12T10:32:07Z</time></trkpt><trkpt lat="52.40241604722337" lon="-3.3042810664821323"><ele>452.0</ele><time>2026-04-12T10:32:08Z</time></trkpt><trkpt lat="52.4023734217819" lon="-3.30443081405897"><ele>452.0</ele><time>2026-04-12T10:32:09Z</time></trkpt><trkpt lat="52.40233163047618" lon="-3.304586859630662"><ele>452.00000000000006</ele><time>2026-04-12T10:32:10Z</time></trkpt><trkpt lat="52.402289141826195" lon="-3.304744400327929"><ele>452.00000000000006</ele><time>2026-04-12T10:32:11Z</time></trkpt><trkpt lat="52.40224936791265" lon="-3.3049054763027597"><ele>452.0</ele><time>2026-04-12T10:32:12Z</time></trkpt><trkpt lat="52.40221108545366" lon="-3.3050671322603273"><ele>452.0</ele><time>2026-04-12T10:32:13Z</time></trkpt><trkpt lat="52.402175756157376" lon="-3.3052185622208237"><ele>451.25</ele><time>2026-04-12T10:32:14Z</time></trkpt><trkpt lat="52.40213413120964" lon="-3.3053664523662554"><ele>450.5</ele><time>2026-04-12T10:32:15Z</time></trkpt><trkpt lat="52.40206466035831" lon="-3.305635968145956"><ele>449.75</ele><time>2026-04-12T10:32:17Z</time></trkpt><trkpt lat="52.40203050888536" lon="-3.305766834886256"><ele>449.0</ele><time>2026-04-12T10:32:18Z</time></trkpt><trkpt lat="52.401993396278776" lon="-3.305898509743227"><ele>448.99999999999994</ele><time>2026-04-12T10:32:19Z</time></trkpt><trkpt lat="52.401951317540586" lon="-3.306031588364889"><ele>449.0</ele><time>2026-04-12T10:32:20Z</time></trkpt><trkpt lat="52.401904187748826" lon="-3.3061601397447724"><ele>449.0</ele><time>2026-04-12T10:32:21Z</time></trkpt><trkpt lat="52.40185938618489" lon="-3.306270510857933"><ele>449.0</ele><time>2026-04-12T10:32:22Z</time></trkpt><trkpt lat="52.40181153619557" lon="-3.306375867163949"><ele>448.99999999999994</ele><time>2026-04-12T10:32:23Z</time></trkpt><trkpt lat="52.40176822940685" lon="-3.306490163685211"><ele>449.0</ele><time>2026-04-12T10:32:24Z</time></trkpt><trkpt lat="52.4017276883611" lon="-3.306618065593004"><ele>449.2</ele><time>2026-04-12T10:32:25Z</time></trkpt><trkpt lat="52.40168540987438" lon="-3.3067428669947985"><ele>449.4</ele><time>2026-04-12T10:32:26Z</time></trkpt><trkpt lat="52.40163656775809" lon="-3.3068753852074733"><ele>449.6</ele><time>2026-04-12T10:32:27Z</time></trkpt><trkpt lat="52.40158735258465" lon="-3.3070086321948398"><ele>449.8</ele><time>2026-04-12T10:32:28Z</time></trkpt><trkpt lat="52.40153422244542" lon="-3.307145814943674"><ele>450.0</ele><time>2026-04-12T10:32:29Z</time></trkpt><trkpt lat="52.40147794311593" lon="-3.3072919190285037"><ele>450.0</ele><time>2026-04-12T10:32:30Z</time></trkpt><trkpt lat="52.401419257903896" lon="-3.307437459436835"><ele>450.0</ele><time>2026-04-12T10:32:31Z</time></trkpt><trkpt lat="52.40135634947085" lon="-3.3075859192357875"><ele>450.0</ele><time>2026-04-12T10:32:32Z</time></trkpt><trkpt lat="52.401285883134385" lon="-3.307726716193075"><ele>450.0</ele><time>2026-04-12T10:32:33Z</time></trkpt><trkpt lat="52.40121292611167" lon="-3.3078635601719224"><ele>450.0</ele><time>2026-04-12T10:32:34Z</time></trkpt><trkpt lat="52.40115467165311" lon="-3.3080091358071617"><ele>448.4</ele><time>2026-04-12T10:32:35Z</time></trkpt><trkpt lat="52.40108644348425" lon="-3.3081494644845337"><ele>446.8</ele><time>2026-04-12T10:32:36Z</time></trkpt><trkpt lat="52.40102535501448" lon="-3.3082900129278277"><ele>445.20000000000005</ele><time>2026-04-12T10:32:37Z</time></trkpt><trkpt lat="52.40096322680544" lon="-3.3084263455427996"><ele>443.6</ele><time>2026-04-12T10:32:38Z</time></trkpt><trkpt lat="52.400898444191085" lon="-3.308561243600051"><ele>442.0</ele><time>2026-04-12T10:32:39Z</time></trkpt><trkpt lat="52.400833679127246" lon="-3.308695992364654"><ele>442.0</ele><time>2026-04-12T10:32:40Z</time></trkpt><trkpt lat="52.40076911660253" lon="-3.308832061044543"><ele>442.00000000000006</ele><time>2026-04-12T10:32:41Z</time></trkpt><trkpt lat="52.40070680535072" lon="-3.308962712194344"><ele>442.00000000000006</ele><time>2026-04-12T10:32:42Z</time></trkpt><trkpt lat="52.40064398655287" lon="-3.309089876802403"><ele>442.0</ele><time>2026-04-12T10:32:43Z</time></trkpt><trkpt lat="52.400582139781214" lon="-3.309219823092264"><ele>442.0</ele><time>2026-04-12T10:32:44Z</time></trkpt><trkpt lat="52.400525603745834" lon="-3.3093442476941193"><ele>440.6</ele><time>2026-04-12T10:32:45Z</time></trkpt><trkpt lat="52.40046402787487" lon="-3.3094660608728"><ele>439.20000000000005</ele><time>2026-04-12T10:32:46Z</time></trkpt><trkpt lat="52.40040287192392" lon="-3.309588954692555"><ele>437.8</ele><time>2026-04-12T10:32:47Z</time></trkpt><trkpt lat="52.4003444452636" lon="-3.309713040343853"><ele>436.4</ele><time>2026-04-12T10:32:48Z</time></trkpt><trkpt lat="52.40028571800211" lon="-3.309840206322305"><ele>435.0</ele><time>2026-04-12T10:32:49Z</time></trkpt><trkpt lat="52.400225846063776" lon="-3.309960970148405"><ele>435.0</ele><time>2026-04-12T10:32:50Z</time></trkpt><trkpt lat="52.40016647828015" lon="-3.310072842550094"><ele>435.0</ele><time>2026-04-12T10:32:51Z</time></trkpt><trkpt lat="52.40009887373878" lon="-3.3101784858647925"><ele>435.0</ele><time>2026-04-12T10:32:52Z</time></trkpt><trkpt lat="52.40002399360548" lon="-3.3102768991435627"><ele>435.0</ele><time>2026-04-12T10:32:53Z</time></trkpt><trkpt lat="52.39994648169008" lon="-3.31037996804699"><ele>435.0</ele><time>2026-04-12T10:32:54Z</time></trkpt><trkpt lat="52.399873980655045" lon="-3.310488970901201"><ele>434.6</ele><time>2026-04-12T10:32:55Z</time></trkpt><trkpt lat="52.39981059669638" lon="-3.310600669966874"><ele>434.2</ele><time>2026-04-12T10:32:56Z</time></trkpt><trkpt lat="52.39974702316631" lon="-3.310718294553402"><ele>433.79999999999995</ele><time>2026-04-12T10:32:57Z</time></trkpt><trkpt lat="52.399683401107204" lon="-3.310829351326828"><ele>433.4</ele><time>2026-04-12T10:32:58Z</time></trkpt><trkpt lat="52.39961678724592" lon="-3.310941822960745"><ele>433.0</ele><time>2026-04-12T10:32:59Z</time></trkpt><trkpt lat="52.39954888120003" lon="-3.3110558829151726"><ele>432.0</ele><time>2026-04-12T10:33:00Z</time></trkpt><trkpt lat="52.39948087974689" lon="-3.311166808412758"><ele>430.99999999999994</ele><time>2026-04-12T10:33:01Z</time></trkpt><trkpt lat="52.399407533200815" lon="-3.3112669381071784"><ele>429.99999999999994</ele><time>2026-04-12T10:33:02Z</time></trkpt><trkpt lat="52.39933120665329" lon="-3.3113690009665353"><ele>429.0</ele><time>2026-04-12T10:33:03Z</time></trkpt><trkpt lat="52.39925737861467" lon="-3.31146990366701"><ele>428.0</ele><time>2026-04-12T10:33:04Z</time></trkpt><trkpt lat="52.39918297968929" lon="-3.3115743841720375"><ele>427.4</ele><time>2026-04-12T10:33:05Z</time></trkpt><trkpt lat="52.39910627710694" lon="-3.3116794066316673"><ele>426.79999999999995</ele><time>2026-04-12T10:33:06Z</time></trkpt><trkpt lat="52.39902725371052" lon="-3.3117818732044544"><ele>426.2</ele><time>2026-04-12T10:33:07Z</time></trkpt><trkpt lat="52.398951406126464" lon="-3.311887581137181"><ele>425.6</ele><time>2026-04-12T10:33:08Z</time></trkpt><trkpt lat="52.398874901572974" lon="-3.3119923187036755"><ele>425.0</ele><time>2026-04-12T10:33:09Z</time></trkpt><trkpt lat="52.39879854654901" lon="-3.3120960639060666"><ele>423.6</ele><time>2026-04-12T10:33:10Z</time></trkpt><trkpt lat="52.39872745350857" lon="-3.3121954217027505"><ele>422.2</ele><time>2026-04-12T10:33:11Z</time></trkpt><trkpt lat="52.398662322670454" lon="-3.3123008204126547"><ele>420.79999999999995</ele><time>2026-04-12T10:33:12Z</time></trkpt><trkpt lat="52.39860217846811" lon="-3.3124153193973958"><ele>419.4</ele><time>2026-04-12T10:33:13Z</time></trkpt><trkpt lat="52.398544286236245" lon="-3.3125381509710556"><ele>418.0</ele><time>2026-04-12T10:33:14Z</time></trkpt><trkpt lat="52.39848457537938" lon="-3.3126721538045087"><ele>417.4</ele><time>2026-04-12T10:33:15Z</time></trkpt><trkpt lat="52.39842265571968" lon="-3.3127994362444078"><ele>416.79999999999995</ele><time>2026-04-12T10:33:16Z</time></trkpt><trkpt lat="52.39836070121052" lon="-3.3129241578867212"><ele>416.2</ele><time>2026-04-12T10:33:17Z</time></trkpt><trkpt lat="52.398302972658904" lon="-3.3130558970909396"><ele>415.6</ele><time>2026-04-12T10:33:18Z</time></trkpt><trkpt lat="52.39824359299266" lon="-3.3131884361057065"><ele>415.0</ele><time>2026-04-12T10:33:19Z</time></trkpt><trkpt lat="52.3981919867763" lon="-3.3133209150482714"><ele>413.83333333333337</ele><time>2026-04-12T10:33:20Z</time></trkpt><trkpt lat="52.39814351760103" lon="-3.313448948264488"><ele>412.6666666666667</ele><time>2026-04-12T10:33:21Z</time></trkpt><trkpt lat="52.39810111341782" lon="-3.3135751235466526"><ele>411.5</ele><time>2026-04-12T10:33:22Z</time></trkpt><trkpt lat="52.398054298172426" lon="-3.3136946835731584"><ele>410.33333333333337</ele><time>2026-04-12T10:33:23Z</time></trkpt><trkpt lat="52.39801017364842" lon="-3.313805399886673"><ele>409.1666666666667</ele><time>2026-04-12T10:33:24Z</time></trkpt><trkpt lat="52.397965863161396" lon="-3.313907554647041"><ele>408.0</ele><time>2026-04-12T10:33:25Z</time></trkpt><trkpt lat="52.39792798840876" lon="-3.314023428448225"><ele>407.2</ele><time>2026-04-12T10:33:26Z</time></trkpt><trkpt lat="52.39789735770109" lon="-3.3141608766372253"><ele>406.4</ele><time>2026-04-12T10:33:27Z</time></trkpt><trkpt lat="52.397866121321805" lon="-3.314309146931384"><ele>405.59999999999997</ele><time>2026-04-12T10:33:28Z</time></trkpt><trkpt lat="52.39783068988347" lon="-3.3144673493823538"><ele>404.79999999999995</ele><time>2026-04-12T10:33:29Z</time></trkpt><trkpt lat="52.39778822851298" lon="-3.314624847269901"><ele>404.0</ele><time>2026-04-12T10:33:30Z</time></trkpt><trkpt lat="52.39775011387992" lon="-3.314784650170324"><ele>403.0</ele><time>2026-04-12T10:33:31Z</time></trkpt><trkpt lat="52.397715037084026" lon="-3.3149476878599193"><ele>402.0</ele><time>2026-04-12T10:33:32Z</time></trkpt><trkpt lat="52.39768655074747" lon="-3.315101281265721"><ele>401.0</ele><time>2026-04-12T10:33:33Z</time></trkpt><trkpt lat="52.39764905147512" lon="-3.3152541529084654"><ele>400.0</ele><time>2026-04-12T10:33:34Z</time></trkpt><trkpt lat="52.39761787112779" lon="-3.31540302256771"><ele>399.0</ele><time>2026-04-12T10:33:35Z</time></trkpt><trkpt lat="52.397591906817304" lon="-3.315547285793444"><ele>397.79999999999995</ele><time>2026-04-12T10:33:36Z</time></trkpt><trkpt lat="52.397570042842375" lon="-3.31568427572852"><ele>396.59999999999997</ele><time>2026-04-12T10:33:37Z</time></trkpt><trkpt lat="52.39756092953608" lon="-3.315828679623582"><ele>395.4</ele><time>2026-04-12T10:33:38Z</time></trkpt><trkpt lat="52.39756225885953" lon="-3.3159839034823615"><ele>394.2</ele><time>2026-04-12T10:33:39Z</time></trkpt><trkpt lat="52.39756926117189" lon="-3.3161416538416137"><ele>393.0</ele><time>2026-04-12T10:33:40Z</time></trkpt><trkpt lat="52.39758438057081" lon="-3.31629950634122"><ele>390.79999999999995</ele><time>2026-04-12T10:33:41Z</time></trkpt><trkpt lat="52.397589821267395" lon="-3.316460606357111"><ele>388.6</ele><time>2026-04-12T10:33:42Z</time></trkpt><trkpt lat="52.397589336712294" lon="-3.3166190069975556"><ele>386.4</ele><time>2026-04-12T10:33:43Z</time></trkpt><trkpt lat="52.39758005675676" lon="-3.3167823524062965"><ele>384.20000000000005</ele><time>2026-04-12T10:33:44Z</time></trkpt><trkpt lat="52.39756209957061" lon="-3.316956296983412"><ele>382.0</ele><time>2026-04-12T10:33:45Z</time></trkpt><trkpt lat="52.39753946651958" lon="-3.317129399515003"><ele>380.20000000000005</ele><time>2026-04-12T10:33:46Z</time></trkpt><trkpt lat="52.39751645088607" lon="-3.317298599520335"><ele>378.4</ele><time>2026-04-12T10:33:47Z</time></trkpt><trkpt lat="52.39749276441921" lon="-3.3174709228073826"><ele>376.6</ele><time>2026-04-12T10:33:48Z</time></trkpt><trkpt lat="52.39746951377636" lon="-3.3176398474277145"><ele>374.79999999999995</ele><time>2026-04-12T10:33:49Z</time></trkpt><trkpt lat="52.3974371235093" lon="-3.3178006448967405"><ele>373.0</ele><time>2026-04-12T10:33:50Z</time></trkpt><trkpt lat="52.39739597265429" lon="-3.317961198622276"><ele>371.75</ele><time>2026-04-12T10:33:51Z</time></trkpt><trkpt lat="52.39735181044939" lon="-3.3181294543026114"><ele>370.5</ele><time>2026-04-12T10:33:52Z</time></trkpt><trkpt lat="52.39730600050737" lon="-3.318290036232796"><ele>369.25</ele><time>2026-04-12T10:33:53Z</time></trkpt><trkpt lat="52.39724500100125" lon="-3.318468258220373"><ele>368.0</ele><time>2026-04-12T10:33:54Z</time></trkpt><trkpt lat="52.3971941014702" lon="-3.31863511283377"><ele>367.0</ele><time>2026-04-12T10:33:55Z</time></trkpt><trkpt lat="52.397142218751405" lon="-3.318799865269435"><ele>366.0</ele><time>2026-04-12T10:33:56Z</time></trkpt><trkpt lat="52.39709010888857" lon="-3.3189560987631084"><ele>365.0</ele><time>2026-04-12T10:33:57Z</time></trkpt><trkpt lat="52.397037043518026" lon="-3.319115200191295"><ele>364.0</ele><time>2026-04-12T10:33:58Z</time></trkpt><trkpt lat="52.396971282528526" lon="-3.319244677493149"><ele>363.0</ele><time>2026-04-12T10:33:59Z</time></trkpt><trkpt lat="52.39689283869255" lon="-3.3193627788107727"><ele>362.5</ele><time>2026-04-12T10:34:00Z</time></trkpt><trkpt lat="52.39681629909717" lon="-3.319432777332663"><ele>362.0</ele><time>2026-04-12T10:34:01Z</time></trkpt><trkpt lat="52.396712496413954" lon="-3.31960651176538"><ele>361.5</ele><time>2026-04-12T10:34:02Z</time></trkpt><trkpt lat="52.3966219563482" lon="-3.3197298669903863"><ele>361.0</ele><time>2026-04-12T10:34:03Z</time></trkpt><trkpt lat="52.39653636756406" lon="-3.3198440166147636"><ele>360.8</ele><time>2026-04-12T10:34:04Z</time></trkpt><trkpt lat="52.39645131261853" lon="-3.3199510515060173"><ele>360.6</ele><time>2026-04-12T10:34:05Z</time></trkpt><trkpt lat="52.39636873114302" lon="-3.320036489011934"><ele>360.4</ele><time>2026-04-12T10:34:06Z</time></trkpt><trkpt lat="52.3962847890616" lon="-3.3201150961361128"><ele>360.2</ele><time>2026-04-12T10:34:07Z</time></trkpt><trkpt lat="52.39620830928085" lon="-3.320192875259208"><ele>360.0</ele><time>2026-04-12T10:34:08Z</time></trkpt><trkpt lat="52.39613092925233" lon="-3.3202708179724385"><ele>359.2</ele><time>2026-04-12T10:34:09Z</time></trkpt><trkpt lat="52.39605391110871" lon="-3.3203581247733682"><ele>358.4</ele><time>2026-04-12T10:34:10Z</time></trkpt><trkpt lat="52.39598015010842" lon="-3.3204451686978733"><ele>357.6</ele><time>2026-04-12T10:34:11Z</time></trkpt><trkpt lat="52.39590371531102" lon="-3.3205359057529984"><ele>356.8</ele><time>2026-04-12T10:34:12Z</time></trkpt><trkpt lat="52.39582527496296" lon="-3.3206346745107815"><ele>356.0</ele><time>2026-04-12T10:34:13Z</time></trkpt><trkpt lat="52.39574637042257" lon="-3.320728484195569"><ele>355.8</ele><time>2026-04-12T10:34:14Z</time></trkpt><trkpt lat="52.39566686748869" lon="-3.3208228138695013"><ele>355.6</ele><time>2026-04-12T10:34:15Z</time></trkpt><trkpt lat="52.39558728168964" lon="-3.3209262386201197"><ele>355.4</ele><time>2026-04-12T10:34:16Z</time></trkpt><trkpt lat="52.39550890754025" lon="-3.321033184897781"><ele>355.2</ele><time>2026-04-12T10:34:17Z</time></trkpt><trkpt lat="52.395429189233866" lon="-3.3211365740935763"><ele>355.0</ele><time>2026-04-12T10:34:18Z</time></trkpt><trkpt lat="52.39535027042043" lon="-3.321236401123155"><ele>353.2</ele><time>2026-04-12T10:34:19Z</time></trkpt><trkpt lat="52.39527526369776" lon="-3.32134304780331"><ele>351.4</ele><time>2026-04-12T10:34:20Z</time></trkpt><trkpt lat="52.39520969557562" lon="-3.321458447008658"><ele>349.6</ele><time>2026-04-12T10:34:21Z</time></trkpt><trkpt lat="52.395148140662386" lon="-3.3215813830200775"><ele>347.8</ele><time>2026-04-12T10:34:22Z</time></trkpt><trkpt lat="52.39509071318517" lon="-3.321709726800435"><ele>346.0</ele><time>2026-04-12T10:34:23Z</time></trkpt><trkpt lat="52.39503218622747" lon="-3.321836480908667"><ele>345.20000000000005</ele><time>2026-04-12T10:34:24Z</time></trkpt><trkpt lat="52.394974338068614" lon="-3.3219723458272807"><ele>344.40000000000003</ele><time>2026-04-12T10:34:25Z</time></trkpt><trkpt lat="52.394916243655516" lon="-3.322117594319885"><ele>343.6</ele><time>2026-04-12T10:34:26Z</time></trkpt><trkpt lat="52.39485908574678" lon="-3.3222658467536648"><ele>342.8</ele><time>2026-04-12T10:34:27Z</time></trkpt><trkpt lat="52.39480263964497" lon="-3.322422915020128"><ele>342.0</ele><time>2026-04-12T10:34:28Z</time></trkpt><trkpt lat="52.3947422331426" lon="-3.322592591642127"><ele>341.40000000000003</ele><time>2026-04-12T10:34:29Z</time></trkpt><trkpt lat="52.394702019442526" lon="-3.3227465206499183"><ele>340.8</ele><time>2026-04-12T10:34:30Z</time></trkpt><trkpt lat="52.394646259438325" lon="-3.3228975625684205"><ele>340.2</ele><time>2026-04-12T10:34:31Z</time></trkpt><trkpt lat="52.39459203141998" lon="-3.3230427525406623"><ele>339.6</ele><time>2026-04-12T10:34:32Z</time></trkpt><trkpt lat="52.394547267326026" lon="-3.3231914415805313"><ele>339.0</ele><time>2026-04-12T10:34:33Z</time></trkpt><trkpt lat="52.394514713585906" lon="-3.323354542411612"><ele>335.2</ele><time>2026-04-12T10:34:34Z</time></trkpt><trkpt lat="52.39449516231535" lon="-3.3235230823118984"><ele>331.4</ele><time>2026-04-12T10:34:35Z</time></trkpt><trkpt lat="52.39448345433435" lon="-3.323695497841384"><ele>327.6</ele><time>2026-04-12T10:34:36Z</time></trkpt><trkpt lat="52.39446686934154" lon="-3.3238790016929025"><ele>323.8</ele><time>2026-04-12T10:34:37Z</time></trkpt><trkpt lat="52.39445506264946" lon="-3.324059140138358"><ele>320.0</ele><time>2026-04-12T10:34:38Z</time></trkpt><trkpt lat="52.39443987420196" lon="-3.32424383163877"><ele>320.0</ele><time>2026-04-12T10:34:39Z</time></trkpt><trkpt lat="52.39443668059354" lon="-3.3244235665161814"><ele>320.0</ele><time>2026-04-12T10:34:40Z</time></trkpt><trkpt lat="52.39443450534787" lon="-3.3245980355412046"><ele>320.0</ele><time>2026-04-12T10:34:41Z</time></trkpt><trkpt lat="52.39443187379698" lon="-3.324770509334447"><ele>320.0</ele><time>2026-04-12T10:34:42Z</time></trkpt><trkpt lat="52.39442087119018" lon="-3.3249401410116266"><ele>320.0</ele><time>2026-04-12T10:34:43Z</time></trkpt><trkpt lat="52.39442036023885" lon="-3.3251112842124706"><ele>319.33333333333337</ele><time>2026-04-12T10:34:44Z</time></trkpt><trkpt lat="52.3944200461947" lon="-3.325271891576542"><ele>318.6666666666667</ele><time>2026-04-12T10:34:45Z</time></trkpt><trkpt lat="52.39441930514699" lon="-3.3254179231056282"><ele>318.0</ele><time>2026-04-12T10:34:46Z</time></trkpt><trkpt lat="52.39439727941234" lon="-3.32554030305418"><ele>317.3333333333333</ele><time>2026-04-12T10:34:47Z</time></trkpt><trkpt lat="52.394383055546626" lon="-3.3256600203808606"><ele>316.66666666666663</ele><time>2026-04-12T10:34:48Z</time></trkpt><trkpt lat="52.394371333700796" lon="-3.3257636770032564"><ele>316.0</ele><time>2026-04-12T10:34:49Z</time></trkpt><trkpt lat="52.39437641917075" lon="-3.3259338439542003"><ele>310.0</ele><time>2026-04-12T10:34:51Z</time></trkpt><trkpt lat="52.39436574276032" lon="-3.326039812837999"><ele>310.0</ele><time>2026-04-12T10:34:55Z</time></trkpt></trkseg></trk></gpx>